Aviation Digital Data Service (ADDS)

Output produced by METARs form (0715 UTC 23 May 2015)
found at http://aviationweather.gov/adds/metars/
 
K04V 230652Z AUTO 15005KT 10SM SCT070 05/02 A3009 RMK AO2
K04W 230653Z AUTO 00000KT 10SM CLR 06/05 A3020 RMK AO2
K05U 230705Z AUTO 00000KT 10SM BKN033 OVC039 08/05 A3002 RMK AO1
K06D 230655Z AUTO 22004KT 10SM CLR 10/01 A3014 RMK AO2
K08D 230655Z AUTO 00000KT 10SM SCT090 09/04 A3013 RMK AO2
K0A9 230655Z AUTO 05003KT 10SM CLR 09/05 A3034 RMK
K0CO 230655Z AUTO 15013KT 10SM SCT018 BKN030 OVC080 M03/M08 A3026 RMK AO2 LTG DSNT W
K0E0 230655Z AUTO 23006KT 10SM SCT010 12/10 A3003 RMK AO2 T01200101
K0F2 230655Z AUTO 11004KT 7SM OVC016 16/16 A3009 RMK AO2 T01630163
K0J4 230658Z AUTO 03003KT 10SM CLR 16/13 A3020 RMK AO2 SLP224 T01560128
K0V4 230655Z AUTO 00000KT 10SM CLR 10/08 A3029 RMK AO1 T01010080
K0VG 230655Z AUTO 00000KT 10SM CLR 08/08 A3034 RMK AO2
K11R 230655Z AUTO 11004KT 5SM BR OVC011 23/22 A3008 RMK AO2 T02310221
K12N 230654Z AUTO 00000KT 08/M03 A3027 RMK AO1 SLP248 T00831033
K14Y 230655Z AUTO 00000KT 10SM SCT110 10/03 A3020 RMK AO2
K18A 230655Z AUTO 04004KT 10SM 13/11 A3029 RMK AO2 T01300111
K19A 230655Z AUTO 00000KT 10SM CLR 13/12 A3028 RMK AO2
K1A5 230655Z AUTO 00000KT 10SM 07/07 A3035 RMK AO2 T00680068
K1A6 230655Z AUTO 00000KT 10SM CLR 08/08 A3034 RMK AO2 T00800078
K1A9 230655Z AUTO 00000KT 10SM CLR 14/13 A3020 RMK AO2 T01400132
K1F0 230655Z AUTO 11003KT 15/15 A3012 RMK AO2 PWINO
K1H2 230655Z AUTO 00000KT 10SM CLR 15/11 A3027 RMK AO2 T01460106
K1II 230655Z AUTO 00000KT 10SM CLR 10/09 A3029 RMK AO2
K1J0 230658Z AUTO 00000KT 10SM CLR 16/15 A3019 RMK AO2 SLP181 T01560150
K1K1 230655Z AUTO 17008KT 4SM DZ OVC005 12/12 A3017 RMK AO2 T01210117
K1L0 230655Z AUTO 00000KT 7SM CLR 23/21 A3015 RMK AO2 T02250208
K1M4 230656Z AUTO 00000KT 10SM CLR 09/09 A3027 RMK AO2 T00940094 SLP261
K1P1 230715Z AUTO 34004KT 10SM CLR 03/M03 A3015 RMK AO2 T00321028
K1QW 230656Z AUTO 26020G24KT M /// /// M 12/10 A2991 RMK AO2 SLP120 T01160095 $
K1R7 230655Z AUTO 00000KT 10SM CLR 16/16 A3020 RMK AO2
K1S5 230715Z AUTO 34005KT 10SM SCT120 17/12 A2988 RMK AO2 T01650120
K1V4 230654Z AUTO 02/M05 A3015 RMK AO1 SLP212 T00221050
K1V6 230650Z AUTO 13008KT 10SM SCT060 SCT070 BKN090 12/09 A3003 RMK AO2 LTG DSNT NE
K1YT 230705Z AUTO 12003KT 10SM OVC085 15/13 A2993 RMK AO2 RAE04 $
K20U 230655Z AUTO 13008KT 10SM FEW042 SCT047 08/03 A3008 RMK AO2
K20V 230655Z AUTO 00000KT 10SM SCT023 SCT046 05/02 A3011 RMK AO2 P0001
K21D 230655Z AUTO 00000KT 10SM CLR 08/06 A3022 RMK AO2
K24J 230715Z AUTO 00000KT 9SM CLR 21/21 A3022 RMK AO1
K28J 230635Z AUTO 02005KT 9SM OVC020 21/21 A3019 RMK AO2 TSNO
K2C8 230655Z AUTO 21004KT 10SM CLR 13/06 A3011 RMK AO2
K2D5 230655Z AUTO 22009KT 10SM 12/08 A3017 RMK AO2
K2DP 230711Z AUTO 24002KT 10SM CLR 12/12 A3027 RMK AO2 $
K2G4 230700Z AUTO 00000KT 10SM CLR 05/M06 A3034 RMK AO1
K2G9 230655Z AUTO 21006KT 10SM CLR 01/M04 A3033 RMK AO2
K2I0 230655Z AUTO 00000KT 10SM CLR 14/14 A3028 RMK AO2 T01410135
K2J9 230655Z AUTO 09007KT 10SM FEW038 17/13 A3020 RMK AO1
K2V5 230715Z AUTO 10022G25KT 7SM RA SCT003 BKN035 OVC085 A3002 RMK AO2 LTG DSNT E AND SE P0004
K2W6 230703Z AUTO 30004KT 10SM SCT075 16/02 A3029 RMK AO1
K2WX 230656Z AUTO 12010KT 07/04 A3000 RMK AO1 SLP158 T00670039 402000028
K33V 230655Z AUTO 16005KT 10SM SCT030 BKN049 OVC075 03/01 A3007 RMK AO2
K36U 230655Z AUTO 00000KT 10SM VCTSUP SCT047 OVC060 07/05 A2997 RMK AO2
K3AU 230655Z AUTO 14006KT 4SM BR OVC004 12/11 A3017 RMK AO2
K3D2 230655Z AUTO 20005KT 10SM CLR 06/M02 A3025 RMK AO2 T00551025
K3I2 230655Z AUTO 00000KT 10SM CLR 11/08 A3032 RMK AO2
K3J7 230655Z AUTO 00000KT 10SM CLR 17/12 A3023 RMK AO2
K3K3 230655Z AUTO 13015KT 10SM OVC007 14/13 A3001 RMK AO2
K3LF 230655Z AUTO 00000KT 10SM BKN120 15/13 A3025 RMK AO2 T01510128
K3N8 230655Z AUTO 17005KT 10SM CLR 13/04 A3016 RMK AO2 T01290036
K3R7 230655Z AUTO 06003KT 10SM BKN022 BKN027 BKN033 21/20 A3014 RMK AO2 T02060199
K3T5 230655Z AUTO 13005KT 7SM OVC007 24/23 A3005 RMK AO2 T02420233
K40B 230620Z AUTO VRB03KT 00/00 A2993 RMK AO1 SLP150 T00040002 10041 20003 54000 P0003 60017
K40J 230655Z AUTO 05003KT 10SM CLR 20/19 A3019 RMK AO2 T02010185
K42J 230655Z AUTO 05004KT 8SM OVC015 21/21 A3020 RMK AO1 TSNO
K46D 230655Z AUTO 19009KT 10SM CLR 10/05 A3014 RMK AO2
K49A 230655Z AUTO 04003KT 10SM CLR A3031 RMK AO2
K4A6 230655Z AUTO 00000KT 10SM CLR 10/10 A3028 RMK AO2
K4A9 230655Z AUTO 00000KT 10SM CLR 07/06 A3026 RMK AO2
K4BM 230655Z AUTO 21003KT 10SM SCT032 BKN050 OVC055 00/M01 A3024 RMK AO2 LTG DSNT SW
K4I3 230656Z AUTO 00000KT 10SM CLR 09/02 A3031 RMK AO2
K4I7 230715Z AUTO 00000KT 7SM CLR 13/05 A3029 RMK AO2
K4M9 230655Z AUTO 00000KT 10SM 16/14 A3025 RMK AO2
K4MR 230656Z AUTO 14014G22KT 5SM -SHRA BKN002 15/15 A2999 RMK AO2 LTG DSNT W-NE DZE02RAB02E15SHRAB15E29SHRAB31 TSB01E15 SLP118 P0001 T01520148 402090081 $
K4O4 230655Z AUTO 07005KT 10SM BKN035 BKN070 15/13 A3015 RMK AO2
K54J 230655Z AUTO 10SM CLR 18/14 A3019 RMK AO2 T01780143
K5A6 230655Z AUTO 00000KT 10SM CLR 13/12 A3021 RMK AO2 T01290123
K5C1 230655Z AUTO 16007G14KT 7SM 22/21 A3008 RMK AO1 P0001
K5H4 230655Z AUTO 19007KT 10SM CLR 13/05 A3012 RMK AO2
K5M9 230655Z AUTO 11003KT 10SM CLR 13/11 A3026 RMK AO2 T01250112
K5R8 230655Z AUTO 10003KT 10SM CLR 20/20 A3013 RMK AO2 T01980198
K5SM 230654Z AUTO 00000KT 10SM BKN044 BKN050 OVC120 01/00 A3020 RMK AO2 LTG DSNT W
K65S 230655Z AUTO 00000KT 10SM CLR 18/M02 A2992 RMK AO2
K66R 230655Z AUTO 13006KT 5SM BR OVC005 24/23 A3006 RMK AO2 T02350231
K6A1 230655Z AUTO 00000KT 10SM 19/15 A3025 RMK AO2 T01910153
K6A2 230655Z AUTO 00000KT 10SM CLR 16/11 A3026 RMK AO2
K6B0 230655Z AUTO 00000KT 10SM CLR 00/M04 A3022 RMK AO2 T00031038
K6I2 230650Z AUTO 00000KT 10SM CLR 12/08 A3030 RMK AO2
K6L4 230655Z AUTO 00000KT 10SM CLR 11/09 A3029 RMK AO2
K6R3 230655Z AUTO 00000KT 3SM BR SCT013 21/21 A3011 RMK AO2 T02100207
K6R6 230653Z AUTO 20011G17KT 24/19 A2996 RMK AO1 SLP111 T02390189
K79J 230656Z AUTO 00000KT 10SM CLR 18/12 A3020 RMK AO2 SLP221 T01780122
K7BM 230654Z AUTO 34003KT 10SM SCT016 BKN029 OVC050 05/00 A3016 RMK AO2
K7L2 230655Z AUTO 07003KT 10SM CLR 08/07 A3015 RMK AO2
K7N0 230655Z AUTO 14004KT A3015 RMK AO1
K7W4 230655Z AUTO 02004KT 10SM CLR 15/08 A3029 RMK AO1 T01520076
K82C 230655Z AUTO 00000KT 10SM CLR 08/07 A3024 RMK AO2 T00750067
K82V 230655Z AUTO 00000KT 10SM OVC005 06/06 A3007 RMK AO2
K8A0 230655Z AUTO 06003KT 10SM CLR 11/10 A3025 RMK AO2
K8D3 230656Z AUTO 26015G20KT 14/06 A3016 RMK AO1 SLP202 T01390061
K8S0 230640Z 26004KT
K8W2 230655Z AUTO 04005KT 10SM OVC048 13/05 A3034 RMK AO1 T01300050
K96D 230655Z AUTO 21006KT 10SM CLR 14/02 A3011 RMK AO2
K9A5 230655Z AUTO 00000KT 10SM SCT100 10/07 A3028 RMK AO2 T01020065
K9D7 230655Z AUTO 17004KT 10SM CLR 08/04 A3012 RMK AO2
K9L2 230655Z AUTO 23018G24KT 10SM CLR 12/06 A2997 RMK AO2 PK WND 23026/0607 SLP141 T01220061 TSNO $
K9MN 230654Z AUTO 12006KT 10SM CLR 15/03 A3022 RMK AO1 T01470032
K9V9 230655Z AUTO 14007KT 10SM SCT048 BKN050 OVC080 10/08 A3016 RMK AO2 T01030078
KA08 230655Z AUTO 00000KT 10SM CLR 14/14 A3019 RMK AO2 T01410137 PWINO
KAAA 230655Z AUTO 03004KT 10SM SCT120 17/11 A3022 RMK AO2 T01660112
KAAF 230653Z AUTO 04006KT 10SM CLR 22/15 A3016 RMK AO2 SLP211 T02170150
KAAO 230654Z AUTO 15009KT 3SM BR OVC005 12/12 A3016 RMK AO2 SLP214 T01220117
KAAT 230655Z AUTO 25009KT 10SM OVC014 10/08 A3003 RMK AO2 SLP153 T01000083
KABE 230651Z 34008KT 10SM CLR 10/M03 A3028 RMK AO2 SLP254 T01001028
KABI 230652Z 14013KT 8SM BKN012 OVC018 22/20 A3005 RMK AO2 SLP157 T02170200
KABQ 230652Z 22004KT 10SM FEW050 BKN250 16/M04 A2998 RMK AO2 SLP090 LTG DSNT SE T01611039 402390089
KABR 230653Z AUTO 20004KT 10SM CLR 08/06 A3019 RMK AO2 SLP221 T00830056
KABY 230653Z 09005KT 10SM CLR 18/14 A3023 RMK AO2 SLP236 T01830144
KACB 230653Z AUTO 00000KT 10SM CLR 00/M01 A3030 RMK AO2 T10041015
KACJ 230655Z AUTO 08003KT 10SM CLR 17/13 A3025 RMK AO2
KACK 230653Z AUTO 29008KT 10SM FEW090 13/01 A3011 RMK AO2 SLP195 T01280011
KACP 230655Z AUTO 00000KT 7SM SCT024 SCT032 SCT038 19/18 A3014 RMK AO2 T01900182
KACQ 230655Z AUTO 19003KT 10SM CLR 11/03 A3023 RMK AO2
KACT 230703Z 15011KT 8SM OVC009 22/20 A3008 RMK AO2 T02170200
KACV 230653Z AUTO 32005KT 8SM OVC014 11/11 A3014 RMK AO2 SLP212 T01110106
KACY 230654Z 34005KT 10SM CLR 10/04 A3024 RMK AO2 SLP239 T01000039
KADC 230652Z AUTO 00000KT 10SM CLR 08/03 A3018 RMK AO2
KADF 230656Z AUTO 03004KT 10SM CLR 17/17 A3019 RMK AO2 T01660166 SLP236
KADG 230653Z AUTO 07007KT 10SM CLR 08/01 A3034 RMK AO2 SLP275 T00830006 TSNO
KADH 230655Z AUTO 12006KT 10SM -RA OVC019 14/14 A3014 RMK AO2
KADM 230655Z AUTO 00000KT 7SM OVC020 16/16 A3012 RMK AO2 T01550155
KADS 230655Z AUTO 12006KT 10SM OVC015 21/20 A3011 RMK AO2 T02140200
KADU 230655Z AUTO 00000KT 10SM BKN070 12/09 A3022 RMK AO2
KADW 230658Z AUTO 34007KT 10SM CLR 14/00 A3030 RMK AO2 SLP266 T01431002 VISNO RWY01R $
KAEG 230655Z AUTO 29004KT 10SM CLR 10/02 A3000 RMK AO2 T01040015 402190073
KAEJ 230655Z AUTO 00000KT 10SM SCT043 BKN050 OVC085 08/01 A3010 RMK AO2 T00770013
KAEL 230653Z AUTO 30005KT 10SM CLR 16/06 A3022 RMK AO2
KAEX 230653Z AUTO 09003KT 10SM FEW037 20/17 A3013 RMK AO2 SLP204 T02000172
KAFF 230708Z AUTO 01010KT 10SM FEW021 SCT045 BKN055 08/07 A3007 RMK AO2 LTG DSNT N-NE AND SE
KAFJ 230655Z AUTO 00000KT 10SM CLR 01/M01 A3036 RMK AO1
KAFK 230655Z AUTO 15003KT 10SM SCT070 BKN085 OVC095 14/09 A3019 RMK AO2 T01370090
KAFN 230652Z AUTO VRB05KT 10SM FEW035 SCT070 04/M03 A3017 RMK AO2 SLP223 T00441028
KAFO 230655Z AUTO 00000KT 10SM RA OVC037 06/05 A2997 RMK AO2
KAFP 230655Z AUTO 00000KT 10SM CLR 09/08 A3030 RMK AO2 T00930081
KAFW 230653Z 00000KT 6SM BR BKN014 OVC024 19/19 A3008 RMK AO2 SLP181 T01940189
KAGC 230653Z AUTO 20005KT 10SM CLR 07/M07 A3033 RMK AO2 SLP278 T00671067 TSNO
KAGS 230653Z AUTO 00000KT 10SM CLR 12/11 A3026 RMK AO2 SLP246 T01170111
KAHN 230651Z AUTO 00000KT 10SM CLR 14/11 A3027 RMK AO2 SLP246 T01390111
KAHQ 230655Z AUTO 15005KT 10SM OVC060 14/10 A3019 RMK AO2 T01420095
KAIA 230653Z AUTO 13010KT 9SM OVC004 08/07 A3006 RMK AO2 SLP172 T00780067 401110072
KAIB 230655Z AUTO 18006KT 10SM OVC090 08/03 A3004 RMK AO2
KAIG 230650Z AUTO 00000KT 10SM CLR 04/01 A3026 RMK AO2 T00410010
KAIK 230715Z AUTO 07003KT 10SM CLR 13/08 A3030 RMK AO2
KAIO 230655Z AUTO 00000KT 10SM FEW065 OVC090 12/09 A3021 RMK AO2
KAIT 230652Z AUTO 00000KT 10SM CLR 07/04 A3018 RMK AO2
KAIZ 230655Z AUTO 12003KT 10SM OVC070 16/11 A3024 RMK AO1
KAJG 230655Z AUTO 00000KT 10SM CLR 16/12 A3027 RMK AO2
KAJO 230656Z AUTO 00000KT 10SM CLR 15/09 A3007 RMK AO2 T01500094 SLP177 $
KAJZ 230655Z AUTO 10SM CLR 11/06 A2998 RMK AO2 T01080058
KAKH 230654Z AUTO 00000KT 10SM CLR 11/07 A3030 RMK AO2 SLP259 T01110067
KAKO 230653Z AUTO 13012KT 10SM OVC004 10/10 A3004 RMK AO2 SLP153 T01000100 401390072
KAKQ 230654Z AUTO 00000KT 10SM CLR 11/09 A3027 RMK AO2 SLP249 T01110089 TSNO
KAKR 230654Z AUTO 00000KT 10SM CLR 04/00 A3033 RMK AO2 SLP271 T00440000
KALB 230651Z 35008KT 10SM FEW065 FEW075 06/M02 A3025 RMK AO2 SLP244 T00611022
KALI 230653Z AUTO 13004KT 7SM BKN024 25/23 A3003 RMK AO2 SLP165 T02500233 $
KALK 230656Z AUTO 23011KT 10SM CLR 12/02 A3007 RMK AO2 SLP106 T01170017 402500100
KALM 230715Z AUTO 21009KT 10SM CLR 20/03 A2995 RMK AO2
KALN 230655Z AUTO 00000KT 10SM OVC110 16/15 A3026 RMK AO2 T01610154
KALO 230654Z 25003KT 10SM FEW110 14/08 A3022 RMK AO2 SLP231 T01390083
KALS 230652Z AUTO 00000KT 10SM FEW055 07/03 A3006 RMK AO2 LTG DSNT W SLP115 T00720028 401830022
KALW 230653Z AUTO 18018KT 10SM SCT120 17/10 A2991 RMK AO2 SLP123 T01720100
KALX 230655Z AUTO 00000KT 10SM CLR 13/11 A3023 RMK AO2 T01250105
KAMA 230653Z AUTO 14013KT 3/4SM R04/3000V4500FT BR VV003 14/14 A3005 RMK AO2 SLP146 T01390139
KAMG 230653Z AUTO 00000KT 9SM CLR 16/15 A3023 RMK AO2 SLP233 T01610150
KAMN 230652Z AUTO 00000KT 10SM CLR 03/01 A3032 RMK AO2 T00250014
KAMW 230653Z AUTO 21003KT 10SM OVC100 13/10 A3022 RMK AO2 SLP226 T01330100
KANB 230653Z AUTO 07003KT 10SM CLR 14/12 A3025 RMK AO2 SLP239 T01390117
KAND 230656Z AUTO 06005KT 10SM CLR 16/08 A3029 RMK AO2 SLP251 T01560083
KANE 230654Z AUTO 00000KT 10SM CLR 12/06 A3020 RMK AO2
KANJ 230655Z AUTO 00000KT 10SM CLR 00/M04 A3026 RMK AO2 SLP252 T00001044
KANK 230655Z AUTO 13006KT 10SM BKN048 OVC050 10/03 A3015 RMK AO1 T00970028
KANQ 230755Z AUTO 00000KT 06/03 A3031 RMK
KANW 230655Z AUTO 13007KT 3SM DZ OVC006 10/09 A3013 RMK AO2 T00960093
KAOH 230653Z AUTO 17003KT 10SM CLR 10/02 A3031 RMK AO2 SLP262 T01000022
KAOO 230653Z AUTO 00000KT 10SM CLR 06/M06 A3032 RMK AO2 SLP271 T00611061
KAPA 230653Z COR 00000KT 10SM FEW005 OVC020 09/08 A3006 RMK AO2 OCNL LTGCG DSNT S SLP155 T00890078 401560072
KAPC 230710Z AUTO 24006KT 10SM OVC014 13/11 A3004 RMK AO2 T01280106
KAPF 230653Z AUTO 06005KT 10SM CLR 22/21 A3011 RMK AO2 SLP194 T02220206
KAPN 230654Z AUTO 21003KT 10SM CLR 02/M02 A3031 RMK AO2 SLP268 T00171017
KAPY 230655Z AUTO 13007KT 10SM OVC013 25/23 A2999 RMK AO2 T02520238
KAQO 230655Z AUTO 15004KT 10SM OVC012 23/22 A3010 RMK AO2 LTG DSNT SW
KAQP 230655Z AUTO 22003KT 10SM CLR 12/07 A3020 RMK AO2
KAQR 230655Z AUTO 12004KT 10SM OVC027 16/16 A3014 RMK AO2
KAQV 230656Z AUTO 00000KT 9SM CLR 19/18 A3013 RMK AO2 SLP202 T01940178
KAQW 230652Z AUTO VRB04KT 10SM BKN070 05/M03 A3019 RMK AO2 SLP226 T00501028
KAQX 230655Z AUTO 00000KT 10SM CLR 14/14 A3026 RMK AO2
KARA 230653Z AUTO 08004KT 8SM CLR 23/22 A3014 RMK AO2 SLP206 T02330217
KARB 230653Z AUTO 00000KT 10SM CLR 04/M02 A3033 RMK AO2 SLP273 T00391017
KARG 230655Z AUTO 06005KT 10SM BKN120 17/12 A3024 RMK AO1
KARM 230655Z AUTO 12005KT 5SM BR SCT005 24/23 A3007 RMK AO2 T02360230
KARR 230652Z AUTO 07003KT 10SM CLR 08/02 A3029 RMK AO2 SLP256 T00830017 TSNO
KART 230656Z AUTO 00000KT 10SM CLR M02/M03 A3030 RMK AO2 SLP265 T10171028
KARV 230655Z AUTO 00000KT 10SM CLR 05/02 A3023 RMK AO2 T00540020
KARW 230715Z AUTO 00000KT 7SM CLR 18/18 A3024 RMK AO2
KASD 230653Z AUTO 05003KT 10SM CLR 21/21 A3015 RMK AO2 SLP210 T02060206
KASE 230653Z 15003KT 10SM -RA BKN039 BKN070 OVC085 06/03 A3009 RMK AO2 RAB13 SLP109 P0000 T00610028 401500039
KASG 230148Z 00000KT 10SM BKN031 BKN037 OVC042 16/09 A3021
KASH 230651Z AUTO 31012KT 10SM CLR 08/M02 A3017 RMK AO2 T00771016 SLP467 $
KASJ 230655Z AUTO 00000KT 10SM CLR 09/09 A3028 RMK AO2 T00940086
KASL 230655Z AUTO 16003KT 10SM SCT031 SCT110 20/18 A3015 RMK AO1 T02020177
KASN 230655Z AUTO 00000KT 10SM CLR 14/14 A3025 RMK AO2 T01350135
KAST 230703Z AUTO 23003KT 10SM FEW005 BKN017 OVC025 12/11 A3011 RMK AO2 CIG 011 RWY 08 T01170106
KASW 230655Z AUTO 00000KT 10SM CLR 08/03 A3032 RMK AO2
KASX 230653Z AUTO 24005KT 10SM CLR 07/02 A3018 RMK AO2 SLP224 T00670022
KATL 230652Z 00000KT 10SM CLR 18/11 A3026 RMK AO2 SLP239 T01830111
KATP 230655Z AUTO 13011KT 10SM OVC021 27/22 A3012 RMK A01
KATS 230655Z AUTO 16013G19KT 10SM BKN014 OVC020 20/19 A2996 RMK AO2
KATT 230651Z AUTO 14006KT 8SM OVC009 23/22 A3008 RMK AO2 CIG 007V011 SLP174 T02330217
KATW 230655Z AUTO 20006KT 10SM CLR 07/M02 A3027 RMK AO2
KATY 230653Z AUTO 00000KT 10SM FEW095 10/06 A3020 RMK AO2 SLP224 T01000056 TSNO
KAUG 230653Z AUTO 29009G20KT 10SM FEW110 04/M07 A3008 RMK AO2 SLP187 T00391067
KAUH 230655Z AUTO 14007KT 10SM OVC035 12/09 A3016 RMK AO2 T01210087
KAUM 230656Z AUTO 00000KT 7SM CLR 12/05 A3022 RMK AO2
KAUN 230655Z AUTO 14009KT 10SM FEW044 BKN070 14/09 A3003 RMK AO1
KAUO 230655Z AUTO 07005KT 10SM CLR 16/10 A3024 RMK AO1
KAUS 230653Z 15005KT 10SM FEW012 BKN032 OVC041 23/22 A3006 RMK AO2 SLP172 T02330222
KAUW 230654Z AUTO 09006KT 10SM CLR 06/04 A3024 RMK AO2 SLP245 T00610044
KAVC 230656Z AUTO 00000KT 10SM CLR 09/08 A3034 RMK AO2 T00940082
KAVL 230654Z AUTO 26003KT 10SM CLR 09/05 A3034 RMK AO2 SLP263 T00890050 $
KAVP 230654Z AUTO 26006KT 10SM CLR 07/M03 A3028 RMK AO2 SLP254 T00671033
KAVQ 230655Z AUTO 22003KT 10SM CLR 17/01 A2998 RMK AO2 T01740006
KAVX 230651Z AUTO 24010KT 3SM BR OVC002 12/11 A3008 RMK AO2 SLP180 T01170111
KAWG 230655Z AUTO 31004KT 10SM FEW100 13/11 A3024 RMK AO2
KAWM 230653Z AUTO 00000KT 10SM FEW120 17/12 A3022 RMK AO2 SLP229 T01720122
KAWO 230655Z AUTO 17004KT 10SM BKN020 OVC033 14/09 A3008 RMK AO1
KAXA 230655Z AUTO 00000KT 10SM OVC110 14/09 A3023 RMK AO2
KAXN 230653Z AUTO 18006KT 10SM CLR 13/04 A3020 RMK AO2 SLP228 T01280039
KAXS 230655Z AUTO 12009G15KT 1SM BR OVC003 15/14 A3010 RMK AO2 T01470141
KAXV 230652Z AUTO 00000KT 10SM CLR 10/02 A3031 RMK AO2
KAXX 230655Z AUTO 18014KT 10SM CLR 09/04 A3011 RMK AO2 T00870038
KAYS 230655Z AUTO 00000KT 10SM CLR 17/17 A3022 RMK AO2 T01700167
KAZC 230655Z AUTO 11003KT 10SM RA BKN038 OVC046 08/06 A3003 RMK AO2 P0001 T00800064
KAZE 230655Z AUTO 12003KT 10SM CLR 19/17 A3022 RMK AO2 T01920171
KAZO 230653Z AUTO 00000KT 10SM CLR 08/01 A3031 RMK AO2 SLP265 T00780011
KBAB 230658Z AUTO 16013KT 10SM OVC110 17/11 A2998 RMK AO2 SLP155 T01650105 $
KBAC 230655Z AUTO 18003KT 10SM CLR 10/02 A3013 RMK AO2
KBAD 230658Z AUTO 00000KT 10SM CLR 17/16 A3014 RMK AO2 SLP208 T01740155
KBAF 230653Z AUTO 33007KT 10SM CLR 08/M02 A3019 RMK AO2 SLP223 T00781022 $
KBAN 230652Z AUTO 00000KT 10SM SCT043 BKN050 OVC070 06/04 A3007 RMK AO2 RAE01 SLP139 P0000 T00610039 $
KBAX 230653Z AUTO 00000KT 10SM CLR 00/M05 A3034 RMK AO2 T00041049
KBAZ 230710Z AUTO 13007KT 5SM -RA BR BKN012 BKN018 OVC024 24/23 A3004 RMK AO2 P0001 T02390228
KBBB 230653Z AUTO 28003KT 10SM CLR 11/07 A3020 RMK AO2
KBBD 230655Z AUTO 14008KT 10SM BKN009 OVC013 22/22 A3006 RMK
KBBG 230655Z AUTO 00000KT 10SM OVC044 14/10 A3024 RMK AO2
KBBP 230715Z AUTO 00000KT 7SM CLR 11/10 A3029 RMK AO2
KBBW 230707Z AUTO 16013G21KT 2SM BR OVC002 12/11 A3010 RMK AO2 T01170106 $
KBCB 230655Z AUTO 00000KT 10SM CLR 08/06 A3038 RMK AO2 T00750056
KBCE 230653Z AUTO 26006KT 10SM OVC047 03/01 A3001 RMK AO2 SLP081 T00280011 401441022
KBCK 230655Z AUTO 00000KT 10SM CLR 03/03 A3023 RMK AO2 T00330033
KBCT 230253Z 01005KT 6SM HZ CLR 26/21 A3014 RMK LAST
KBDE 230653Z AUTO 25007KT 10SM CLR 14/03 A3011 RMK AO2 SLP196 T01440033 TSNO
KBDG 230655Z AUTO 22005KT 10SM CLR 09/M01 A3008 RMK AO1 T00851013 402210030
KBDH 230655Z AUTO 26006KT 10SM CLR 13/08 A3022 RMK AO2
KBDL 230651Z 32008KT 10SM CLR 09/M02 A3018 RMK AO2 SLP220 T00891022
KBDN 230715Z AUTO 00000KT 10SM SCT028 BKN036 BKN090 10/06 A3004 RMK AO2
KBDR 230652Z AUTO 32006KT 10SM CLR 12/M02 A3020 RMK AO2 SLP225 T01171017
KBDU 230658Z AUTO 00000KT 10SM SCT011 SCT029 BKN035 09/09 A3005 RMK AO2
KBEA 230655Z AUTO 11004KT 5SM BR SCT012 SCT017 SCT022 24/24 A3005 RMK AO2 T02400240
KBED 230656Z 32011KT 10SM CLR 07/M01 A3015 RMK AO2 SLP221 T00721006 $
KBEH 230653Z AUTO 09003KT 10SM CLR 05/02 A3030 RMK AO2 SLP263 T00500017 $
KBFD 230653Z AUTO 33004KT 10SM CLR M01/M07 A3032 RMK AO2 SLP274 T10061067
KBFF 230653Z AUTO 13010KT 6SM BR OVC004 08/07 A3007 RMK AO2 SLP174 T00780072 401110072
KBFI 230653Z 19007KT 10SM FEW017 BKN026 OVC070 14/09 A3008 RMK AO2 SLP187 T01440089
KBFL 230654Z AUTO 25003KT 10SM SCT065 OVC085 18/11 A3003 RMK AO2 SLP165 T01830111
KBFM 230653Z AUTO 04007KT 10SM SCT050 22/14 A3019 RMK AO2 SLP223 T02220144
KBFW 230654Z AUTO 00000KT 10SM CLR 03/01 A3015 RMK AO2
KBGD 230651Z AUTO 15007KT 7SM OVC005 15/14 A3005 RMK AO2 SLP152 T01500139
KBGE 230655Z AUTO 07006KT 10SM CLR 17/16 A3019 RMK AO2
KBGF 230655Z AUTO 00000KT 10SM CLR 09/09 A3027 RMK
KBGM 230653Z AUTO 32005KT 10SM CLR 02/M03 A3026 RMK AO2 SLP252 T00221028
KBGR 230653Z 29008KT 10SM SCT030 OVC065 06/00 A3001 RMK AO2 SLP161 T00560000
KBHB 230655Z 30007KT 10SM OVC100 07/03 A2999 RMK AO1
KBHC 230655Z AUTO 00000KT 10SM CLR 17/16 A3023 RMK AO2
KBHK 230651Z AUTO 14008KT 10SM CLR 08/04 A3006 RMK AO2 SLP172 T00780039 402171011
KBHM 230653Z 06004KT 10SM CLR 18/09 A3025 RMK AO2 SLP238 T01780089
KBID 230655Z AUTO 31006KT 10SM CLR 11/M01 A3016 RMK AO1
KBIE 230655Z AUTO 15004KT 10SM SCT030 OVC050 14/09 A3017 RMK AO2 T01350090
KBIF 230658Z AUTO 24008G15KT 10SM OVC180 24/M09 A2995 RMK AO2 PK WND 26027/04 SLP078 T02371089 403150123 $
KBIH 230656Z AUTO 02004KT 10SM SCT075 BKN110 13/04 A2999 RMK AO2 SLP123 T01330044
KBIJ 230655Z AUTO 00000KT 10SM CLR 15/15 A3020 RMK AO2
KBIL 230653Z 05005KT 10SM FEW070 SCT150 11/07 A2995 RMK AO2 SLP129 T01060072 402110067
KBIS 230652Z AUTO 10003KT 10SM CLR 10/05 A3013 RMK AO2 SLP204 T01000050
KBIV 230653Z AUTO 14005KT 10SM CLR 07/02 A3030 RMK AO2 SLPNO T00720017
KBIX 230658Z AUTO 05006KT 10SM FEW050 22/17 A3016 RMK AO2 SLP216 T02160166
KBJC 230656Z AUTO 00000KT 10SM SCT016 BKN035 OVC040 08/08 A3007 RMK AO2
KBJI 230653Z AUTO 21004KT 10SM CLR 11/06 A3017 RMK AO2 T01060055
KBJJ 230656Z AUTO 00000KT 10SM CLR 05/01 A3033 RMK AO2 SLP274 T00500006 TSNO
KBKB 230654Z AUTO VRB03KT 10SM SCT023 21/18 A3012 RMK AO2 SLP226 T02110178
KBKD 230655Z AUTO 14009G15KT 5SM BR OVC007 22/21 A3005 RMK AO2 T02200210
KBKE 230653Z AUTO 32004KT 10SM -RA BKN075 OVC095 12/12 A2995 RMK AO2 SLP126 P0004 T01220117
KBKF 230658Z 21002KT 10SM BKN012 OVC034 08/08 A3007 RMK AO2A SLP144 T00840084 401510072
KBKL 230653Z AUTO 15007KT 10SM CLR 09/M02 A3033 RMK AO2 SLP272 T00941017
KBKS 230655Z AUTO 12005KT 7SM CLR 25/24 A3002 RMK AO1 T02480235
KBKT 230635Z AUTO 29003KT 10SM CLR 11/08 A3027 RMK AO2
KBKV 230653Z AUTO 09005KT 10SM CLR 22/19 A3015 RMK AO2 SLP209 T02220194 $
KBKW 230651Z AUTO 20006KT 10SM CLR 10/05 A3034 RMK AO2 SLP264 T01000050
KBKX 230655Z AUTO 00000KT 10SM OVC110 12/07 A3022 RMK AO1
KBLF 230652Z AUTO 25006KT 10SM CLR 11/04 A3036 RMK AO2 SLP266 T01060044
KBLH 230652Z AUTO 17009KT 10SM CLR 17/09 A2991 RMK AO2 SLP124 T01720094
KBLI 230653Z AUTO 17011G17KT 10SM OVC034 14/11 A3004 RMK AO2 SLP181 T01390111
KBLM 230655Z AUTO 32009KT 10SM CLR 11/01 A3024 RMK AO1
KBLU 230652Z AUTO 20004KT 1/2SM -RA FG VV002 08/07 A3010 RMK AO2 RAB45 SLP163 P0000 T00780067
KBLV 230658Z AUTO 17001KT 10SM FEW120 16/15 A3025 RMK AO2 SLP245 T01620145 $
KBMC 230655Z AUTO 06005KT 4SM BKN026 BKN033 OVC049 11/08 A2995 RMK AO1 T01060081 402150093
KBMG 230653Z AUTO 00000KT 10SM SCT110 14/11 A3028 RMK AO2 SLP250 T01390111
KBMI 230656Z AUTO 12008KT 10SM CLR 16/04 A3027 RMK AO2 T01610044 SLP242
KBML 230652Z AUTO VRB03KT 10SM CLR 01/M07 A3010 RMK AO2 SLP200 T00111072
KBMQ 230653Z AUTO 14009G14KT 9SM OVC009 22/21 A3009 RMK AO2 CIG 007V011 SLP174 T02220211 $
KBMT 230655Z AUTO 11005KT 7SM CLR 22/21 A3011 RMK AO2 T02160206
KBNA 230653Z 00000KT 10SM CLR 12/10 A3028 RMK AO2 SLP249 T01170100
KBNL 230715Z AUTO 00000KT 10SM CLR 14/12 A3027 RMK AO2
KBNO 230653Z AUTO 30005KT 10SM OVC090 11/08 A2997 RMK AO2 SLP129 T01060078 $
KBNW 230655Z AUTO 00000KT 10SM FEW075 OVC095 15/08 A3021 RMK AO2
KBOI 230653Z 28008KT 10SM FEW090 SCT110 16/10 A2986 RMK AO2 SLP093 T01560100 402390106
KBOK 230656Z AUTO 00000KT 6SM BR CLR 09/09 A3012 RMK AO2 T00940094 401770094 SLP202
KBOS 230654Z 31015G21KT 10SM FEW250 09/M01 A3015 RMK AO2 SLP208 T00941011
KBOW 230715Z AUTO 06003KT 10SM CLR 22/ A3016 RMK AO2
KBPG 230655Z AUTO 11015G21KT 10SM BKN017 23/20 A3000 RMK AO2 T02330201
KBPI 230712Z AUTO 18004KT 10SM -RA FEW005 BKN028 OVC033 06/04 A3000 RMK AO2 RAB0654 P0000 T00560044
KBPK 230653Z AUTO 00000KT 10SM OVC060 14/11 A3024 RMK AO2 SLP235 T01390106
KBPT 230653Z AUTO 09008KT 9SM SCT024 23/21 A3011 RMK AO2 SLP194 T02330211 $
KBQK 230655Z AUTO 03003KT 10SM CLR 18/15 A3023 RMK AO1
KBQP 230655Z AUTO 00000KT 7SM CLR 15/15 A3018 RMK AO2 T01470145
KBQX 230640Z AUTO 13012KT 10SM CLR 27/24 A3008 RMK A01
KBRD 230653Z AUTO 00000KT 10SM CLR 07/05 A3019 RMK AO2 SLP227 T00720050
KBRL 230653Z AUTO 00000KT 10SM OVC110 14/13 A3022 RMK AO2 SLP232 T01440128
KBRO 230653Z 13008KT 8SM FEW016 SCT023 26/24 A3003 RMK AO2 SLP166 T02610244 $
KBTA 230655Z AUTO 15007KT 10SM OVC070 15/09 A3019 RMK AO2 T01520085
KBTL 230653Z 12007KT 10SM CLR 11/M01 A3031 RMK AO2 SLP265 T01111006
KBTM 230653Z AUTO 14004KT 10SM CLR 07/04 A3000 RMK AO2 SLP135 T00720039 401780011
KBTP 230655Z AUTO 00000KT 10SM CLR 02/M02 A3035 RMK AO1
KBTR 230653Z 00000KT 10SM CLR 21/19 A3015 RMK AO2 SLP209 T02110194
KBTV 230654Z 29008KT 10SM CLR 04/M08 A3021 RMK AO2 SLP233 T00441078 $
KBUF 230654Z 20004KT 10SM FEW260 03/M02 A3034 RMK AO2 SLP280 T00331022
KBUR 230653Z 15005KT 10SM OVC050 16/10 A3005 RMK AO2 SLP167 T01560100
KBUU 230655Z AUTO 00000KT 10SM CLR 06/01 A3029 RMK AO2 T00550008
KBUY 230654Z AUTO 00000KT 10SM CLR 11/09 A3031 RMK AO2 SLP260 T01060089
KBVE 230651Z AUTO 08003KT 10SM CLR 24/22 A3015 RMK AO2 SLP209 T02390217
KBVN 230655Z AUTO 13006KT 10SM OVC029 12/09 A3016 RMK AO2 T01170085
KBVO 230710Z AUTO 15004KT 7SM SCT006 OVC014 14/14 A3019 RMK AO2 T01390139
KBVS 230655Z AUTO 17004KT 10SM SCT015 BKN020 OVC038 13/11 A3007 RMK A01
KBVU 230655Z AUTO 00000KT 10SM CLR 16/04 A2992 RMK AO2
KBVX 230655Z AUTO 00000KT 10SM OVC085 15/12 A3024 RMK AO1
KBVY 230653Z AUTO 32010KT 10SM CLR 08/M01 A3013 RMK AO2 SLP199 T00831006
KBWD 230655Z AUTO 14009G16KT 7SM OVC011 22/21 A3007 RMK AO2
KBWG 230653Z AUTO 00000KT 10SM CLR 12/09 A3029 RMK AO2 SLP253 T01220094
KBWI 230654Z 30005KT 10SM FEW250 12/M01 A3030 RMK AO2 SLP259 T01171006
KBWP 230650Z AUTO 24007KT 10SM CLR 12/05 A3017 RMK AO1
KBXA 230655Z AUTO 00000KT 10SM 20/18 A3018 RMK AO2 T02000180
KBXK 230655Z AUTO 33004KT 10SM SCT050 17/03 A2994 RMK AO1
KBYG 230712Z AUTO 16012KT 10SM BKN009 07/07 A2999 RMK AO2 T00720067 $
KBYI 230653Z AUTO 18004KT 10SM CLR 08/07 A2988 RMK AO2 SLP100 T00830072 401720078
KBYS 230655Z AUTO 26015G21KT 10SM CLR 13/07 A2995 RMK AO2 PK WND 25026/0620 SLP139 T01260065 $
KBYY 230655Z AUTO 11005KT 7SM SCT019 24/24 A3007 RMK AO2 T02450245
KBZN 230656Z AUTO 00000KT 10SM SCT049 OVC085 10/07 A2996 RMK AO2 SLP125 T01000067 402000022
KC09 230655Z AUTO 05003KT 10SM CLR 12/03 A3026 RMK AO2 T01150032
KC29 230655Z AUTO 16006KT 10SM CLR 13/M02 A3028 RMK AO1 T01271020
KC35 230655Z AUTO 00000KT 10SM CLR 12/03 A3025 RMK AO2 T01230027
KC75 230655Z AUTO 11007KT 10SM CLR 16/03 A3025 RMK AO2 T01620030
KCAD 230655Z AUTO 00000KT 10SM CLR 00/M02 A3028 RMK AO2 T00011025
KCAE 230656Z 00000KT 10SM CLR 12/09 A3027 RMK AO2 SLP248 T01220089
KCAG 230653Z AUTO 13005KT 10SM BKN110 07/04 A3004 RMK AO2 SLP139 T00670039 401610061
KCAK 230651Z 11003KT 10SM FEW060 SCT200 07/M01 A3033 RMK AO2 SLP273 T00721011
KCAO 230655Z AUTO 18017G26KT 7SM OVC004 13/12 A3004 RMK AO2 PK WND 17026/0647 SLP130 T01280117 402000078
KCAR 230654Z AUTO VRB03KT 10SM FEW020 BKN055 OVC070 03/M01 A2989 RMK AO2 SLP128 T00281006
KCAV 230655Z AUTO 00000KT 10SM SCT080 OVC110 14/10 A3023 RMK AO2
KCBE 230704Z AUTO 00000KT 10SM CLR 07/M01 A3039 RMK AO1
KCBF 230655Z AUTO 15008KT 10SM OVC065 14/11 A3020 RMK AO2
KCBG 230655Z AUTO 00000KT 10SM CLR 11/05 A3018 RMK AO2
KCBK 230655Z AUTO 14017G23KT 5SM BR OVC003 12/12 A3007 RMK AO2
KCBM 230658Z AUTO 36002KT 10SM CLR 12/08 A3022 RMK AO2 SLP235 T01200078 $
KCCA 230655Z AUTO 00000KT 8SM SCT055 BKN075 14/13 A3025 RMK AO2
KCCO 230655Z AUTO 00000KT 10SM CLR 15/13 A3025 RMK AO2 T01450132
KCCR 230653Z AUTO 20014G21KT 10SM OVC015 14/10 A3004 RMK AO2 SLP160 T01390100 TSNO
KCCU 230655Z AUTO 25005KT 1/4SM +SN OVC002 01/M01 A3023 RMK AO2 LTG DSNT W
KCCY 230655Z AUTO 29007KT 10SM OVC150 14/06 A3022 RMK AO2
KCDA 230655Z AUTO 21005KT 10SM CLR 01/M08 A3015 RMK AO2 T00071076
KCDC 230701Z AUTO 22005KT 10SM -RA OVC028 06/05 A2998 RMK AO2 P0001 T00610050
KCDD 230645Z AUTO 00000KT 10SM SCT120 07/05 A3015 RMK AO2
KCDH 230655Z AUTO 00000KT 10SM CLR 14/12 A3019 RMK AO2
KCDJ 230652Z AUTO 00000KT 15/13 A3023 RMK AO1 SLP232 T01500128
KCDN 230655Z AUTO 00000KT 10SM CLR 12/07 A3029 RMK AO2 TSNO
KCDR 230653Z AUTO 15005KT 10SM OVC016 08/07 A3006 RMK AO2 RAE21 SLP185 P0000 T00830067 401390083
KCDS 230653Z AUTO 11008KT 1/4SM FG VV002 14/14 A3006 RMK AO2 RAB0557E17 SLP168 P0000 T01440144
KCDW 230653Z AUTO 31005KT 10SM CLR 10/M04 A3026 RMK AO2 SLP251 T01001039 TSNO
KCEC 230656Z AUTO 00000KT 6SM BR BKN008 OVC017 10/09 A3012 RMK AO2 SLP201 T01000089
KCEF 230658Z AUTO 32009G17KT 10SM CLR 07/M01 A3017 RMK AO2 SLP223 T00731012
KCEU 230654Z AUTO 00000KT 10SM FEW060 16/08 A3031 RMK AO2 SLP254 T01560083
KCEW 230653Z AUTO 00000KT 10SM CLR 16/13 A3019 RMK AO2 SLP221 T01560133
KCEY 230655Z AUTO 00000KT 10SM CLR 13/10 A3026 RMK AO1
KCEZ 230653Z AUTO 02003KT 10SM FEW070 SCT090 OVC110 10/01 A3002 RMK AO2 SLP113 T01000006 401940072
KCFD 230655Z AUTO 12006KT 7SM OVC008 21/21 A3009 RMK AO2 T02110210
KCFE 230654Z AUTO 00000KT 10SM CLR 11/07 A3021 RMK AO2 T01080067
KCFS 230655Z AUTO 00000KT 10SM CLR 00/M02 A3032 RMK AO2 T10051025
KCFV 230652Z AUTO 16005KT 10SM OVC024 16/12 A3017 RMK AO2 SLP216 T01560117
KCGC 230655Z AUTO 09006KT 10SM CLR 22/19 A3015 RMK AO2
KCGE 230702Z AUTO 35009KT 10SM CLR 17/01 A3027 RMK AO1
KCGF 230245Z 14006KT 10SM SCT180 09/M01 A3032
KCGI 230653Z AUTO 00000KT 10SM FEW120 15/14 A3025 RMK AO2 SLP241 T01500139 TSNO
KCGS 230700Z AUTO 34003KT 10SM CLR 14/M01 A3031 RMK AO1
KCGZ 230655Z AUTO 00000KT 10SM CLR 17/03 A2994 RMK AO1
KCHA 230653Z AUTO 00000KT 10SM CLR 11/09 A3028 RMK AO2 SLP251 T01110094 $
KCHD 230347Z 27010KT 15SM SCT080 22/01 A2991 RMK LAST
KCHK 230655Z AUTO 13005KT 4SM BR OVC003 13/13 A3012 RMK AO2
KCHO 230653Z AUTO 34005KT 10SM CLR 12/07 A3029 RMK AO2 SLP254 T01220067
KCHS 230656Z 04005KT 10SM CLR 17/15 A3025 RMK AO2 SLP244 T01670150
KCIC 230655Z AUTO 14009KT 10SM BKN050 BKN070 OVC100 19/10 A2998 RMK AO1
KCID 230652Z AUTO 00000KT 10SM OVC110 14/10 A3022 RMK AO2 SLP230 T01440100
KCIN 230655Z AUTO 00000KT 10SM FEW080 OVC090 15/07 A3020 RMK AO2
KCIR 230655Z AUTO 00000KT 10SM CLR 15/14 A3025 RMK AO2 T01480140
KCIU 230655Z AUTO 00000KT 10SM CLR 01/M06 A3026 RMK AO1
KCJR 230655Z AUTO 35008G15KT 10SM CLR 14/02 A3033 RMK AO2 T01360022
KCKB 230653Z AUTO 08003KT 10SM BKN065 09/03 A3034 RMK AO2 SLP268 T00890028
KCKC 230653Z AUTO 25004KT 10SM CLR 08/M03 A3015 RMK AO2
KCKF 230655Z AUTO 12003KT 10SM CLR 20/18 A3024 RMK AO2 T02000175
KCKI 230715Z AUTO 00000KT 10SM CLR 13/13 A3028 RMK AO2
KCKM 230655Z AUTO 00000KT 16/14 A3022 RMK AO1
KCKN 230655Z AUTO 15007KT 10SM CLR 11/04 A3015 RMK AO2
KCKP 230655Z AUTO 00000KT 10SM -DZ OVC085 14/10 A3020 RMK AO2 T01350101
KCKV 230652Z AUTO 00000KT 10SM CLR 13/11 A3026 RMK AO2 SLP246 T01280111
KCLE 230651Z 16004KT 10SM BKN250 07/M01 A3036 RMK AO2 SLP280 T00721011
KCLI 230655Z AUTO 00000KT 10SM CLR 06/01 A3026 RMK AO2
KCLK 230655Z AUTO 13006KT 3SM BR OVC002 13/12 A3012 RMK AO2
KCLL 230653Z 13008KT 7SM OVC007 22/21 A3007 RMK AO2 CIG 006V010 SLP179 T02220206
KCLM 230653Z AUTO 00000KT 10SM OVC009 11/09 A3007 RMK AO2 SLP182 T01110094
KCLS 230715Z AUTO 00000KT 9SM SCT015 SCT070 BKN095 12/10 A3011 RMK AO2
KCLT 230652Z 01003KT 10SM CLR 13/08 A3031 RMK AO2 SLP257 T01280078 $
KCLW 230655Z AUTO 10004KT 10SM CLR 24/21 A3013 RMK AO2
KCMA 230655Z 15005KT 10SM BKN015 16/12 A3006 RMK AO2 SLP186 T01560117
KCMD 230655Z AUTO 04003KT 10SM CLR 10/10 A3028 RMK AO2 T01020096
KCMH 230651Z 11005KT 10SM FEW250 11/01 A3030 RMK AO2 SLP259 T01060011
KCMI 230653Z AUTO 07007KT 10SM CLR 16/06 A3026 RMK AO2 SLP242 T01610061
KCMR 230655Z AUTO 22006KT 10SM FEW020 SCT041 BKN049 04/01 A3012 RMK AO2
KCMX 230653Z AUTO 21010KT 10SM CLR 09/M01 A3015 RMK AO2 SLP215 T00891006
KCMY 230655Z AUTO 00000KT 10SM CLR 04/04 A3025 RMK AO2 T00440036
KCNB 230654Z AUTO 26003KT 10SM CLR 13/06 A3020 RMK AO2 T01250060
KCNC 230655Z AUTO 17004KT 10SM SCT090 12/10 A3023 RMK AO2
KCNI 230655Z AUTO 00000KT 10SM CLR 11/09 A3029 RMK AO2
KCNK 230655Z AUTO 16009KT 10SM SCT017 BKN022 OVC050 13/10 A3017 RMK AO2 SLP212 T01280100 $
KCNM 230653Z AUTO 14010KT 8SM BKN017 BKN025 BKN042 21/18 A2992 RMK AO2 SLP088 T02060178 402560122
KCNO 230653Z AUTO 25006KT 10SM SCT048 BKN060 OVC075 15/11 A3008 RMK AO2 SLP181 T01500111
KCNU 230652Z AUTO 13004KT 10SM OVC028 15/12 A3018 RMK AO2 SLP215 T01500122
KCNW 230351Z 11004KT 10SM BKN034 OVC044 23/20 A3010
KCNY 230653Z AUTO 14003KT 10SM FEW075 FEW090 SCT110 12/05 A2992 RMK AO2 SLP089 T01220050 402390117
KCOD 230655Z AUTO 36003KT 10SM OVC046 09/09 A2996 RMK AO1
KCOE 230655Z AUTO 13003KT 10SM SCT120 17/09 A2990 RMK AO1
KCOF 230658Z AUTO 02007KT 10SM CLR 25/22 A3014 RMK AO2 SLP211 T02510219
KCOM 230655Z AUTO 15008KT 7SM OVC007 22/21 A3007 RMK AO2 T02180211
KCON 230651Z AUTO 32009KT 10SM BKN044 BKN050 06/M04 A3016 RMK AO2 SLP215 T00611039
KCOQ 230655Z AUTO 23006KT 10SM CLR 13/01 A3019 RMK AO2
KCOS 230708Z COR 01006KT 10SM -TSRA SCT040 BKN085CB BKN200 09/07 A3007 RMK AO2 RAB08 OCNL LTGCGIC SE-S TS SE-S MOV NE P0000 T00940067
KCOT 230653Z AUTO 14011KT 10SM OVC013 26/23 A3002 RMK AO2 SLP157 T02560233
KCOU 230654Z AUTO 14005KT 10SM OVC085 16/11 A3025 RMK AO2 SLP238 T01610111
KCPC 230655Z AUTO 00000KT 10SM CLR 13/12 A3027 RMK AO2 T01270117
KCPK 230655Z AUTO 00000KT 10SM CLR 14/11 A3027 RMK AO2
KCPR 230710Z AUTO 00000KT 10SM SCT004 07/06 A2998 RMK AO2 T00670056
KCPS 230653Z AUTO 00000KT 10SM OVC100 17/13 A3025 RMK AO2 SLP241 T01720128
KCPT 230655Z AUTO 13009KT 10SM OVC010 22/22 A3010 RMK AO2 TSNO
KCQB 230655Z AUTO 00000KT 5SM RA OVC004 15/15 A3015 RMK AO2
KCQC 230653Z AUTO 17014KT 8SM OVC006 12/11 A3004 RMK AO2 PK WND 16027/0617 CIG 004V010 SLP098 T01170106 401890039
KCQF 230655Z AUTO 04003KT 10SM CLR 20/14 A3017 RMK AO2
KCQM 230655Z AUTO 24003KT 10SM CLR 13/02 A3016 RMK AO2
KCQT 230647Z AUTO 00000KT 10SM OVC060 16/11 A3006 RMK AO2 SLP177 T01610106
KCQW 230715Z AUTO 00000KT 6SM BR CLR 09/09 A3029 RMK AO2
KCQX 230652Z AUTO 30004KT 10SM CLR 11/M01 A3010 RMK AO2 SLP194 T01111006 $
KCRE 230653Z AUTO 02003KT 10SM CLR 14/14 A3027 RMK AO1 SLP252 T01440139
KCRG 230653Z AUTO 05006KT 10SM CLR 22/18 A3019 RMK AO2 SLP223 T02220178 $
KCRP 230651Z 15009KT 10SM SCT015 BKN250 26/24 A3004 RMK AO2 SLP170 T02610239
KCRQ 230653Z AUTO 00000KT 10SM OVC038 16/12 A3007 RMK AO2 SLP179 T01560122
KCRS 230653Z AUTO 14008KT 10SM BKN047 OVC060 22/19 A3010 RMK AO2 SLP188 T02170194 $
KCRW 230654Z 16006KT 10SM CLR 11/09 A3031 RMK AO2 SLP259 VLY FG T01060089 $
KCRX 230655Z AUTO 00000KT 10SM CLR 12/11 A3024 RMK AO2
KCSG 230651Z AUTO 09004KT 10SM CLR 17/12 A3022 RMK AO2 SLP231 T01720122
KCSM 230653Z AUTO 12007KT 1 1/2SM BR OVC002 13/13 A3011 RMK AO2 SLP186 T01330128
KCSQ 230655Z AUTO 16005KT 10SM OVC075 14/10 A3022 RMK AO2
KCSV 230653Z AUTO 00000KT 10SM CLR 10/07 A3030 RMK AO2 SLP252 T01000072
KCTB 230656Z AUTO 00000KT 10SM CLR 08/02 A3002 RMK AO2 SLP155 T00830017 402220039
KCTY 230653Z AUTO 06004KT 22/19 A3016 RMK AO1 SLP213 P0001 T02170189
KCTZ 230655Z AUTO 00000KT 10SM CLR 12/12 A3030 RMK AO2 T01220119
KCUB 230653Z AUTO 00000KT 10SM CLR 14/09 A3029 RMK AO2 SLP253 T01390089
KCUH 230655Z AUTO 07003KT BKN004 OVC007 13/13 A3015 RMK AO2 P0001 PWINO
KCUL 230655Z AUTO 00000KT 10SM CLR 15/11 A3026 RMK AO2 T01450114
KCUT 230653Z AUTO 14004KT 1/2SM FG VV002 04/04 A3006 RMK AO2 SLP164 T00440039 400940044
KCVB 230655Z AUTO 14007KT 7SM OVC010 25/23 A3006 RMK AO2 LTG DSNT W T02450230
KCVC 230655Z AUTO 09003KT 10SM CLR 15/13 A3026 RMK AO2
KCVG 230652Z 00000KT 10SM FEW150 11/08 A3029 RMK AO2 SLP254 T01060083
KCVH 230650Z AUTO 23009KT 10SM OVC025 14/11 A3009 RMK AO1
KCVN 230655Z AUTO 13017G24KT 3SM OVC002 15/14 A2998 RMK AO1
KCVO 230655Z 29006KT 10SM OVC032 12/08 A3014 RMK AO1
KCVS 230658Z AUTO 14015KT 1 1/2SM R22/2800FT BR OVC002 15/15 A3000 RMK AO2 SLP120 T01510151 402040090 $
KCVW 230655Z AUTO 07009KT 7SM FEW023 FEW029 SCT036 23/21 A3014 RMK A01
KCVX 230654Z AUTO 19006KT 10SM CLR 04/M01 A3031 RMK AO2 T00371009
KCWA 230655Z AUTO 00000KT 10SM CLR 08/05 A3026 RMK AO2
KCWC 230655Z AUTO 09005KT 3SM BR OVC003 17/16 A3008 RMK AO2 T01710163
KCWF 230655Z AUTO 06006KT 10SM CLR 20/19 A3013 RMK AO2 T02050195
KCWI 230655Z AUTO 10007KT 10SM CLR 14/03 A3027 RMK AO1
KCWN 230711Z AUTO 33007KT 10SM -SHRA FEW019 BKN032 08/06 A2978 RMK AO2 LTG DSNT N AND E RAB0657E10SHRAB10 TSE11 $
KCWV 230655Z AUTO 00000KT 7SM CLR 14/14 A3024 RMK AO2
KCXE 230655Z AUTO 00000KT 10SM CLR 11/11 A3029 RMK AO1 T01100110
KCXO 230653Z AUTO 10004KT 6SM BR OVC012 22/21 A3010 RMK AO2 SLP189 T02170206
KCXP 230715Z AUTO 00000KT 10SM SCT050 BKN060 OVC100 10/08 A3006 RMK AO2
KCXY 230656Z AUTO 27004KT 10SM CLR 08/M02 A3030 RMK AO2 SLP261 T00831017
KCYS 230653Z AUTO 18007KT 10SM OVC003 06/05 A3005 RMK AO2 SLPNO T00610050 400940061 TSNO
KCZT 230655Z AUTO 15007KT 7SM OVC010 25/23 A3002 RMK AO2
KCZZ 230652Z AUTO 28006KT 09/07 A3005 RMK AO1 SLP160 T00940072
KD07 230656Z AUTO 13008KT 07/04 A3009 RMK AO1 SLP191 T00720044 402110061 $
KD25 230655Z AUTO 00000KT 10SM CLR 04/02 A3022 RMK AO2 T00420018
KD39 230654Z AUTO 18003KT 10SM CLR 09/07 A3020 RMK AO2 T00940067
KD50 230655Z AUTO 19007KT 10SM CLR 12/04 A3010 RMK AO2
KD55 230715Z AUTO 18009KT 10SM CLR 08/02 A3013 RMK AO2
KD57 230655Z AUTO 17004KT 10SM FEW060 SCT075 07/03 A3011 RMK AO2
KD60 230655Z AUTO 18004KT 10SM CLR 09/03 A3014 RMK AO2
KD95 230652Z AUTO 00000KT 10SM CLR M01/M02 A3033 RMK AO2 T10061016
KDAA 230658Z AUTO 33008KT 10SM CLR 15/00 A3032 RMK AO2 SLP270 T01531003
KDAB 230653Z 34004KT 8SM SCT012 SCT020 23/21 A3016 RMK AO2 SLP213 T02280211
KDAG 230650Z AUTO 23017G25KT 10SM CLR 16/05 A2996 RMK AO2 PK WND 22027/0628 SLP131 T01610050
KDAL 230653Z 14009KT 10SM BKN014 OVC029 22/19 A3009 RMK AO2 SLP185 T02170189 $
KDAN 230653Z AUTO 20004KT 10SM CLR 10/08 A3031 RMK AO2 SLP254 T01000083
KDAW 230651Z AUTO 31011KT 10SM CLR 06/M03 A3013 RMK AO2 SLP199 T00611033
KDAY 230656Z 11006KT 10SM FEW210 12/03 A3031 RMK AO2 SLP261 T01170028
KDBN 230655Z AUTO 00000KT 10SM CLR 17/15 A3027 RMK AO2
KDBQ 230653Z AUTO 15010KT 10SM CLR 14/05 A3025 RMK AO2 SLP240 T01390050
KDCA 230652Z 32009G16KT 10SM CLR 16/M02 A3031 RMK AO2 SLP264 T01611017
KDCM 230655Z AUTO 00000KT 10SM CLR 13/07 A3030 RMK AO2
KDCU 230653Z AUTO 12003KT 10SM CLR 09/08 A3025 RMK AO2 SLP241 T00940083
KDCY 230655Z AUTO 00000KT 10SM CLR 15/12 A3027 RMK AO2 T01450116
KDDC 230652Z AUTO 15014KT 3SM BR OVC002 12/11 A3011 RMK AO2 RAE0559B36E46 SLP186 P0000 T01220111
KDDH 230654Z AUTO 33005KT 10SM CLR 05/M03 A3019 RMK AO2 SLP225 T00501028
KDEC 230654Z AUTO 19007KT 10SM CLR 18/11 A3024 RMK AO2 SLP237 T01780106 TSNO
KDED 230655Z AUTO 34004KT 22/20 A3017 RMK AO1
KDEH 230655Z AUTO 00000KT 10SM CLR 14/05 A3022 RMK AO2
KDEN 230653Z 00000KT 10SM FEW006 BKN011 OVC200 09/08 A3005 RMK AO2 SLP141 T00890078 401440078
KDEQ 230653Z AUTO 08005KT 10SM FEW085 16/14 A3015 RMK AO2 SLP207 T01610144
KDET 230653Z 00000KT 10SM CLR 06/M03 A3034 RMK AO2 SLP277 T00561028
KDEW 230653Z AUTO 09004KT 10SM CLR 12/08 A2989 RMK AO2 SLP113 T01220078
KDFI 230653Z AUTO 02005KT 10SM CLR 09/04 A3031 RMK AO2 SLP265 T00890039
KDFW 230653Z 13006KT 10SM BKN013 OVC027 20/19 A3008 RMK AO2 SLP181 T02000194
KDGW 230653Z AUTO 15015KT 3SM BR OVC003 07/07 A3001 RMK AO2 SLP146 T00720067 401110072
KDHN 230653Z AUTO 03005KT 10SM CLR 16/13 A3023 RMK AO2 SLP232 T01610133
KDHT 230653Z AUTO 17012KT 9SM BKN004 OVC012 14/13 A3005 RMK AO2 CIG 004V009 SLP140 T01390128
KDIJ 230656Z AUTO 08005KT 10SM SCT055 06/06 A2997 RMK AO2 T00550055 SLP095
KDIK 230656Z AUTO 16007KT 10SM CLR 06/02 A3009 RMK AO2 SLP187 T00610017 402280033
KDKB 230655Z AUTO 12006KT 10SM CLR 09/01 A3029 RMK AO2 T00850006
KDKK 230653Z AUTO 18004KT 10SM CLR 00/M01 A3037 RMK AO2 SLP287 T00001006
KDLF 230658Z AUTO 15010KT 10SM FEW010 SCT031 SCT042 BKN060 OVC180 24/24 A3002
KDLH 230655Z 25008KT 10SM CLR 13/02 A3018 RMK AO2 SLP223 T01280022
KDLL 230655Z AUTO 19008KT 10SM CLR 12/00 A3025 RMK AO2 T01201002
KDLN 230653Z AUTO 31003KT 10SM CLR 08/05 A2996 RMK AO2 SLP113 T00780050 401830072
KDLP 230655Z AUTO 09011KT 10SM CLR 27/23 A3013 RMK A01
KDLS 230653Z AUTO 31014G20KT 10SM SCT120 16/08 A2998 RMK AO2 SLP150 T01610083
KDLZ 230700Z AUTO 11003KT 10SM CLR 08/02 A3031 RMK AO2
KDMA 230658Z AUTO 25007KT 10SM CLR 17/00 A2998 RMK AO2 SLP117 T01681002 402780109 $
KDMH 230654Z AUTO 15/M03 A3030 RMK AO1 SLP260 T01501033
KDMN 230653Z AUTO 28014KT 10SM CLR 17/M06 A2998 RMK AO2 SLP086 T01721056 403000072 $
KDMO 230653Z AUTO 15005KT 10SM OVC070 17/12 A3024 RMK AO2 SLP237 T01670122 TSNO
KDMW 230700Z AUTO 32004KT 10SM CLR 11/M03 A3030 RMK AO2
KDNL 230653Z AUTO 09004KT 10SM CLR 19/09 A3027 RMK AO2 SLP246 T01890094
KDNN 230655Z AUTO 00000KT 10SM CLR 09/09 A3027 RMK AO2
KDNS 230655Z AUTO 18005KT 10SM SCT090 BKN110 14/09 A3019 RMK AO2
KDNV 230655Z AUTO 10007KT 10SM CLR 15/04 A3025 RMK AO2 T01520041
KDOV 230658Z AUTO 32010KT 10SM CLR 14/01 A3022 RMK AO2 SLP237 T01350009 VISNO RWY19 CHINO RWY19 $
KDPA 230652Z 00000KT 10SM CLR 09/02 A3028 RMK AO2 SLP254 T00890017
KDPL 230655Z AUTO 00000KT 10SM CLR 10/09 A3030 RMK AO2 T00980093
KDQH 230655Z AUTO 00000KT 10SM CLR 19/17 A3024 RMK AO2
KDRA 230652Z AUTO 36004KT 10SM CLR 13/07 A2993 RMK AO2 SLP105 T01280067
KDRI 230655Z AUTO 00000KT 10SM SCT015 SCT027 20/19 A3015 RMK AO2 T02000187
KDRM 230655Z AUTO 00000KT 10SM CLR M01/M03 A3027 RMK AO2 T10131033
KDRO 230653Z AUTO VRB03KT 10SM SCT110 08/04 A3002 RMK AO2 SLP119 T00830039 401610033
KDRT 230653Z AUTO 14006KT 10SM FEW014 SCT043 24/22 A3001 RMK AO2 SLP148 T02440222
KDSM 230654Z 00000KT 10SM BKN090 BKN150 16/09 A3022 RMK AO2 SLP229 T01560089
KDSV 230654Z AUTO 17003KT 10SM CLR 01/M01 A3035 RMK AO2 SLP290 T00061011
KDTA 230655Z AUTO 00000KT 10SM BKN080 OVC110 07/05 A2995 RMK AO1 T00730046 402090042
KDTL 230654Z AUTO 00000KT 10SM CLR 11/06 A3018 RMK AO2
KDTN 230653Z AUTO 12003KT 10SM CLR 18/15 A3015 RMK AO2 SLP206 T01830150
KDTO 230653Z AUTO 09005KT 10SM OVC016 19/18 A3009 RMK AO2 SLP183 T01890178
KDTS 230653Z AUTO 05006KT 10SM CLR 23/14 A3017 RMK AO2 SLP215 T02280144 TSNO
KDTW 230653Z 00000KT 10SM OVC220 08/M02 A3034 RMK AO2 SLP276 T00781022
KDUA 230655Z AUTO 12005KT 10SM OVC025 16/15 A3013 RMK AO2 P0004
KDUB 230655Z AUTO 12006KT 10SM RA OVC025 04/02 A2999 RMK AO2
KDUC 230655Z AUTO 13009KT 7SM OVC007 16/16 A3011 RMK AO2
KDUG 230656Z AUTO 35008KT 10SM CLR 12/M02 A3002 RMK AO2 SLP111 T01171017 402830072
KDUH 230655Z AUTO 00000KT 10SM CLR 08/02 A3033 RMK AO2
KDUJ 230653Z AUTO 32003KT 10SM CLR 04/M07 A3031 RMK AO2 SLP266 T00441067
KDUX 230655Z AUTO 16012KT 5SM BR OVC004 14/14 A3004 RMK AO2 T01410136
KDVK 230655Z AUTO 00000KT 10SM CLR 09/07 A3032 RMK AO2
KDVL 230655Z AUTO 00000KT 10SM CLR 12/06 A3012 RMK AO1
KDVN 230652Z AUTO 11005KT 10SM BKN120 15/07 A3024 RMK AO2 SLP238 T01500067
KDVO 230655Z AUTO 23007KT 10SM FEW014 13/10 A3004 RMK AO2
KDVP 230713Z AUTO 00000KT 10SM BKN110 12/07 A3022 RMK AO2 T01170066
KDVT 230653Z 26006KT 10SM CLR 19/02 A2993 RMK AO2 SLP117 T01890022 402560172
KDWH 230653Z 11005KT 6SM BR OVC009 23/22 A3008 RMK AO2 CIG 007V013 SLP185 T02330217
KDWU 230655Z AUTO 00000KT 10SM CLR 11/09 A3029 RMK AO1
KDWX 230655Z AUTO 06003KT 10SM SCT120 06/04 A3005 RMK AO2 T00600038 402241188
KDXR 230653Z AUTO VRB04KT 10SM CLR 09/M05 A3021 RMK AO2 SLP229 T00941050
KDXX 230653Z AUTO 00000KT 10SM CLR 12/06 A3020 RMK AO2
KDYB 230715Z AUTO 00000KT 10SM CLR 15/15 A3027 RMK AO1
KDYL 230654Z AUTO 00000KT 10SM CLR 09/ A3027 RMK AO2 SLP250 T0089 $
KDYR 230655Z 00000KT 10SM FEW120 15/06 A3025 RMK AO1
KDYS 230658Z AUTO 16010KT 10SM BKN011 22/18 A3003 RMK AO2 BKN V OVC SLP134 T02170180 $
KDYT 230654Z AUTO 23003KT 10SM CLR 07/03 A3019 RMK AO2
KDZB 230655Z AUTO 16007KT 10SM OVC010 23/22 A3007 RMK AO2 T02330217
KDZJ 230655Z AUTO 00000KT 10SM 09/04 A3032 RMK AO2 T00850043
KE11 230655Z AUTO 16013G17KT 10SM OVC014 20/19 A3000 RMK AO2 T02000187
KE16 230655Z AUTO 30006KT 10SM OVC028 14/09 A3010 RMK AO2
KE38 230655Z AUTO 17023G31KT 10SM CLR 20/14 A3007 RMK AO2 T02000142
KE80 230655Z AUTO 32005KT 10SM CLR 12/M06 A2997 RMK AO2 T01181065
KEAR 230655Z AUTO 15013KT 10SM OVC005 12/10 A3013 RMK AO1
KEAT 230655Z AUTO 32015KT 10SM FEW110 20/09 A2989 RMK AO2 SLP114 T02000094
KEAU 230656Z 00000KT 10SM CLR 07/04 A3022 RMK AO2 SLP235 T00720039
KEBA 230655Z AUTO 00000KT 10SM CLR 16/15 A3030 RMK AO2 T01620152
KEBG 230655Z AUTO 15004KT 7SM CLR 25/23 A3002 RMK AO2 T02530233
KEBS 230655Z AUTO 05003KT 10SM OVC100 14/09 A3020 RMK AO2
KECG 230654Z AUTO 21005KT 10SM CLR 14/12 A3026 RMK AO2 SLP248 T01390122
KECP 230653Z AUTO 00000KT 10SM CLR 18/16 A3017 RMK AO2 SLP227 T01830156
KECS 230655Z AUTO 13010KT 10SM OVC012 07/06 A3004 RMK AO2
KECU 230655Z AUTO 17010G17KT 6SM BR OVC008 23/22 A3010 RMK AO2
KEDC 230655Z AUTO 15006KT 8SM OVC010 23/22 A3008 RMK AO2
KEDE 230655Z AUTO 25003KT 10SM CLR 16/12 A3027 RMK AO2 T01620120
KEDJ 230645Z AUTO 13006KT 10SM CLR 10/02 A3031 RMK AO1
KEDN 230655Z AUTO 00000KT 10SM CLR 15/14 A3020 RMK AO2
KEDU 230655Z AUTO 21011KT 10SM BKN120 14/09 A2998 RMK AO1
KEDW 230658Z AUTO 23016G21KT 10SM CLR 13/06 A2998 RMK AO2 SLP140 T01250064
KEED 230656Z AUTO 13004KT 10SM OVC090 21/07 A2990 RMK AO2 RAE12 SLP103 P0000 T02110067
KEEN 230655Z AUTO 35006KT 10SM FEW070 05/M02 A3019 RMK AO1
KEEO 230653Z AUTO 10SM BKN041 BKN085 06/04 A3005 RMK AO2 RAB13E53 SLP131 P0001 T00610044 401390061 $
KEET 230653Z AUTO 00000KT 10SM CLR 15/12 A3023 RMK AO2 SLP230 T01500122
KEFD 230650Z 11005KT 7SM SCT015 BKN250 25/23 A3008
KEFK 230655Z AUTO 27009G14KT 10SM CLR 01/M06 A3015 RMK AO2 T00101060
KEFT 230655Z AUTO 13008KT 10SM CLR 10/02 A3027 RMK AO2
KEGE 230655Z AUTO 03004KT 10SM BKN040 OVC045 07/07 A3010 RMK AO1 P0001
KEGI 230658Z AUTO 00000KT 10SM CLR 17/14 A3017 RMK AO2 SLP218 T01690142 $
KEGV 230650Z AUTO 00000KT 10SM CLR 03/M01 A3022 RMK AO2 T00331006
KEHA 230708Z AUTO 16015KT 14/11 RMK AO1 PK WND 21 000 T01390106
KEHC 230655Z AUTO 09015KT 10SM FEW016 26/23 A3010 RMK A01
KEHO 230655Z AUTO 06004KT 10SM CLR 10/07 A3031 RMK AO2 T00990069
KEHR 230655Z AUTO 00000KT 10SM CLR 14/11 A3026 RMK AO1
KEHY 230655Z AUTO 00000KT 10SM CLR 01/01 A3001 RMK AO2
KEIK 230654Z AUTO 00000KT 10SM SCT023 OVC055 09/09 A3006 RMK AO2 T00930088
KEIR 230655Z AUTO 12006G13KT 10SM FEW017 26/24 A3012 RMK A01
KEKN 230651Z AUTO 00000KT 8SM CLR 07/06 A3035 RMK AO2 SLP282 T00720061 TSNO
KEKO 230656Z AUTO 19006KT 10SM BKN055 OVC075 09/06 A2996 RMK AO2 SLP118 T00890061
KEKQ 230656Z AUTO 00000KT 10SM CLR 09/09 A3033 RMK AO2 PWINO T00940094 SLP269
KELA 230655Z AUTO 13008KT 5SM BR OVC006 24/24 A3006 RMK AO2 T02400235
KELD 230653Z AUTO 33004KT 10SM CLR 14/13 A3018 RMK AO2 SLP217 T01440133
KELK 230655Z AUTO 14007KT 1 1/4SM BR OVC002 12/12 A3014 RMK AO2
KELM 230653Z AUTO 20005KT 10SM CLR 03/M02 A3031 RMK AO2 SLP267 T00331022
KELN 230653Z AUTO 33018KT 10SM BKN110 15/10 A2995 RMK AO2 SLP134 T01500100
KELO 230652Z AUTO 00000KT 10SM CLR 12/02 A3015 RMK AO2
KELP 230651Z 25016G26KT 10SM FEW130 OVC180 24/M08 A2994 RMK AO2 PK WND 24029/0608 SLP066 OCNL BLDU T02441078 403280133
KELY 230653Z AUTO 13005KT 10SM OVC055 06/04 A2999 RMK AO2 SLP109 T00610044
KELZ 230656Z AUTO 24004KT 10SM CLR 01/M04 A3032 RMK AO2 SLP279 T00061044
KEMK 230655Z AUTO 12015KT CLR 27/23 A3008 RMK A01
KEMM 230655Z AUTO 00000KT 10SM SCT026 OVC041 05/04 A3001 RMK AO2
KEMP 230653Z AUTO 18003KT 10SM -RA BKN027 OVC034 13/12 A3018 RMK AO2 RAB28 SLP220 P0001 T01330122
KEMT 230250Z 23005KT 10SM OVC037 17/10 A3006
KEMV 230655Z AUTO 00000KT 10SM CLR 08/07 A3028 RMK AO2
KEND 230658Z AUTO 13007KT 5SM R35C/5000FT BR OVC002 13/13 A3013 RMK AO2 DZE01DZB13E25 SLP202 P0001 T01310128 $
KENL 230655Z AUTO 00000KT 10SM CLR 15/12 A3027 RMK AO2 T01460119
KENV 230655Z AUTO 21003KT 10SM FEW070 OVC085 13/08 A2990 RMK AO1
KENW 230653Z AUTO 18004KT 10SM CLR 08/01 A3029 RMK AO2 SLP259 T00780006 $
KEOE 230655Z AUTO 11004KT 10SM CLR 16/07 A3031 RMK AO2
KEOK 230655Z AUTO 00000KT 10SM FEW110 14/13 A3023 RMK AO2
KEPH 230653Z AUTO 27011KT 10SM BKN100 21/08 A2986 RMK AO2 SLP102 T02060083
KEQA 230655Z AUTO 16008KT 4SM BR OVC005 13/13 A3017 RMK AO2
KEQY 230653Z AUTO 00000KT 10SM CLR 11/07 A3029 RMK AO2 SLP265 T01110072
KERI 230651Z 18003KT 10SM CLR 03/M01 A3035 RMK AO2 SLP281 T00331006
KERV 230655Z AUTO 14007KT 10SM BKN013 BKN026 OVC035 23/21 A3008 RMK AO2 LTG DSNT W T02260211
KERY 230655Z AUTO 22008KT 10SM CLR 03/M02 A3024 RMK AO2 T00311025
KESC 230655Z AUTO 00000KT 10SM CLR 01/M02 A3025 RMK AO1
KESF 230653Z AUTO 00000KT 8SM OVC038 20/18 A3015 RMK AO2 SLP208 T02000178
KESN 230721Z AUTO 35004KT 10SM CLR 15/02 A3032 RMK AO2 T01500020
KEST 230652Z AUTO 00000KT 10SM BKN100 OVC110 13/07 A3021 RMK AO2 SLP228 T01280067
KETB 230655Z AUTO 19003KT 10SM CLR 08/M03 A3028 RMK AO2
KETC 230655Z AUTO 00000KT 10SM CLR 10/10 A3029 RMK AO2 T01020096
KETH 230656Z AUTO 24004KT 10SM CLR 12/06 A3019 RMK AO2
KEUF 230658Z AUTO 00000KT 10SM CLR 15/13 A3020 RMK AO2 SLP225 T01500133 $
KEUG 230654Z AUTO 25004KT 10SM OVC035 12/08 A3013 RMK AO2 SLP203 T01170083
KEUL 230655Z AUTO 28007KT 10SM SCT090 14/08 A2988 RMK AO1
KEVB 230147Z 00000KT 10SM SKC 24/22 A3016 RMK LAST
KEVM 230654Z AUTO 00000KT 10SM CLR 07/03 A3018 RMK AO2
KEVV 230654Z AUTO 00000KT 10SM CLR 15/12 A3027 RMK AO2 SLP249 T01500122
KEVW 230653Z AUTO 11003KT 10SM BKN055 OVC075 04/03 A3000 RMK AO2 SLP110 T00440028 401220028
KEWB 230653Z AUTO 30008KT 10SM CLR 11/M03 A3011 RMK AO2 SLP197 T01061028
KEWK 230655Z AUTO 15007KT 4SM OVC004 12/09 A3018 RMK AO1
KEWN 230712Z AUTO 16003KT 2SM BR FEW002 11/09 A3029 RMK AO2 T01110094
KEWR 230651Z 32012KT 10SM CLR 12/M03 A3025 RMK AO2 SLP244 T01171033
KEXX 230655Z AUTO 00000KT 10SM CLR 09/08 A3031 RMK AO2 T00890081
KEYE 230653Z AUTO 05003KT 10SM CLR 14/05 A3029 RMK AO2 SLP252 T01440050
KEYF 230655Z AUTO 00000KT 10SM CLR 13/11 A3028 RMK AO2 T01260110
KEYW 230713Z AUTO 06005KT 10SM BKN018 27/24 A3010 RMK AO2 T02720239
KEZF 230655Z AUTO 36004KT 10SM CLR 16/10 A3030 RMK AO2 T01620097
KEZM 230655Z AUTO 00000KT 10SM CLR 15/15 A3026 RMK AO2 T01520152
KEZS 230655Z AUTO 00000KT 10SM CLR 07/03 A3027 RMK AO2 T00680025
KF05 230655Z AUTO 11006KT 1SM OVC001 16/14 A3008 RMK AO1 T01600140
KF17 230655Z AUTO 11003KT 10SM CLR 19/18 A3012 RMK AO2 T01850177
KF44 230655Z AUTO 14003KT 10SM CLR 20/18 A3009 RMK AO2
KF46 230655Z AUTO 10006KT 10SM BKN020 OVC037 21/19 A3009 RMK AO2 T02050190
KF70 230655Z AUTO 20004KT 10SM OVC011 13/10 A3007 RMK AO1
KFAF 230658Z AUTO 33003KT 10SM CLR 16/09 A3024 RMK AO2 SLP243 T01610090 $
KFAM 230655Z AUTO 00000KT 10SM OVC100 15/11 A3030 RMK AO1
KFAR 230653Z 18009KT 10SM CLR 13/03 A3014 RMK AO2 SLP208 T01280033
KFAT 230653Z 31008KT 10SM FEW050 BKN075 18/11 A3004 RMK AO2 SLP170 T01780106
KFAY 230653Z AUTO 00000KT 10SM CLR 12/10 A3029 RMK AO2 SLP252 T01220100
KFBG 230658Z AUTO 02003KT 10SM CLR 12/11 A3028 RMK AO2 SLP256 T01200108 $
KFBL 230654Z AUTO 13003KT 10SM CLR 13/04 A3021 RMK AO2
KFBR 230655Z AUTO 17005KT 10SM SCT039 BKN080 OVC090 05/05 A3004 RMK AO2 LTG DSNT SW T00510051
KFCM 230653Z AUTO 14004KT 10SM CLR 13/04 A3019 RMK AO2 SLP223 T01280039
KFCS 230704Z AUTO 34005KT 2SM +TSRA BR FEW003 SCT043 BKN060 09/08 A3006 RMK AO2 VIS 2V10 LTG DSNT N $
KFDK 230700Z AUTO 00000KT 10SM CLR 08/01 A3035 RMK AO2
KFDR 230653Z AUTO 10006KT 1/2SM FG VV002 14/14 A3006 RMK AO2 RAB12E32 SLP173 P0000 T01440144
KFDW 230715Z AUTO 09005KT 10SM CLR 16/06 A3028 RMK AO1
KFDY 230653Z AUTO 00000KT 10SM CLR 10/03 A3030 RMK AO2 SLP256 T01000028
KFEP 230655Z AUTO 09005KT 10SM CLR 09/02 A3029 RMK AO2 T00890023
KFET 230655Z AUTO 14005KT 10SM BKN055 OVC070 15/09 A3019 RMK AO2 T01530091
KFEW 230701Z AUTO 17007KT 10SM BKN004 BKN018 06/06 A3001 RMK AO2 CIG 004V018 BKN V FEW $
KFFA 230655Z AUTO 24004KT 10SM CLR 17/14 A3026 RMK AO2 T01700136
KFFC 230653Z AUTO 00000KT 10SM CLR 13/11 A3026 RMK AO2 SLP245 T01280106
KFFL 230655Z AUTO 24005KT 10SM FEW100 12/10 A3024 RMK AO2
KFFM 230654Z AUTO 17007KT 10SM CLR 13/04 A3018 RMK AO2
KFFO 230658Z AUTO 01004KT 10SM CLR 09/06 A3030 RMK AO2 SLP263 T00850061
KFFT 230653Z AUTO 00000KT 10SM CLR 11/08 A3029 RMK AO2 SLP253 T01060078
KFFX 230651Z AUTO 09003KT 10SM CLR 05/01 A3028 RMK AO2 T00520010
KFFZ 230247Z 25010KT 40SM SCT150 22/00 A2990 RMK WIND ESTIMATED
KFHB 230655Z AUTO 05008KT 10SM CLR 25/17 A3019 RMK AO1
KFHR 230653Z AUTO 19005KT 10SM OVC012 12/09 A3006 RMK AO2 SLP179 T01170094
KFHU 230658Z AUTO 32005KT 10SM FEW049 BKN160 OVC180 14/02 A3006 RMK AO2 SLP118 T01360020 402480117 $
KFIG 230654Z AUTO 36005KT 10SM CLR M01/M03 A3033 RMK AO2 SLP275 T10061033
KFIN 230655Z AUTO 04006KT 10SM OVC014 24/22 A3017 RMK AO2 T02400217
KFIT 230652Z AUTO 35010KT 10SM CLR 07/M01 A3017 RMK AO2 SLP219 T00671011
KFKA 230654Z AUTO 00000KT 10SM CLR 13/05 A3022 RMK AO2 T01250046
KFKL 230655Z AUTO 01003KT 10SM CLR 01/M04 A3034 RMK AO1
KFKN 230655Z AUTO 00000KT 10SM CLR 10/09 A3027 RMK AO2 T00990088
KFKR 230655Z AUTO 07005KT 10SM CLR 12/05 A3031 RMK AO2 T01180045
KFKS 230651Z AUTO 00000KT 10SM CLR 03/M01 A3028 RMK AO2 T00311015
KFLD 230653Z AUTO 18003KT 10SM CLR 07/M02 A3027 RMK AO2 SLP252 T00721022
KFLG 230657Z AUTO 25005KT 10SM BKN044 BKN050 03/01 A3006 RMK AO2 SLP122 T00330006 401331011 TSNO
KFLL 230653Z 00000KT 10SM FEW030 BKN200 23/21 A3012 RMK AO2 SLP198 T02330211
KFLO 230653Z AUTO 00000KT 10SM CLR 13/11 A3028 RMK AO2 SLP253 T01330111
KFLP 230655Z AUTO 00000KT 10SM OVC060 14/11 A3023 RMK AO1
KFLY 230654Z AUTO 02008KT 10SM OVC005 07/07 A3010 RMK AO2 T00700065 401750047
KFME 230703Z AUTO 31003KT 10SM CLR 09/03 A3033 RMK AO1
KFMH 230715Z AUTO 30010G15KT 10SM CLR 11/M03 A3012 RMK AO2
KFMM 230655Z AUTO 06008KT 1SM BR OVC001 09/08 A3004 RMK AO2 T00900082
KFMN 230653Z AUTO 29008KT 10SM CLR 12/M01 A3000 RMK AO2 SLP115 T01221011 402170089
KFMY 230653Z AUTO 06003KT 10SM CLR 22/21 A3011 RMK AO2 SLP198 T02170211
KFNB 230653Z AUTO 12005KT 10SM BKN060 OVC095 13/11 A3018 RMK AO2 SLP219 T01330106
KFNL 230655Z AUTO 15006KT 10SM OVC003 09/08 A3007 RMK AO1
KFNT 230653Z AUTO 12003KT 10SM CLR 04/M02 A3033 RMK AO2 SLP274 T00391017
KFOA 230655Z AUTO 00000KT 10SM CLR 16/12 A3027 RMK AO2 T01550123
KFOD 230655Z AUTO 06003KT 10SM OVC100 13/09 A3022 RMK AO1
KFOE 230653Z 13005KT 10SM OVC038 16/12 A3017 RMK AO2 SLP214 T01560117
KFOK 230653Z 33007KT 10SM CLR 11/01 A3019 RMK AO2 SLP223 T01060011
KFOT 230655Z AUTO 32009KT 10SM OVC010 11/10 A3015 RMK AO1
KFOZ 230713Z AUTO 00000KT 10SM CLR 07/05 A3016 RMK AO2
KFPK 230655Z AUTO 13003KT 10SM CLR 08/01 A3030 RMK AO2 T00750008
KFPR 230653Z AUTO 00000KT 10SM CLR 21/19 A3013 RMK AO2 SLP201 T02110194 TSNO
KFQD 230655Z AUTO 00000KT 10SM CLR 11/06 A3031 RMK AO2 T01120061
KFRG 230653Z 33009KT 10SM CLR 12/M01 A3021 RMK AO2 SLP231 T01221011
KFRI 230658Z AUTO 05001KT 10SM OVC030 14/12 A3018 RMK AO2 SLP216 T01430115
KFRM 230655Z AUTO 32004KT 10SM BKN110 14/04 A3021 RMK AO1
KFRR 230655Z AUTO 00000KT 10SM CLR 12/00 A3034 RMK AO1
KFSD 230656Z AUTO 18008KT 10SM SCT075 OVC090 14/07 A3021 RMK AO2 RAB31E44 SLP226 P0000 T01390067
KFSE 230653Z AUTO 00000KT 10SM CLR 09/03 A3017 RMK AO2
KFSI 230658Z AUTO 09003KT 7SM OVC002 15/15 A3009 RMK AO2 DZB06E19 SLP187 P0000 T01460146
KFSM 230653Z 10006KT 4SM +RA BR OVC022 15/13 A3019 RMK AO2 RAB27 SLP222 P0003 T01500128
KFSO 230655Z AUTO 28003KT 10SM CLR 03/M05 A3020 RMK AO2 T00271051
KFST 230653Z AUTO 16015G22KT 10SM CLR 22/18 A2993 RMK AO2 PK WND 16031/0604 SLP090 T02170178
KFSW 230655Z AUTO 21003KT 10SM SCT110 14/12 A3024 RMK AO2
KFTG 230250Z 08005KT 10SM BKN065 BKN090 10/09 A3004
KFTK 230658Z AUTO 00000KT 10SM FEW180 10/09 A3027 RMK AO2 SLP251 T01020088
KFTN 230655Z AUTO 14007KT 10SM 25/23 A3002 RMK A01
KFTW 230653Z AUTO 11006KT 8SM FEW014 OVC022 21/20 A3007 RMK AO2 SLP179 T02110200
KFTY 230653Z 00000KT 10SM CLR 13/11 A3026 RMK AO2 SLP242 T01330111
KFUL 230653Z 18003KT 10SM BKN021 OVC060 17/12 A3006 RMK AO2 SLP177 T01720122
KFVE 230653Z AUTO 32010KT 10SM BKN016 OVC075 02/M02 A2988 RMK AO2 SLP124 T00171017
KFVX 230655Z AUTO 00000KT 10SM CLR 10/09 A3028 RMK AO2 T00950094
KFWA 230654Z 00000KT 10SM SCT200 11/02 A3032 RMK AO2 SLP266 T01060022
KFWB 230655Z AUTO 12006KT 10SM BKN045 BKN050 OVC090 14/09 A3024 RMK AO2
KFWC 230655Z AUTO 00000KT 10SM CLR 15/13 A3025 RMK AO1 T01450132
KFWN 230653Z AUTO 00000KT 10SM CLR 07/M03 A3027 RMK AO2 SLP248 T00721033
KFWS 230655Z AUTO 14009KT 7SM BKN011 OVC018 22/20 A3010 RMK AO2 T02150200
KFWZ 230655Z AUTO 2SM -DZ SCT003 SCT010 BKN022 03/03 A2998 RMK AO2
KFXE 230653Z 00000KT 8SM FU CLR 23/21 A3012 RMK AO2 SLP201 T02330211
KFXY 230655Z AUTO 00000KT 10SM CLR 13/06 A3023 RMK AO2
KFYG 230655Z AUTO 00000KT 8SM FEW060 BKN100 OVC120 15/13 A3024 RMK AO2
KFYJ 230655Z AUTO 00000KT 10SM CLR 13/09 A3029 RMK AO2 T01330090
KFYM 230655Z AUTO 10SM CLR A3027 RMK
KFYV 230653Z AUTO 08004KT 10SM OVC025 14/11 A3021 RMK AO2 SLP223 T01440111
KFZG 230655Z AUTO 11003KT 10SM CLR 20/17 A3026 RMK AO2 T01950171
KFZY 230654Z AUTO 35003KT 10SM CLR 02/M03 A3031 RMK AO2 SLP267 T00221028
KGAD 230655Z 00000KT 10SM CLR A3024 RMK AO1
KGAF 230715Z AUTO 23004KT 10SM CLR 12/09 A3013 RMK AO2
KGAG 230703Z AUTO 15010KT 1SM BR OVC002 13/13 A3008 RMK AO2 T01280128
KGAI 230655Z AUTO 30006KT 10SM CLR 08/M01 A3035 RMK AO1
KGAO 230655Z AUTO 00000KT 10SM CLR 24/22 A3014 RMK AO2 T02430216
KGBD 230655Z AUTO 15009KT 10SM BKN006 OVC015 12/10 A3014 RMK AO1
KGBG 230655Z AUTO 00000KT 10SM SCT120 15/11 A3023 RMK AO2 T01500107
KGBK 230655Z AUTO VRB05G15KT 10SM FEW022 SCT030 27/23 A3010 RMK A01
KGCC 230653Z AUTO 15015KT 10SM OVC011 08/06 A3001 RMK AO2 SLP145 T00830056 401440072
KGCD 230655Z AUTO 27006KT 10SM OVC031 13/11 A2998 RMK AO2 T01250108
KGCK 230708Z AUTO 14014KT 10SM OVC004 12/12 A3005 RMK AO2 T01220122
KGCM 230655Z AUTO 00000KT 7SM RA 14/12 A3020 RMK AO2 P0001
KGCN 230654Z AUTO 00000KT 9SM CLR M01/M01 A3005 RMK AO2 SLP148 T10061011 401221022 TSNO
KGDB 230653Z AUTO 00000KT 10SM CLR 12/06 A3022 RMK AO2 T01180057
KGDJ 230655Z AUTO 12006KT 22/21 A3008 RMK AO2 P0001 T02210205 PWINO
KGDP 230712Z AUTO 04008KT 3SM BR SCT002 SCT006 16/15 A3006 RMK AO2 T01560150 $
KGDV 230655Z AUTO 14007KT 10SM CLR 12/03 A3006 RMK AO1
KGED 230654Z AUTO 00000KT 10SM CLR 13/07 A3027 RMK AO2 SLP250 T01330067
KGEG 230653Z 23003KT 10SM FEW070 SCT110 BKN200 16/09 A2990 RMK AO2 RAE10 SLP110 P0000 T01610089
KGEU 230252Z 19011G15KT 20SM FEW100 2301 A2990 RMK LAST
KGEV 230655Z AUTO 00000KT 10SM CLR 07/03 A3036 RMK AO2 T00730033
KGEY 230653Z AUTO 30003KT 10SM OVC070 13/11 A2992 RMK AO2 RAE11 SLP110 P0000 T01280111 402280089 $
KGEZ 230653Z AUTO 07007KT 10SM CLR 14/07 A3028 RMK AO2 SLP251 T01440072
KGFA 230656Z AUTO 09013KT 10SM SHRA BKN055 12/08 A3001 RMK AO2 LTG DSNT NE SHRAB05 SLP161 P0006 T01150077 TSNO $
KGFK 230653Z AUTO 14005KT 10SM CLR 12/06 A3012 RMK AO2 SLP201 T01220056 TSNO
KGFL 230653Z AUTO 34004KT 10SM CLR 05/M07 A3024 RMK AO2 SLP242 T00501067
KGGE 230715Z AUTO 00000KT 10SM CLR 13/13 A3028 RMK AO2
KGGG 230653Z AUTO 12007KT 10SM BKN037 21/18 A3012 RMK AO2 SLP194 T02060178
KGGI 230655Z AUTO 00000KT 10SM BKN110 14/08 A3023 RMK AO2 T01400084
KGGP 230655Z AUTO 08005KT 10SM CLR 11/00 A3031 RMK AO2
KGGW 230653Z AUTO 10009KT 10SM OVC110 14/06 A3001 RMK AO2 SLP157 T01440056 402390067
KGHB 230655Z AUTO 11010KT 10SM SCT020 SCT026 BKN033 27/23 A3011 RMK A01
KGHG 230655Z AUTO 32007G14KT 010V350 10SM CLR 11/01 A3014 RMK AO2
KGHW 230641Z AUTO 20007KT 10SM CLR 11/05 A3021 RMK AO2
KGIF 230653Z AUTO 03006KT 10SM FEW055 23/21 A3016 RMK AO2 SLP209 T02280211
KGJT 230653Z AUTO 00000KT 10SM OVC080 09/08 A2996 RMK AO2 SLP113 T00940078 401940089
KGKJ 230653Z AUTO 00000KT 10SM CLR 03/M02 A3033 RMK AO2 SLP276 T00281022 TSNO
KGKT 230655Z AUTO 00000KT 10SM CLR 09/07 A3030 RMK
KGKY 230653Z AUTO 13007KT 10SM BKN025 OVC055 22/19 A3008 RMK AO2 SLP180 T02220189
KGLD 230653Z AUTO 15015G29KT 2SM -RA BR OVC002 12/12 A3003 RMK AO2 PK WND 15029/0650 LTG DSNT N AND NW SLP156 P0002 T01170117 401330083
KGLE 230655Z AUTO 08003KT 10SM OVC017 17/16 A3012 RMK AO2 T01680161
KGLH 230653Z AUTO 08004KT 10SM CLR 17/13 A3019 RMK AO2 SLP228 T01720128
KGLR 230653Z AUTO 00000KT 10SM CLR 02/M02 A3029 RMK AO2 SLP266 T00171022
KGLS 230711Z AUTO 12011KT 10SM BKN013 26/24 A3009 RMK AO2 T02610244
KGLW 230650Z AUTO 00000KT 10SM CLR 11/10 A3028 RMK AO2 T01100104
KGLY 230655Z AUTO 00000KT 10SM OVC060 17/13 A3023 RMK AO2
KGMJ 230655Z AUTO 11003KT 10SM SCT032 BKN090 16/11 A3020 RMK AO2
KGMU 230653Z 05004KT 10SM CLR 16/04 A3031 RMK AO2 SLP255 T01610044
KGNA 230656Z AUTO 25004KT 04/M01 A3014 RMK AO1 SLP214 T00391006
KGNC 230655Z AUTO 14009KT 10SM BKN013 OVC018 19/18 A3002 RMK AO2 T01930182
KGNR 230656Z AUTO VRB06KT 00/M05 A2995 RMK AO1 SLP153 T00001050
KGNT 230655Z AUTO 29009G14KT 10SM CLR 10/M03 A3008 RMK AO2 T00951034 402080060
KGNV 230653Z AUTO 04006KT 10SM BKN015 20/19 A3018 RMK AO2 SLP218 T02000189
KGOK 230653Z AUTO 12003KT 6SM BR BKN007 OVC017 14/13 A3014 RMK AO2 RAE18B29E44 CIG 005V011 SLP204 P0001 T01390133
KGON 230656Z AUTO 32010KT 10SM CLR 11/M04 A3016 RMK AO2 SLP212 T01061039
KGOO 230655Z AUTO 13005KT 10SM SCT033 OVC080 12/09 A3005 RMK AO1
KGOP 230655Z AUTO 16007KT 5SM BR BKN008 22/21 A3009 RMK AO2
KGOV 230659Z AUTO 00000KT 10SM CLR M02/M04 A3031 RMK AO2
KGPH 230715Z AUTO 00000KT 10SM BKN070 OVC100 15/12 A3021 RMK AO2
KGPI 230655Z 34006KT 10SM CLR 15/02 A2994 RMK AO2 SLP123 T01500017 402720050
KGPM 230655Z AUTO 13006KT 10SM SCT025 BKN032 BKN060 22/20 A3010 RMK AO2 T02170203
KGPT 230653Z AUTO 06005KT 10SM CLR 22/17 A3016 RMK AO2 SLP211 T02220167
KGPZ 230655Z AUTO 20004KT 10SM CLR 12/03 A3018 RMK AO1
KGRB 230653Z AUTO 00000KT 10SM CLR 07/02 A3027 RMK AO2 SLP253 T00670017
KGRD 230656Z AUTO 00000KT 10SM CLR 11/09 A3030 RMK AO2 SLP255 T01060089
KGRF 230713Z AUTO 15005KT 10SM BKN015 BKN032 OVC180 11/11 A3009 RMK AO2 CIG 015V180 BKN015 V FEW
KGRI 230653Z AUTO 15008KT 10SM OVC032 12/10 A3015 RMK AO2 SLP215 T01220100
KGRK 230658Z AUTO 15011KT 8SM OVC007 22/21 A3007 RMK AO2 SLP176 T02180210
KGRR 230653Z AUTO 00000KT 10SM CLR 06/02 A3030 RMK AO2 SLP263 T00610017
KGRY 230655Z AUTO 14009KT 10SM SCT024 SCT033 BKN042 27/22 A3011 RMK A01
KGSB 230658Z AUTO 00000KT 10SM CLR 12/10 A3027 RMK AO2 SLP253 T01190102 $
KGSH 230653Z AUTO 21003KT 10SM CLR 07/02 A3032 RMK AO2 SLP267 T00720022 TSNO
KGSO 230654Z 00000KT 10SM FEW250 12/08 A3031 RMK AO2 SLP258 T01220083
KGSP 230653Z AUTO 36003KT 10SM CLR 14/07 A3029 RMK AO2 SLP249 T01440067
KGTB 230658Z AUTO 28003KT 10SM CLR 01/M04 A3028 RMK AO2 SLP260 T00071037 $
KGTF 230653Z 09016G24KT 10SM BKN060 OVC075 13/06 A2998 RMK AO2 PK WND 06029/0630 SLP138 T01280056 402170050
KGTR 230655Z 03003KT 10SM CLR 14/12 A3021 RMK AO1
KGTU 230655Z 15005KT 7SM SCT009 BKN015 OVC034 23/22 A3006 RMK AO1
KGUC 230655Z 00000KT 10SM FEW030 SCT037 BKN044 04/01 A3014 RMK AO1
KGUL 230655Z AUTO 13012KT 10SM SCT019 SCT025 27/22 A3009 RMK A01
KGUP 230653Z AUTO 24006KT 10SM OVC110 08/M04 A3006 RMK AO2 SLP079 T00781039 402110028
KGUR 230655Z AUTO 11011KT 2 1/2SM 11/10 A3005 RMK AO2 T01050095 PWINO
KGUS 230658Z AUTO 09005KT 10SM FEW190 11/03 A3029 RMK AO2 SLP259 T01070034
KGUY 230653Z AUTO 17011KT 10SM OVC007 15/14 A3002 RMK AO2 SLP140 T01500139
KGVE 230655Z AUTO 00000KT 10SM CLR 10/08 A3030 RMK AO1 T00990081
KGVL 230653Z AUTO 00000KT 10SM CLR 16/11 A3030 RMK AO2 SLP251 T01560111
KGVT 230655Z AUTO 12007KT 10SM BKN026 OVC033 21/17 A3011 RMK AO2
KGWB 230655Z AUTO 00000KT 10SM CLR 08/02 A3032 RMK AO2
KGWO 230653Z AUTO 06004KT 10SM CLR 15/11 A3020 RMK AO2 SLP225 T01500111
KGWW 230655Z AUTO 00000KT 10SM CLR 11/10 A3029 RMK AO2 T01070102
KGXA 230655Z AUTO 24010G18KT 10SM CLR 13/05 A3000 RMK AO2 SLP156 T01310045 PWINO TSNO $
KGXF 230658Z AUTO 23007KT 10SM CLR 19/04 A2994 RMK AO2 SLP130 T01870037 402640173
KGXY 230655Z 12003KT 10SM OVC005 09/07 A3006 RMK AO1
KGYB 230655Z AUTO 14005KT 5SM BR BKN009 OVC012 23/22 A3010 RMK AO2 T02270215
KGYH 230655Z AUTO 05004KT 10SM CLR 13/03 A3030 RMK AO2
KGYI 230655Z AUTO 10007KT 7SM SCT022 OVC033 17/17 A3011 RMK AO2 T01700170
KGYL 230655Z AUTO 00000KT 10SM CLR 15/05 A3020 RMK AO2 T01490046
KGYR 230347Z 24008KT 10SM FEW150 22/02 A2991 RMK LAST
KGYY 230655Z AUTO 00000KT 10SM CLR 09/07 A3030 RMK AO2 T00850068
KGZH 230653Z AUTO 00000KT 10SM CLR 15/14 A3020 RMK AO2 SLP223 T01500139
KGZL 230655Z AUTO 10007KT 4SM -RA 15/14 A3018 RMK AO2
KHAE 230655Z AUTO 21003KT 10SM BKN110 12/10 A3025 RMK AO2
KHAF 230655Z AUTO 28008KT 6SM BR OVC015 13/11 A3009 RMK AO2
KHAI 230655Z AUTO 00000KT 10SM CLR 06/02 A3032 RMK AO2 T00620023
KHAO 230653Z AUTO 00000KT 6SM BR CLR 08/08 A3031 RMK AO2 SLP261 T00830078
KHBG 230653Z AUTO 00000KT 10SM CLR 18/16 A3019 RMK AO2 SLP221 T01780156
KHBI 230655Z AUTO 00000KT 5SM BR CLR 10/08 A3034 RMK AO2 T01000081
KHBR 230701Z AUTO 08006KT 4SM BR OVC002 14/14 A3009 RMK AO2 T01390139
KHBV 230655Z AUTO 14011G17KT 10SM 25/23 A3003 RMK AO2 T02450230
KHCD 230652Z AUTO 22003KT 10SM CLR 14/05 A3022 RMK AO2 T01350050
KHCO 230654Z AUTO 19005KT 10SM CLR 10/07 A3011 RMK AO2
KHDC 230655Z AUTO 00000KT 10SM CLR 22/19 A3017 RMK AO2
KHDE 230655Z AUTO 15011KT 4SM BR OVC003 12/11 A3012 RMK AO2 T01150108
KHDN 230655Z AUTO 13008KT 10SM CLR 06/03 A3006 RMK AO1
KHDO 230713Z AUTO 15010KT 8SM SCT009 BKN014 OVC018 24/23 A3007 RMK AO2 T02440228
KHEF 230655Z 32007KT 10SM CLR 13/01 A3033 RMK AO1
KHEI 230653Z AUTO 12006KT 10SM CLR 07/03 A3010 RMK AO2 SLP190 T00670033 402110000
KHEY 230653Z AUTO 00000KT 10SM CLR 16/14 A3019 RMK AO2 SLP111 T01610139 $
KHEZ 230655Z AUTO 11004KT 10SM CLR 19/15 A3017 RMK AO1
KHFD 230653Z AUTO VRB06KT 10SM CLR 11/M03 A3019 RMK AO2 SLP223 T01061033
KHFF 230656Z AUTO 34002KT 10SM CLR 10/10 A3033 RMK AO2 SLP272 T01010096 TSNO $
KHFJ 230655Z AUTO 12006KT 10SM OVC080 13/10 A3021 RMK AO2
KHGR 230653Z AUTO 00000KT 10SM CLR 09/M03 A3032 RMK AO2 SLP275 T00941033
KHHF 230655Z AUTO 14007KT 3SM BR OVC003 14/14 A3007 RMK AO2 T01370135
KHHG 230655Z AUTO 00000KT 10SM CLR 08/04 A3031 RMK AO2 T00800042
KHHR 230653Z AUTO 23005KT 10SM BKN046 17/12 A3007 RMK AO2 SLP181 T01670122
KHHV 230655Z AUTO 13014KT 10SM FEW020 FEW030 FEW035 27/22 A3009 RMK A01
KHHW 230655Z AUTO 10006KT 10SM BKN042 OVC050 17/15 A3014 RMK AO2 T01700151
KHIB 230653Z AUTO 00000KT 10SM CLR 06/02 A3017 RMK AO2 SLP221 T00560022
KHIE 230652Z AUTO 22004KT 10SM BKN065 00/M06 A3013 RMK AO2 SLP212 T00001056 TSNO
KHIF 230708Z AUTO 12009KT 10SM SCT085 BKN100 BKN120 11/06 A2991 RMK AO2
KHII 230655Z AUTO 11009KT 10SM FEW060 SCT065 BKN110 20/06 A2990 RMK AO2
KHIO 230653Z AUTO 32004KT 10SM OVC030 13/09 A3010 RMK AO2 SLP191 T01280089
KHJH 230655Z AUTO 16006KT 10SM BKN048 OVC055 14/08 A3017 RMK AO2 T01350082
KHJO 230653Z AUTO 16003KT 9SM OVC060 17/11 A3003 RMK AO2 SLP168 T01720106
KHKA 230653Z AUTO 00000KT 10SM FEW110 16/13 A3024 RMK AO2 SLP240 T01610133 $
KHKS 230653Z AUTO 11004KT 10SM CLR 18/13 A3019 RMK AO2 SLP215 T01780128
KHKY 230653Z AUTO 00000KT 10SM CLR 11/07 A3031 RMK AO2 SLP247 T01110072
KHLC 230653Z AUTO 16012G20KT 10SM OVC005 13/12 A3011 RMK AO2 SLP190 T01280117
KHLN 230653Z AUTO 24005KT 10SM BKN085 12/06 A2995 RMK AO2 SLP138 T01220056 402330061
KHLR 230658Z AUTO 14011KT 9SM OVC007 22/21 A3007 RMK AO2 SLP175 T02150207
KHLX 230655Z AUTO 34005KT 10SM CLR 11/04 A3035 RMK AO2 T01110044
KHMN 230658Z AUTO 21007KT 10SM FEW190 21/09 A2993 RMK AO2 SLP072 T02070091 402880098 $
KHNB 230655Z AUTO 13003KT 10SM CLR 14/10 A3028 RMK AO1
KHND 230656Z AUTO 21008KT 10SM CLR 16/06 A2993 RMK AO2 SLP122 T01560056 402280144
KHNR 230655Z AUTO 00000KT 10SM OVC085 12/12 A3024 RMK AO2
KHNZ 230655Z AUTO 26004KT 10SM CLR 13/07 A3030 RMK AO2 T01270065
KHOB 230655Z AUTO 12013KT 4SM BR OVC014 18/18 A2999 RMK AO2
KHOE 230655Z AUTO 00000KT 10SM CLR 18/17 A3023 RMK AO2
KHON 230655Z AUTO 13003KT 10SM FEW100 09/06 A3019 RMK AO2 SLP221 T00890061 $
KHOP 230658Z AUTO 12003KT 10SM SCT170 15/11 A3026 RMK AO2 SLP246 T01460108
KHOT 230653Z AUTO 13004KT 10SM FEW120 16/14 A3019 RMK AO2 LTG DSNT NW RAE36 SLP218 P0000 T01560139
KHOU 230653Z 11006KT 9SM FEW012 BKN250 25/23 A3008 RMK AO2 SLP189 T02500233
KHPN 230656Z 27009KT 10SM CLR 11/M04 A3020 RMK AO2 SLP226 T01061044
KHQI 230655Z AUTO 09015KT 9SM CLR 27/23 A3010 RMK A01
KHQM 230653Z AUTO 26008KT 6SM BR FEW008 OVC019 12/11 A3010 RMK AO2 SLP194 T01170111
KHQU 230655Z AUTO 00000KT 10SM CLR 12/12 A3031 RMK AO1 T01240123
KHQZ 230655Z AUTO 11006KT 10SM BKN017 BKN029 OVC040 21/19 A3009 RMK AO1 T02070192
KHRI 230653Z AUTO 22013KT 10SM -RA OVC090 14/10 A2990 RMK AO2 RAB09 SLP122 P0000 T01440100
KHRJ 230655Z AUTO 31003KT 10SM CLR 12/11 A3030 RMK AO2 T01170113
KHRL 230652Z 13006KT 8SM FEW015 26/24 A3002 RMK AO2 SLP163 T02560244 PNO $
KHRO 230653Z AUTO 13008KT 10SM OVC046 14/11 A3024 RMK AO2 SLP233 T01390106
KHRT 230658Z AUTO 00000KT 10SM CLR 19/13 A3015 RMK AO2 SLP211 T01870133 $
KHRX 230655Z AUTO 1 1/2SM -VCTSRA OVC003 16/16 A3001 RMK AO2 LTG DSNT SW AND W T01560155
KHSA 230153Z 00000KTS 10SM CLR 22/18 A3017
KHSB 230655Z AUTO 00000KT 10SM CLR 14/14 A3027 RMK AO2 T01420141
KHSE 230651Z AUTO 25003KT 10SM CLR 09/08 A3027 RMK AO2 SLP251 T00940078 TSNO
KHSI 230653Z AUTO 16009KT 10SM OVC019 12/10 A3014 RMK AO2 SLP207 T01220100
KHSP 230655Z AUTO 28007KT 10SM CLR 10/04 A3033 RMK AO2 T01010043
KHST 230658Z AUTO 04006KT 10SM CLR 23/20 A3011 RMK AO2 SLP199 T02250196
KHSV 230653Z AUTO 11004KT 10SM CLR 14/09 A3025 RMK AO2 SLP238 T01390089
KHTL 230653Z AUTO 12003KT 10SM CLR M01/M01 A3031 RMK AO2 SLP272 T10061011
KHTS 230651Z 00000KT 10SM CLR 10/08 A3030 RMK AO2 SLP256 T01000078
KHUA 230658Z AUTO 08002KT 10SM CLR 13/10 A3024 RMK AO2 SLP238 T01250097
KHUF 230653Z 23003KT 10SM FEW110 16/12 A3027 RMK AO2 SLP249 T01560122
KHUL 230653Z AUTO 24005KT 10SM BKN060 OVC070 03/01 A2990 RMK AO2 SLP129 T00280011
KHUM 230655Z AUTO 00000KT 7SM CLR 22/21 A3014 RMK AO2 T02190209
KHUT 230652Z AUTO 15007KT 4SM BR OVC003 13/11 A3016 RMK AO2 SLP204 T01280111
KHVE 230655Z AUTO 32004KT 10SM CLR 11/02 A2993 RMK AO2
KHVN 230653Z AUTO 32004KT 10SM CLR 10/00 A3020 RMK AO2 SLP224 T01000000
KHVR 230653Z AUTO 07006KT 10SM OVC110 13/08 A2998 RMK AO2 SLP143 T01330083 402330050
KHVS 230715Z AUTO 06004KT 10SM CLR 13/08 A3028 RMK AO2
KHWD 230654Z AUTO 24008KT 10SM OVC016 14/10 A3008 RMK AO2 SLP195 T01390100
KHWO 230653Z AUTO 07003KT 10SM CLR 23/21 A3013 RMK AO2 SLP202 T02330206
KHWV 230656Z AUTO 31009KT 10SM CLR 12/00 A3019 RMK AO2 SLP224 T01220000 TSNO
KHWY 230655Z AUTO 34006KT 10SM SCT070 SCT080 14/05 A3032 RMK AO2 T01430054
KHXD 230655Z AUTO 02003KT 10SM CLR 21/17 A3025 RMK AO2 P0000
KHYA 230656Z AUTO 29005KT 10SM CLR 11/M03 A3009 RMK AO2 SLP190 T01111033
KHYI 230655Z 15010KT 10SM BKN010 OVC019 23/21 A3007 RMK AO1
KHYR 230653Z AUTO 00000KT 10SM CLR 06/03 A3022 RMK AO2 SLP237 T00560033
KHYS 230655Z 14011G16KT 10SM BKN006 BKN025 OVC037 12/09 A3013 RMK AO1
KHYW 230655Z AUTO 00000KT 5SM BR CLR 12/12 A3028 RMK AO2
KHYX 230654Z AUTO 00000KT 10SM CLR 04/M05 A3031 RMK AO2
KHZE 230655Z AUTO 00000KT 10SM SCT034 SCT042 08/04 A3012 RMK AO2
KHZL 230655Z AUTO 31005KT 10SM CLR 06/M01 A3031 RMK AO2
KHZR 230655Z AUTO 00000KT 7SM CLR 21/21 A3015 RMK AO2 T02100205
KHZX 230654Z AUTO 00000KT 10SM CLR 10/05 A3020 RMK AO2
KHZY 230653Z AUTO 00000KT 10SM CLR 02/01 A3035 RMK AO2 SLP280 T00220006
KI16 230655Z AUTO 10SM CLR 07/07 A3040 RMK AO2 T00720072
KI35 230655Z AUTO 00000KT 10SM CLR 08/08 A3034 RMK AO1
KI39 230655Z AUTO 13003KT 10SM CLR 10/08 A3030 RMK AO2
KI67 230655Z AUTO 00000KT 10SM CLR 10/08 A3029 RMK AO1
KI69 230656Z AUTO 00000KT 10SM CLR 10/08 A3029 RMK AO1
KI75 230655Z AUTO 17004KT 10SM CLR 13/11 A3023 RMK AO2 T01300105
KIAB 230658Z AUTO 14007KT 6SM R19/5000FT BR OVC004 13/12 A3017 RMK AO2 SLP217 T01260120
KIAD 230652Z 33006KT 10SM CLR 12/M01 A3033 RMK AO2 SLP267 T01221006
KIAG 230653Z AUTO 00000KT 10SM CLR 02/M02 A3034 RMK AO2 SLP282 T00171022
KIAH 230653Z 11008KT 7SM SCT110 BKN250 23/22 A3008 RMK AO2 SLP186 T02330222
KICL 230655Z AUTO 00000KT 10SM OVC070 11/10 A3022 RMK AO2
KICR 230653Z AUTO 13005KT 10SM FEW016 BKN024 OVC055 11/07 A3014 RMK AO2 SLP204 T01060072
KICT 230653Z 16007KT 2 1/2SM BR BKN004 OVC011 13/12 A3016 RMK AO2 CIG 003V009 SLP211 P0001 T01280122
KIDA 230653Z AUTO 16010KT 10SM -RA OVC060 11/09 A2992 RMK AO2 SLP107 P0002 T01060089 401890078
KIDI 230655Z AUTO 00000KT 10SM CLR 02/M00 A3037 RMK A01
KIDP 230655Z AUTO 16008KT 10SM OVC022 15/11 A3018 RMK AO2
KIEN 230652Z AUTO 12005KT 10SM OVC012 09/06 A3007 RMK AO2 SLP180 T00890056 401440083
KIFA 230655Z AUTO 32003KT 10SM BKN120 14/08 A3023 RMK AO2 T01410082
KIFP 230655Z AUTO 19006KT 10SM BKN085 19/06 A2991 RMK AO2
KIGM 230651Z AUTO 14009KT CLR 09/04 A2998 RMK AO2 SLP111 T00940044 402060094 $
KIGQ 230655Z AUTO 00000KT 10SM CLR 08/05 A3030 RMK AO2 T00820045
KIGX 230656Z AUTO 28005KT 10SM CLR 12/08 A3031 RMK AO2 SLP258 T01170078 TSNO
KIIB 230655Z AUTO 00000KT 10SM CLR 14/07 A3022 RMK AO2
KIIY 230655Z AUTO 00000KT 10SM CLR 15/15 A3027 RMK AO2
KIJD 230652Z AUTO 30006KT 10SM CLR 10/M03 A3017 RMK AO2 SLP216 T01001033
KIJX 230655Z AUTO 00000KT 10SM OVC120 17/13 A3024 RMK AO2 T01670132
KIKK 230655Z AUTO 00000KT 10SM CLR 13/04 A3029 RMK AO2 T01250039
KIKT 230655Z AUTO 08014KT 10SM FEW015 26/23 A3012 RMK A01
KIKV 230655Z AUTO 00000KT 10SM CLR 12/10 A3022 RMK AO2
KIKW 230652Z AUTO 00000KT 10SM CLR 01/00 A3032 RMK AO2 T00110004
KILE 230655Z AUTO 14008KT 7SM OVC008 22/19 A3008 RMK AO1
KILG 230651Z AUTO 32008KT 10SM CLR 11/00 A3027 RMK AO2 SLP251 T01060000 TSNO
KILM 230653Z 00000KT 10SM CLR 14/13 A3028 RMK AO2 SLP251 T01390128
KILN 230654Z AUTO 08005KT 10SM CLR 12/04 A3030 RMK AO2 SLP260 T01220039
KIML 230653Z AUTO 15015KT 9SM RA SCT005 OVC042 11/11 A3006 RMK AO2 SLP180 P0022 T01110106 401110083
KIMM 230715Z AUTO 00000KT CLR A3012 RMK A01 P000
KIMS 230654Z AUTO 00000KT 10SM CLR 11/09 A3030 RMK AO1
KIMT 230654Z AUTO 00000KT 10SM CLR 02/M02 A3023 RMK AO2 SLP243 T00221017 TSNO
KIND 230654Z 04008KT 10SM BKN150 14/06 A3027 RMK AO2 SLP247 T01440061
KINF 230655Z AUTO 05003KT 10SM CLR 22/20 A3016 RMK AO2
KINJ 230655Z AUTO 13008KT 10SM OVC011 21/19 A3009 RMK AO2 T02130190
KINK 230710Z AUTO 14014KT 10SM BKN021 BKN027 OVC032 22/18 A2993 RMK AO2 LTG DSNT NE AND E T02170183
KINL 230655Z AUTO 21003KT 10SM CLR 09/04 A3012 RMK AO2 SLP202 T00940044
KINS 230658Z AUTO 24003KT 10SM CLR 13/03 A2992 RMK AO2 SLP101 T01270032 $
KINT 230654Z AUTO 00000KT 10SM CLR 13/06 A3032 RMK AO2 SLP261 T01280061
KINW 230656Z AUTO 30005KT 10SM CLR 07/M02 A3003 RMK AO2 SLP125 T00671017 402280056
KIOB 230655Z AUTO 23004KT 10SM CLR 08/08 A3032 RMK AO2
KIOW 230652Z AUTO 00000KT 10SM OVC110 17/09 A3024 RMK AO2 SLP237 T01670094
KIPJ 230655Z AUTO 00000KT 10SM CLR 09/07 A3030 RMK AO2 T00850071
KIPL 230653Z AUTO 26011KT 10SM CLR 18/07 A2994 RMK AO2 SLP138 T01780067
KIPN 230655Z AUTO 07016KT 10SM SCT017 SCT022 26/23 A3012 RMK A01
KIPT 230654Z AUTO VRB03KT 10SM CLR 07/M03 A3032 RMK AO2 SLP269 T00671028
KIRK 230655Z AUTO 15003KT 10SM FEW100 11/11 A3025 RMK AO2 SLP243 T01110111
KIRS 230655Z AUTO 00000KT 10SM CLR 09/00 A3031 RMK AO2
KISM 230150Z 15012KT 10SM BKN050 24/21 A3019 RMK LAST
KISN 230652Z AUTO 18003KT 10SM CLR 14/03 A3009 RMK AO2 SLP186 T01390033
KISO 230655Z AUTO 00000KT 10SM CLR 10/10 A3029 RMK AO2 T01010097
KISP 230656Z AUTO 30013KT 10SM CLR 12/M02 A3018 RMK AO2 SLP220 T01221017
KISQ 230655Z AUTO 21005KT 10SM CLR 06/M01 A3025 RMK AO2 T00561007
KISW 230654Z AUTO 17005KT 10SM CLR 11/02 A3026 RMK AO2 SLP247 T01060022
KITH 230656Z AUTO 00000KT 10SM CLR 00/M01 A3030 RMK AO2 T00001011 SLP268
KITR 230713Z AUTO 15016KT 3/4SM BR VV002 12/12 A3001 RMK AO2 LTG DSNT NE T01220117
KIWA 230652Z 20003KT 20SM SKC 18/03 A2996 RMK LAST
KIWD 230655Z AUTO 23005KT 10SM CLR 13/M01 A3017 RMK AO1
KIWI 230653Z AUTO VRB06KT 10SM OVC110 07/M06 A3010 RMK AO2 SLP191 T00671056
KIXA 230655Z AUTO 00000KT 10SM CLR 10/09 A3028 RMK AO2
KIXD 230653Z AUTO 14008KT 10SM OVC044 16/11 A3020 RMK AO2 SLP223 T01560111
KIYA 230655Z AUTO 00000KT 21/21 A3013 RMK AO2 T02120208 PWINO
KIZA 230655Z AUTO 26003KT 10SM OVC015 12/08 A3010 RMK AO2
KIZG 230654Z AUTO 26003KT 10SM CLR 03/M08 A3013 RMK AO2 SLP205 T00281078
KJAC 230655Z 00000KT 10SM SCT039 OVC049 07/06 A2998 RMK AO1
KJAN 230654Z AUTO 11005KT 10SM CLR 18/12 A3018 RMK AO2 SLP217 T01830122
KJAS 230655Z AUTO 07003KT 7SM CLR 21/20 A3015 RMK AO2 T02070197
KJAX 230656Z 03005KT 8SM CLR 20/17 A3019 RMK AO2 SLP225 T02000172
KJBR 230653Z AUTO 02004KT 10SM FEW120 16/12 A3023 RMK AO2 SLP236 T01560122
KJCT 230651Z AUTO 14006KT 7SM SCT021 SCT026 23/21 A3006 RMK AO2 SLP144 T02330211
KJDD 230655Z AUTO 00000KT 10SM CLR 20/19 A3013 RMK AO2
KJDN 230648Z AUTO 12007KT 14/07 A2999 RMK AO1 SLP149 T01440072 402330072
KJEF 230653Z AUTO 11003KT 10SM OVC080 17/12 A3024 RMK AO2 SLP230 T01670117 TSNO
KJER 230653Z AUTO 13005KT 10SM CLR 11/09 A2990 RMK AO2 SLP107 T01110089 401780100
KJES 230655Z AUTO 00000KT 10SM CLR 17/16 A3023 RMK AO2
KJFK 230651Z 33020G24KT 10SM CLR 13/M05 A3023 RMK AO2 PK WND 33030/0620 SLP236 T01331050 $
KJFX 230715Z AUTO 00000KT 7SM CLR 10/10 A3025 RMK A02 P-128
KJFZ 230655Z AUTO 00000KT 10SM CLR 10/M05 A3036 RMK AO2 T01011046
KJGG 230655Z AUTO 27006KT 10SM CLR 17/11 A3027 RMK AO1
KJHN 230655Z AUTO 14016KT 10SM 14/12 A3002 RMK AO2 T01350124
KJHW 230655Z 35003KT 10SM CLR 03/M04 A3034 RMK AO1
KJKA 230655Z AUTO 03003KT 10SM CLR 19/16 A3017 RMK AO2 T01910155
KJKJ 230652Z AUTO 17008KT 10SM CLR 13/04 A3016 RMK AO2
KJKL 230653Z AUTO 00000KT 10SM CLR 12/08 A3032 RMK AO2 SLP260 T01220078
KJLN 230653Z AUTO 14008KT 10SM FEW029 BKN043 OVC080 16/11 A3019 RMK AO2 SLP219 T01610106
KJMR 230658Z AUTO 00000KT 7SM CLR 06/05 A3022 RMK AO2
KJMS 230656Z AUTO 19006KT 10SM BKN095 12/05 A3012 RMK AO2 SLP201 T01220050
KJNX 230655Z AUTO 00000KT 10SM CLR 10/10 A3029 RMK AO2
KJOT 230655Z AUTO 00000KT 10SM CLR 12/05 A3029 RMK AO2 T01190050
KJQF 230655Z AUTO 00000KT 10SM CLR 08/07 A3034 RMK AO2
KJSO 230655Z AUTO 10004KT 10SM BKN019 20/18 A3014 RMK AO2 T02000187
KJST 230654Z AUTO 36004KT 10SM CLR 06/M09 A3031 RMK AO2 SLP269 T00561089
KJSV 230635Z AUTO 09007KT 10SM SCT007 BKN023 15/13 A3019 RMK AO2 LTG DSNT SE
KJTC 230655Z AUTO 21011KT 10SM CLR 08/M02 A3010 RMK AO2
KJVL 230655Z AUTO 00000KT 10SM CLR 10/M01 A3028 RMK AO2
KJWG 230655Z AUTO 12005KT 1 3/4SM BR OVC003 13/13 A3013 RMK AO2 T01300130
KJWY 230655Z AUTO 13008KT 10SM SCT010 BKN021 OVC027 21/21 A3010 RMK AO2 T02110206
KJXI 230655Z AUTO 11003KT 10SM CLR 20/18 A3012 RMK AO2 T01950180
KJXN 230656Z 15005KT 10SM CLR 07/01 A3032 RMK AO2 SLP269 T00670006
KJYG 230655Z AUTO 30003KT 10SM CLR 14/07 A3022 RMK AO2
KJYL 230655Z AUTO 00000KT 10SM CLR 14/14 A3026 RMK AO2 T01430141
KJYM 230655Z AUTO 10005KT 10SM CLR 08/03 A3032 RMK AO2 T00820030
KJYO 230655Z AUTO 32005KT 10SM CLR 12/01 A3033 RMK AO2
KJYR 230655Z AUTO 17009KT 10SM OVC040 13/08 A3017 RMK AO2
KJZI 230715Z AUTO 00000KT 10SM CLR 17/16 A3025 RMK A02 P000
KKLS 230655Z 00000KT 10SM BKN026 OVC033 13/09 A3014 RMK AO1
KL18 230655Z AUTO 00000KT 10SM OVC024 13/12 A3008 RMK AO2
KL35 230655Z AUTO 00000KT 10SM OVC012 03/00 A3010 RMK AO2
KL38 230655Z AUTO 00000KT 7SM CLR 21/21 A3014 RMK AO2 T02120212
KLAA 230653Z AUTO 06008KT 7SM SCT018 13/12 A2995 RMK AO2 SLP106 T01330117 402440089 TSNO
KLAF 230654Z AUTO 09007KT 10SM CLR 12/04 A3029 RMK AO2 SLP254 T01220039
KLAL 230655Z AUTO 07005KT 10SM CLR 22/21 A3015 RMK AO2
KLAM 230655Z AUTO 19010G17KT 10SM BKN013 BKN023 OVC050 12/09 A3008 RMK AO2 T01200091
KLAN 230653Z 15003KT 10SM CLR 08/01 A3032 RMK AO2 SLP269 T00780011
KLAR 230653Z AUTO 16016KT 10SM FEW120 04/03 A3004 RMK AO2 SLP127 T00440033 401000033
KLAS 230656Z 19008KT 10SM FEW090 17/05 A2986 RMK AO2 SLP100 T01720050 $
KLAW 230653Z AUTO 09004KT 5SM BR OVC003 15/14 A3010 RMK AO2 RAB0555E05 SLP190 P0000 T01500144 TSNO
KLAX 230653Z 25007KT 10SM FEW020 SCT045 SCT070 BKN220 15/11 A3007 RMK AO2 SLP180 T01500111
KLBB 230653Z 12008KT 1/4SM FG VV002 17/17 A3005 RMK AO2 DZE28 SLP142 P0000 T01670167 RVRNO
KLBE 230655Z AUTO 00000KT 10SM CLR 03/00 A3036 RMK AO2
KLBF 230653Z AUTO 13006KT 8SM OVC003 11/10 A3008 RMK AO2 SLP187 T01060100
KLBL 230655Z AUTO 16011G16KT 10SM OVC005 14/12 A3006 RMK AO1
KLBT 230654Z AUTO 00000KT 10SM CLR 11/10 A3028 RMK AO2 SLP253 T01110100
KLBX 230653Z AUTO 13008KT 10SM CLR 23/23 A3008 RMK AO2 SLP184 T02330233
KLCG 230655Z AUTO 00000KT 10SM OVC055 12/10 A3019 RMK AO2 T01220104
KLCH 230653Z AUTO 07007KT 8SM CLR 21/19 A3012 RMK AO2 SLP208 T02110194
KLCI 230655Z AUTO 28005KT 10SM CLR 04/M08 A3015 RMK AO1
KLCK 230655Z AUTO 09003KT 10SM CLR 10/02 A3030 RMK AO2 T00990023
KLCQ 230655Z AUTO 05003KT 10SM BKN012 18/18 A3020 RMK AO2
KLDJ 230715Z AUTO 34009KT 10SM CLR 14/M02 A3029 RMK AO2 T01351019
KLDM 230655Z AUTO 00000KT 10SM CLR 03/01 A3029 RMK AO2 T00330010
KLEB 230653Z AUTO 27003KT 10SM CLR 03/M04 A3019 RMK AO2 SLP222 T00331044
KLEE 230653Z AUTO 05004KT 10SM CLR 22/20 A3017 RMK AO2 SLP216 T02220200
KLEW 230655Z 29009G15KT 10SM CLR 04/M09 A3011 RMK AO1
KLEX 230654Z 17003KT 10SM CLR 13/07 A3030 RMK AO2 SLP256 T01280072
KLFI 230658Z AUTO 27007KT 10SM CLR 13/09 A3024 RMK AO2 SLP247 T01300092 $
KLFK 230653Z AUTO 09006KT 7SM CLR 22/19 A3011 RMK AO2 SLP192 T02170194 $
KLFT 230653Z AUTO 00000KT 7SM SCT030 22/21 A3014 RMK AO2 SLP205 T02170206
KLGA 230651Z 32017KT 10SM CLR 13/M02 A3023 RMK AO2 PK WND 33026/0557 SLP236 T01281022
KLGB 230710Z 33003KT 10SM BKN020 OVC043 17/12 A3006 RMK AO2 T01670122 $
KLGC 230655Z AUTO 00000KT 10SM CLR 15/15 A3024 RMK AO2 T01460146
KLGD 230655Z AUTO 01008KT 10SM FEW037 SCT050 BKN110 15/08 A2994 RMK AO1
KLGU 230651Z AUTO 30005KT 10SM -RA BKN065 OVC080 11/08 A2993 RMK AO2 RAB22 SLP107 P0001 T01060083 401830067 TSNO
KLHB 230655Z AUTO 09004KT 10SM OVC012 22/20 A3009 RMK AO2 T02150202
KLHM 230655Z AUTO 16009KT 10SM SCT070 BKN110 15/09 A3000 RMK AO1
KLHQ 230653Z AUTO 17005KT 10SM CLR 08/03 A3032 RMK AO2 SLP264 T00830028
KLHW 230558Z AUTO 00000KT 10SM CLR 16/15 A3022 RMK AO2 SLP236 T01590145 10226 20159 58001
KLHX 230653Z AUTO 29008KT 10SM CLR 14/09 A2994 RMK AO2 SLP097 T01440089 402440094
KLHZ 230655Z AUTO 00000KT 10SM CLR 08/08 A3030 RMK AO2
KLIC 230655Z AUTO 02007KT 10SM OVC010 09/08 A3003 RMK AO2 SLP131 T00940083 401670061
KLIT 230653Z 34003KT 10SM OVC120 17/13 A3021 RMK AO2 SLP232 BINOVC T01670133
KLJF 230652Z AUTO 00000KT 10SM CLR 14/04 A3021 RMK AO2
KLKR 230715Z AUTO 00000KT 10SM CLR 10/10 A3030 RMK AO2
KLKU 230655Z AUTO 03003KT 10SM CLR 14/08 A3029 RMK AO2
KLKV 230655Z 36004KT 9SM BKN020 OVC026 10/08 A3003 RMK AO1
KLLJ 230655Z AUTO 32006KT 10SM FEW100 11/04 A2994 RMK AO2 SLP099 T01060044 402000056
KLLQ 230653Z AUTO 00000KT 10SM CLR 14/13 A3019 RMK AO2 SLP220 T01440133
KLMO 230655Z AUTO 00000KT 10SM SCT028 BKN034 OVC060 11/09 A3007 RMK AO2 T01050092
KLMT 230653Z AUTO 26004KT 10SM OVC050 09/06 A3005 RMK AO2 SLP159 T00940056
KLNC 230655Z AUTO 14007KT 10SM SCT030 BKN043 OVC075 21/18 A3010 RMK AO2 T02110183
KLND 230714Z AUTO 10005KT 10SM BKN024 OVC037 08/07 A2995 RMK AO2 T00780072
KLNK 230654Z AUTO 16006KT 10SM OVC060 14/08 A3019 RMK AO2 SLP220 T01440083
KLNL 230655Z AUTO 00000KT 10SM CLR 01/00 A3023 RMK AO2 T00050000
KLNN 230655Z AUTO 00000KT 10SM CLR A3033 RMK AO1
KLNP 230655Z AUTO 00000KT 10SM CLR 11/03 A3037 RMK AO2
KLNR 230656Z AUTO 08005KT 10SM CLR 12/06 A3026 RMK AO2 SLP241 T01170056
KLNS 230653Z AUTO 30005KT 10SM CLR 10/M02 A3029 RMK AO2 SLP255 T01001022
KLOL 230653Z AUTO 17004KT 10SM BKN050 OVC070 12/10 A2997 RMK AO2 SLP130 T01170100
KLOM 230655Z AUTO 00000KT 10SM CLR 12/01 A3027 RMK AO1
KLOR 230653Z AUTO 00000KT 9SM CLR 14/13 A3019 RMK AO2 SLP219 T01440128
KLOT 230655Z AUTO 10004KT 10SM CLR 11/03 A3029 RMK AO2 T01070034
KLOU 230653Z AUTO 00000KT 10SM CLR 13/09 A3029 RMK AO2 SLP256 T01330094
KLOZ 230653Z AUTO 00000KT 9SM CLR 10/07 A3031 RMK AO2 SLP259 T01000067
KLPR 230653Z AUTO 00000KT 10SM CLR 06/02 A3034 RMK AO2 SLP275 T00610017 TSNO
KLQK 230715Z AUTO 00000KT 10SM CLR 10/09 A3029 RMK AO2 T01040090
KLRD 230656Z AUTO 13008KT 10SM SCT041 26/23 A3003 RMK AO2 T02550227 SLP156
KLRF 230658Z AUTO 00000KT 10SM FEW085 BKN220 16/13 A3020 RMK AO2 SLP228 T01580134
KLRJ 230655Z AUTO 12004KT 10SM OVC075 15/08 A3020 RMK AO2
KLRO 230655Z AUTO 36003KT 9SM -RA CLR 17/16 A3026 RMK AO2
KLRU 230655Z AUTO 27012G16KT 10SM CLR 19/M07 A2999 RMK AO2 T01941074
KLSB 230655Z AUTO 31004KT 10SM CLR 14/M05 A3001 RMK AO2
KLSE 230653Z AUTO 12005KT 10SM CLR 11/07 A3023 RMK AO2 SLP233 T01110067
KLSF 230708Z AUTO 00000KT 3SM R33/4500FT BR CLR 14/14 A3021 RMK AO2
KLSV 230658Z AUTO 06002KT 10SM CLR 17/05 A2990 RMK AO2 SLP111 T01690048 $
KLTS 230703Z AUTO 11008KT 1/2SM R35L/1600FT FG VV001 14/14 A3007 RMK AO2 VIS 1/2V1 $
KLUA 230655Z AUTO 04004KT 10SM OVC048 15/03 A3034 RMK AO2
KLUD 230655Z AUTO 07005KT 3SM BR BKN001 BKN008 OVC012 17/17 A3009 RMK AO2 T01730173
KLUF 230658Z AUTO 34006KT 10SM CLR 20/04 A2992 RMK AO2 SLP123 T02030037 402620187 $
KLUK 230653Z AUTO 00000KT 6SM BR CLR 09/08 A3031 RMK AO2 SLP261 T00940083
KLUM 230655Z AUTO 00000KT 10SM CLR 10/05 A3023 RMK AO2 T00970053
KLUX 230715Z AUTO 35003KT 10SM CLR 09/09 A3029 RMK AO2
KLVJ 230653Z AUTO 12007KT 9SM CLR 25/23 A3009 RMK AO2 SLP189 T02500233
KLVK 230710Z AUTO 24010KT 10SM OVC014 14/10 A3007 RMK AO2 $
KLVL 230656Z AUTO 00000KT 10SM CLR 11/08 A3027 RMK AO2
KLVM 230653Z AUTO 10005KT 10SM OVC100 10/08 A2996 RMK AO2 SLP120 T01000083 402110028
KLVN 230651Z AUTO 00000KT 10SM CLR 08/05 A3021 RMK AO2
KLVS 230653Z AUTO 19013G20KT 7SM BKN005 OVC010 11/11 A3007 RMK AO2 RAB28E47 CIG 002V008 SLP097 P0000 T01110106 401830033
KLWA 230655Z AUTO 16003KT 10SM CLR 08/01 A3030 RMK AO2 T00810011
KLWB 230655Z AUTO 00000KT 10SM CLR 08/05 A3034 RMK AO2 T00770051
KLWC 230652Z AUTO 14006KT 10SM OVC044 16/11 A3019 RMK AO2 SLP221 T01560111
KLWD 230653Z AUTO 16003KT 10SM 15/11 A3022 RMK AO2 SLP232 T01500111 $
KLWM 230654Z AUTO 30006G15KT 10SM CLR 08/M01 A3017 RMK AO2 SLP215 T00781006
KLWS 230656Z AUTO 12004KT 10SM CLR 17/11 A2989 RMK AO2 SLP113 T01720111
KLWT 230654Z AUTO 22004KT 10SM FEW050 BKN095 OVC110 11/09 A2999 RMK AO2 RAB16E53 SLP139 P0000 T01060089 401940056
KLWV 230653Z AUTO 00000KT 10SM CLR 16/12 A3028 RMK AO2 SLP251 T01610122 $
KLXL 230655Z AUTO 00000KT 10SM CLR 07/03 A3019 RMK AO2
KLXN 230655Z AUTO 15009G15KT 3SM BR OVC003 12/12 A3011 RMK AO2 T01230118
KLXT 230653Z AUTO 17007KT 10SM OVC080 17/10 A3021 RMK AO2 SLP225 T01670100
KLXV 230709Z AUTO 06007KT 4SM -SN BR BKN019 OVC100 M01/M01 A3015 RMK AO2 P0001 T10061006 $
KLXY 230655Z AUTO 14010KT 10SM CLR 21/20 A3009 RMK AO2 T02050195
KLYH 230654Z AUTO 00000KT 10SM CLR 09/06 A3031 RMK AO2 SLP262 T00890061
KLYV 230654Z AUTO 21004KT 10SM OVC090 13/08 A3023 RMK AO2
KLZZ 230655Z AUTO 14009KT 7SM OVC007 22/21 A3006 RMK AO2 T02210213
KM19 230656Z AUTO 00000KT 10SM BKN100 OVC120 18/13 A3024 RMK AO2 T01770133 BKN V OVC SLP238
KM25 230715Z AUTO 09003KT 10SM CLR 12/11 A3027 RMK AO2
KM30 230655Z AUTO 00000KT 10SM CLR 14/14 A3026 RMK AO2 T01360136
KM63 230656Z AUTO 13007KT 10SM BKN170 22/M08 A2996 RMK AO2 SLP078 T02211076 402970095
KM91 230715Z AUTO 00000KT 10SM CLR 14/09 A3027 RMK
KMAE 230653Z AUTO 31007KT 10SM CLR 16/09 A3004 RMK AO2 SLP169 T01610094
KMAF 230653Z AUTO 15016G23KT 10SM OVC015 21/18 A2998 RMK AO2 SLP112 T02110183
KMAI 230653Z AUTO 00000KT 10SM -RA CLR 17/16 A3017 RMK AO2 RAE35B51 SLP216 T01720156 PNO $
KMAN 230655Z AUTO 30009KT 10SM BKN049 15/13 A2987 RMK AO1
KMAO 230715Z AUTO 00000KT 10SM CLR 12/11 A3028 RMK AO2
KMBG 230652Z AUTO 17006KT 10SM CLR 10/07 A3012 RMK AO2 SLP198 T01000072
KMBL 230655Z AUTO 00000KT 10SM CLR 01/M02 A3029 RMK AO1
KMBS 230653Z 00000KT 10SM CLR 06/M02 A3032 RMK AO2 SLP269 T00611017
KMCB 230653Z AUTO 08003KT 10SM FEW031 19/17 A3017 RMK AO2 SLP211 T01940172
KMCC 230650Z AUTO 17011G16KT 10SM BKN110 14/10 A3003 RMK AO2
KMCD 230655Z AUTO 20007KT 10SM CLR 04/02 A3027 RMK AO2 T00390016
KMCE 230653Z AUTO 32005KT 10SM OVC095 16/11 A3002 RMK AO2 SLP165 T01610106
KMCF 230658Z AUTO 10006KT 10SM CLR 23/22 A3013 RMK AO2 SLP206 T02340220
KMCI 230653Z 16008KT 10SM BKN055 OVC070 16/11 A3020 RMK AO2 SLP222 T01610111
KMCK 230704Z AUTO 14009KT 3SM BR OVC002 12/12 A3008 RMK AO2 T01220117
KMCN 230653Z AUTO 00000KT 10SM CLR 14/13 A3024 RMK AO2 SLP238 T01390128 TSNO
KMCO 230653Z 03006KT 10SM FEW140 SCT300 24/21 A3016 RMK AO2 SLP211 T02390211
KMCW 230653Z AUTO 30004KT 10SM CLR 13/08 A3023 RMK AO2 SLP231 T01280078
KMCX 230655Z AUTO 00000KT 10SM CLR 12/03 A3029 RMK AO2 T01200031
KMDD 230655Z AUTO 15015G20KT 7SM OVC015 22/19 A2998 RMK AO2 T02160187
KMDH 230652Z AUTO 00000KT 10SM CLR 14/12 A3026 RMK AO2 SLP244 T01390122
KMDJ 230655Z AUTO 10015KT 10SM FEW017 SCT021 SCT032 26/23 A3016 RMK A01
KMDQ 230655Z AUTO 00000KT 10SM CLR 10/08 A3026 RMK AO2
KMDS 230650Z AUTO 00000KT 10SM OVC100 11/07 A3021 RMK AO2
KMDT 230656Z 32008KT 10SM CLR 11/M02 A3029 RMK AO2 SLP257 T01111022
KMDW 230653Z 11004KT 10SM BKN220 13/04 A3029 RMK AO2 SLP254 T01280039
KMDZ 230655Z AUTO 00000KT 10SM CLR 05/03 A3024 RMK AO2 T00490028
KMEB 230652Z AUTO 01003KT 8SM CLR 11/08 A3030 RMK AO2 SLP258 T01060083
KMEH 230656Z AUTO 00000KT 10SM OVC010 12/10 A2998 RMK AO2 SLP137 T01170100
KMEI 230658Z AUTO 00000KT 10SM CLR 14/12 A3020 RMK AO2 SLP223 T01390122
KMEM 230654Z 11005KT 10SM OVC150 19/09 A3022 RMK AO2 SLP231 T01890089
KMER 230655Z AUTO 33005KT 10SM OVC095 16/10 A3003 RMK AO1
KMEV 230655Z AUTO 16004KT 9SM FEW035 OVC046 09/09 A3007 RMK AO2 P0002
KMEZ 230715Z AUTO 00000KT 5SM OVC004 15/15 A3020 RMK AO2 LTG DSNT NE
KMFD 230652Z AUTO 14004KT 10SM CLR 08/02 A3032 RMK AO2 SLP267 T00780017
KMFE 230713Z AUTO 12006KT 8SM BKN024 26/24 A3002 RMK AO2 T02610239
KMFR 230653Z AUTO 00000KT 10SM CLR 11/07 A3008 RMK AO2 SLP185 T01060072
KMFV 230655Z AUTO 28004KT 10SM CLR 13/12 A3025 RMK AO2
KMGC 230655Z AUTO 00000KT 10SM CLR 07/03 A3031 RMK AO2
KMGE 230658Z AUTO 00000KT 10SM CLR 14/12 A3026 RMK AO2 SLP242 T01440116 $
KMGG 230656Z AUTO 00000KT 10SM CLR 10/09 A3021 RMK AO2 T00960089
KMGJ 230654Z AUTO 29007KT 10SM CLR 08/M03 A3023 RMK AO2 SLP236 T00781033 TSNO $
KMGM 230653Z 05003KT 10SM CLR 17/14 A3021 RMK AO2 SLP228 T01720139
KMGN 230655Z AUTO 00000KT 10SM CLR 01/M02 A3028 RMK AO2 T00091023
KMGR 230655Z AUTO 00000KT 10SM CLR 19/17 A3022 RMK AO2
KMGW 230653Z AUTO 00000KT 10SM CLR 08/M01 A3035 RMK AO2 SLP275 T00831006 TSNO
KMGY 230653Z AUTO 08006KT 10SM CLR 10/07 A3029 RMK AO2 SLP255 T01000067
KMHE 230653Z AUTO VRB03KT 10SM OVC090 13/08 A3019 RMK AO2 SLP222 T01280083
KMHK 230701Z 07004KT 10SM OVC030 14/11 A3017 RMK AO2 T01440106
KMHL 230715Z AUTO 13006KT 10SM OVC075 17/12 A3024 RMK AO2
KMHR 230545Z 20007KT 10SM SCT110 14/10 A3003 RMK PRESRR
KMHS 230656Z AUTO VRB04KT 10SM CLR 10/06 A3005 RMK AO2 SLP180 T01000061
KMHT 230653Z 30010KT 10SM FEW080 07/M02 A3015 RMK AO2 SLP223 T00721017
KMHV 230655Z AUTO 27017G32KT 10SM CLR 14/05 A2997 RMK AO1
KMIA 230653Z 05004KT 8SM FEW020 BKN250 24/20 A3012 RMK AO2 SLP199 T02390200
KMIB 230658Z AUTO 18004KT 10SM BKN100 13/06 A3009 RMK AO2 SLP192 T01260058 $
KMIC 230653Z AUTO 00000KT 9SM CLR 10/06 A3019 RMK AO2 SLP224 T01000061
KMIE 230653Z AUTO 00000KT 10SM CLR 12/04 A3031 RMK AO2 SLP257 T01170039
KMIV 230654Z AUTO 31007KT 10SM CLR 13/M01 A3025 RMK AO2 SLP242 T01331006
KMIW 230653Z AUTO 00000KT 10SM OVC110 15/09 A3021 RMK AO2 SLP228 T01500089
KMJQ 230654Z AUTO 00000KT 10SM OVC100 13/07 A3022 RMK AO2
KMJX 230655Z AUTO 33007KT 10SM CLR A3024 RMK AO1
KMKC 230654Z AUTO 13005KT 10SM FEW060 OVC090 17/10 A3019 RMK AO2 SLP221 T01720100
KMKE 230652Z 19006KT 10SM BKN250 10/M01 A3028 RMK AO2 SLP257 T01001011
KMKG 230655Z AUTO 12005KT 10SM CLR 07/01 A3029 RMK AO2 SLP259 T00670011
KMKJ 230655Z AUTO 00000KT 10SM CLR 06/05 A3039 RMK AO2 T00640051
KMKL 230653Z AUTO 00000KT 10SM CLR 12/11 A3024 RMK AO2 SLP239 T01170106
KMKN 230655Z AUTO 14004KT 4SM BR OVC007 21/21 A3008 RMK AO2 T02100210
KMKO 230653Z AUTO 13006KT 10SM FEW024 SCT033 OVC046 15/14 A3018 RMK AO2 RAE32 SLP217 P0004 T01500139
KMKS 230655Z AUTO 00000KT 10SM CLR 15/14 A3026 RMK AO2
KMKT 230655Z AUTO 30007KT 10SM CLR 14/04 A3022 RMK AO1
KMKY 230655Z AUTO 05005KT 10SM CLR 22/19 A3011 RMK AO1
KMLB 230653Z AUTO 03007KT 10SM CLR 25/22 A3014 RMK AO2 SLP207 T02500217
KMLC 230653Z AUTO 09003KT 10SM OVC030 16/15 A3015 RMK AO2 SLP206 T01610150
KMLE 230655Z AUTO 13004KT 10SM OVC060 15/10 A3019 RMK AO2 T01520101
KMLF 230652Z AUTO 22008KT 10SM FEW047 07/04 A2996 RMK AO2 SLP109 T00720044 401940072
KMLI 230652Z 09006KT 10SM SCT120 14/09 A3023 RMK AO2 SLP234 T01390089
KMLJ 230655Z AUTO 00000KT 10SM CLR 18/13 A3025 RMK AO2
KMLP 230653Z AUTO 00000KT 10SM CLR 12/M01 A3003 RMK AO2 SLP080 T01171011
KMLS 230653Z AUTO 13013KT 10SM CLR 13/05 A3000 RMK AO2 SLP149 T01330050 402220067
KMLT 230653Z AUTO 30011G19KT 10SM OVC031 05/M01 A2997 RMK AO2 SLP155 T00501006
KMLU 230653Z AUTO 00000KT 10SM CLR 17/16 A3018 RMK AO2 SLP217 T01670156
KMMH 230655Z AUTO 00000KT 10SM BKN037 OVC043 04/04 A3010 RMK AO1
KMMK 230653Z AUTO 35005KT 10SM CLR 07/01 A3020 RMK AO2 SLP226 T00670011 TSNO $
KMML 230655Z AUTO 00000KT 10SM CLR 13/05 A3020 RMK AO1
KMMT 230658Z AUTO 00000KT 10SM CLR 12/09 A3028 RMK AO2 SLP255 T01210090
KMMU 230655Z AUTO 31003KT 10SM CLR 11/M05 A3026 RMK AO2
KMMV 230653Z AUTO 23004KT 10SM SCT041 OVC095 12/09 A3012 RMK AO2 SLP198 T01170094
KMNE 230655Z AUTO 00000KT 10SM CLR 18/14 A3016 RMK AO2 T01750138
KMNI 230655Z AUTO 00000KT 7SM CLR 12/08 A3028 RMK AO2
KMNM 230655Z AUTO 21004KT 10SM CLR 07/M01 A3026 RMK AO1
KMNN 230653Z AUTO 15005KT 10SM CLR 09/02 A3031 RMK AO2 SLP265 T00890017 TSNO
KMNZ 230655Z AUTO 15015G18KT 5SM BR OVC006 22/22 A3009 RMK AO2 T02200220
KMOB 230656Z AUTO 06005KT 10SM BKN048 19/14 A3019 RMK AO2 SLP219 T01940144
KMOD 230653Z AUTO 01005KT 10SM BKN090 16/09 A3002 RMK AO2 SLP165 T01560089
KMOP 230656Z AUTO 00000KT 5SM BR CLR 03/02 A3030 RMK AO2 T00270018
KMOR 230655Z AUTO 07005KT 10SM CLR 12/09 A3031 RMK
KMOT 230654Z AUTO 22005KT 10SM BKN100 16/04 A3010 RMK AO2 SLP189 T01560044
KMOX 230654Z AUTO 25006KT 10SM CLR 12/07 A3019 RMK AO2
KMPO 230653Z AUTO 30008KT 10SM CLR 04/M04 A3023 RMK AO2 SLP245 T00441044
KMPV 230651Z AUTO 32003KT 10SM SCT070 01/M07 A3021 RMK AO2 SLP239 T00111072
KMPZ 230655Z AUTO 00000KT 10SM OVC110 13/11 A3023 RMK AO2 T01320110
KMQB 230655Z AUTO 00000KT 10SM SCT120 15/13 A3025 RMK AO2 T01470126
KMQE 230654Z AUTO 32016G26KT 07/M01 A3012 RMK AO1 PK WND 31026/0654 SLP210 T00721006
KMQI 230655Z AUTO 26005KT 10SM CLR 18/13 A3027 RMK AO2 T01750134
KMQJ 230657Z AUTO 03005KT 10SM CLR 10/05 A3030 RMK AO1
KMQS 230655Z AUTO 32012KT 10SM CLR 12/M01 A3028 RMK AO2
KMQY 230656Z AUTO 00000KT 10SM CLR 11/10 A3029 RMK AO2 T01050100 SLP264
KMRB 230653Z AUTO 30006KT 10SM CLR 11/M04 A3034 RMK AO2 SLP272 T01061044 TSNO
KMRC 230655Z AUTO 00000KT 7SM CLR 09/09 A3025 RMK
KMRF 230655Z AUTO 15013KT 10SM CLR 18/15 A3010 RMK AO1
KMRH 230658Z AUTO 00000KT 10SM CLR 13/12 A3028 RMK AO2 SLP253 T01330122 TSNO
KMRJ 230655Z AUTO 13008KT 10SM CLR 12/02 A3026 RMK AO2
KMRN 230655Z AUTO 30003KT 10SM CLR 08/07 A3036 RMK AO2 T00790065
KMRT 230654Z AUTO 00000KT 10SM CLR 08/05 A3031 RMK AO2 T00810047
KMRY 230654Z AUTO 25004KT 10SM OVC021 14/10 A3011 RMK AO2 SLP207 T01390100
KMSL 230653Z AUTO 00000KT 10SM CLR 12/10 A3026 RMK AO2 SLP242 T01220100 $
KMSN 230653Z 17010KT 10SM CLR 12/M01 A3027 RMK AO2 SLP251 T01221006
KMSO 230653Z 14007KT 10SM OVC100 17/02 A2993 RMK AO2 SLP118 T01720017 402560050
KMSP 230653Z 12004KT 10SM FEW300 15/03 A3020 RMK AO2 SLP226 T01500033
KMSS 230653Z AUTO 22005KT 10SM CLR M01/M04 A3028 RMK AO2 SLP257 T10111044
KMSV 230655Z AUTO 31005KT 10SM CLR 04/M04 A3023 RMK AO1
KMSY 230653Z 13003KT 10SM FEW015 23/19 A3015 RMK AO2 SLP211 T02280194
KMTC 230658Z AUTO 33001KT 10SM CLR 04/M02 A3031 RMK AO2 SLP270 T00371019
KMTH 230653Z AUTO 09005KT 10SM FEW023 28/23 A3010 RMK AO2 SLP193 T02780233
KMTJ 230653Z AUTO 17009G18KT 10SM SCT110 11/02 A3002 RMK AO2 SLP106 T01110022 402110072
KMTN 230703Z AUTO 30004KT 10SM CLR 11/00 A3031 RMK AO2
KMTO 230653Z AUTO 14004KT 10SM FEW120 14/11 A3024 RMK AO2 SLP238 T01440111
KMTP 230654Z AUTO 31008KT 12/03 A3017 RMK AO1 SLP217 T01220028
KMTV 230655Z AUTO 00000KT 10SM CLR 08/08 A3035 RMK AO2 T00770077
KMTW 230656Z AUTO 00000KT 10SM CLR 08/M02 A3028 RMK AO2 SLP015 T00831017
KMUI 230658Z AUTO VRB03KT 10SM CLR 09/M02 A3029 RMK AO2 SLP260 T00891018 $
KMUO 230658Z AUTO 32007KT 10SM CLR 14/09 A2986 RMK AO2 SLP097 T01430094 402180089 $
KMUT 230655Z AUTO 00000KT 10SM BKN110 18/11 A3023 RMK AO2
KMVE 230654Z AUTO 00000KT 10SM CLR 12/06 A3021 RMK AO2
KMVH 230655Z AUTO 00000KT 10SM SCT049 BKN060 OVC110 10/09 A3002 RMK AO2
KMVL 230654Z AUTO 31008G15KT 10SM CLR 04/M07 A3019 RMK AO2 SLP229 T00391067 TSNO
KMVN 230655Z AUTO 00000KT 10SM FEW120 13/11 A3027 RMK AO1
KMVY 230653Z AUTO 30013G19KT 10SM CLR 12/M02 A3012 RMK AO2 SLP199 T01221022
KMWA 230655Z AUTO 00000KT 10SM CLR 15/14 A3027 RMK AO2
KMWC 230655Z AUTO 00000KT 10SM CLR 07/M01 A3029 RMK AO2
KMWH 230652Z AUTO 27011KT 10SM OVC100 18/11 A2987 RMK AO2 SLP109 T01830111
KMWK 230655Z AUTO 00000KT CLR 11/07 A3034 RMK AO2 T01100069 PWINO
KMWL 230653Z AUTO 13006KT 6SM BR OVC010 20/19 A3006 RMK AO2 CIG 006V012 SLP171 T02000194
KMWM 230655Z AUTO 00000KT 10SM BKN110 12/06 A3022 RMK AO2
KMWN 230648Z 31049G59KT 1/16SM FZFG DRSN VV001 M12/M12 RMK VRY LGT ICG
KMWO 230655Z AUTO 01004KT 10SM CLR 10/07 A3031 RMK AO2 T00960074
KMWT 230653Z AUTO 00000KT 9SM -RA FEW046 BKN065 OVC075 16/14 A3019 RMK AO2 RAB49 SLP216 P0000 T01560144
KMXF 230658Z AUTO 00000KT 10SM CLR 16/14 A3020 RMK AO2 SLP228 T01630141
KMXO 230655Z AUTO 27007KT 10SM FEW120 13/11 A3023 RMK AO2
KMYF 230653Z AUTO 00000KT 10SM FEW018 SCT034 15/11 A3009 RMK AO2 SLP185 T01500111 TSNO
KMYL 230711Z AUTO 00000KT 1 1/2SM BR CLR 08/07 A2994 RMK AO2 VIS 1/2V5 T00780067
KMYP 230648Z AUTO M1/4SM -SN OVC002 M01/M02 A3032 RMK AO2 VIS M1/4V1 1/2
KMYR 230655Z AUTO 00000KT 10SM CLR 16/13 A3029 RMK AO1
KMYV 230653Z AUTO 15011KT 10SM BKN110 16/10 A2999 RMK AO2 SLP160 T01560100
KMYZ 230655Z AUTO 15004KT 10SM OVC035 14/09 A3017 RMK AO2
KMZG 230655Z AUTO 12018KT 10SM CLR 27/24 A3004 RMK A01
KMZH 230656Z AUTO 00000KT 10SM CLR 06/03 A3018 RMK AO2
KMZZ 230655Z AUTO 00000KT 10SM CLR 11/03 A3032 RMK AO2 T01120033
KN03 230655Z AUTO 00000KT 10SM CLR 02/M01 A3029 RMK AO2
KN38 230655Z AUTO 31006KT 10SM CLR 03/M04 A3033 RMK AO2
KN60 230652Z AUTO 00000KT 12/04 A3012 RMK AO1 SLP196 T01170044
KNAK 230654Z AUTO 30008KT 10SM CLR 16/01 A3029 RMK AO2 SLP257 T01560006
KNBC 230656Z AUTO 03005KT 10SM CLR 18/17 A3024 RMK AO2 SLP242 T01830172
KNBG 230655Z AUTO 00000KT 10SM CLR 21/19 A3014 RMK AO2 SLP206 T02060189 $
KNBT 230656Z AUTO 19005KT 10SM CLR A3027 RMK AO2 SLP256 PNO $
KNCA 230656Z AUTO 00000KT 9SM CLR 12/11 A3027 RMK AO2 SLP254 T01220111
KNDZ 230656Z AUTO A3018 RMK AO2 SLPNO PWINO $
KNEL 230700Z AUTO 10SM CLR 11/03 A3025 RMK AO2 SLP241 T01060033 PWINO $
KNEW 230653Z AUTO 15005KT 10SM CLR 25/20 A3015 RMK AO2 SLP204 T02500200 TSNO
KNFE 230656Z AUTO 00000KT 10SM CLR 16/09 A3025 RMK AO2 SLP247 T01560089
KNFG 230654Z AUTO 9SM BKN036 OVC045 16/12 A3007 RMK AO2 RAE0556 SLP182 P0000 T01560122
KNFL 230656Z AUTO 24006KT 10SM SCT044 OVC090 12/09 A2999 RMK AO2 SLP125 T01220089
KNFW 230652Z AUTO 11003KT 7SM FEW014 OVC024 21/20 A3008 RMK AO2 SLP168 T02110200 $
KNGP 230656Z AUTO 15009KT 10SM FEW015 A3004 RMK AO2 SLP173 $
KNGU 230659Z 24005KT 10SM CLR 18/08 A3027 RMK AO2 SLP248 T01830083
KNHK 230652Z AUTO 33009KT 10SM SCT075 17/03 A3027 RMK AO2 SLP250 T01670028
KNID 230656Z AUTO 16005KT 10SM SCT090 16/03 A2992 RMK AO2 SLP124 T01560033 $
KNIP 230653Z 04007KT 10SM FEW014 24/19 A3020 RMK AO2 SLP221 T02440189
KNJK 230656Z AUTO 25017KT 10SM CLR 18/06 A2997 RMK AO2 SLP163 T01830061 $
KNKT 230654Z 00000KT 10SM CLR 13/11 A3029 RMK AO2 SLP253 T01280111 $
KNKX 230655Z 00000KT 10SM BKN025 16/11 A3008 RMK AO2 SLP181 T01560111
KNLC 230656Z AUTO 16004KT 10SM CLR 18/09 A3002 RMK AO2 SLP167 T01780089
KNMM 230656Z AUTO 00000KT 10SM CLR 13/12 A3021 RMK AO2 SLP238 T01330122
KNOG 230656Z AUTO 14005KT 6SM BR BKN019 BKN025 25/24 A3005 RMK AO2 SLP155 T02500239 TSNO $
KNPA 230656Z AUTO 02006KT 10SM CLR 22/14 A3016 RMK AO2 SLP214 T02170144 $
KNQA 230650Z 00000KT 10SM FEW120 16/13 A3023
KNQI 230656Z AUTO 14006KT 10SM FEW016 FEW030 26/26 A3003 RMK AO2 SLP166 T02610256 TSNO $
KNQX 230653Z AUTO 06005KT 10SM CLR 27/23 A3010 RMK AO2 SLP190 T02720233 $
KNRB 230652Z AUTO 04013KT 10SM CLR 23/18 A3019 RMK AO2 SLP222 T02330178 PWINO $
KNRS 230656Z AUTO 26006KT 10SM SCT019 SCT025 BKN050 17/12 A3009 RMK AO2 SLP189 T01670122 PNO $
KNSE 230656Z AUTO 03004KT 10SM CLR 19/12 A3018 RMK AO2 SLP204 T01890122 $
KNSI 230705Z AUTO 29012KT 10SM SCT009 A3009 RMK AO2 $
KNTD 230656Z AUTO 25005KT 9SM FEW110 16/12 A3006 RMK AO2 SLP181 T01560117 $
KNTU 230656Z 23005KT 10SM CLR 14/08 A3024 RMK AO2 SLP244 T01440083
KNUI 230653Z AUTO 00000KT 10SM SCT085 17/08 A3027 RMK AO2 SLP249 T01670078
KNUQ 230656Z AUTO 25006KT 10SM OVC024 14/10 A3009 RMK AO2 SLP192 T01390100 TSNO
KNUW 230656Z 18004KT 10SM FEW012 BKN016 OVC030 13/12 A3011 RMK AO2 SLP194 T01330117 $
KNXF 230656Z AUTO 08006KT 9SM FEW017 SCT023 BKN042 A3007 RMK AO2 SLPNO $
KNXP 230656Z AUTO 32013KT 10SM BKN120 17/04 A3002 RMK AO2 SLP138 T01720044
KNY0 230655Z AUTO 30003KT 10SM CLR 01/M03 A3024 RMK AO2 T00121030
KNYC 230651Z AUTO VRB06KT 10SM CLR 12/M05 A3026 RMK AO2 SLP238 T01221050
KNYG 230656Z AUTO 36014G20KT 10SM BKN075 17/M01 A3032 RMK AO2 SLP267 T01671011
KNYL 230657Z AUTO 28005KT 10SM CLR 18/07 A2995 RMK AO2 SLP140 T01830072 402720167
KNZY 230652Z AUTO 28005KT 10SM BKN034 16/12 A3007 RMK AO2 SLP182 T01610117 $
KO22 230655Z AUTO 10SM SCT060 OVC080 13/10 A3003 RMK AO1
KO54 230655Z AUTO 00000KT 10SM SCT014 09/09 A3004 RMK AO1
KO69 230655Z AUTO 25004KT 10SM OVC011 12/10 A3006 RMK AO1
KO86 230655Z AUTO 27004KT 10SM CLR 10/09 A3005 RMK AO1
KOAJ 230655Z AUTO 00000KT 10SM CLR 10/07 A3029 RMK AO1
KOAK 230653Z 26011KT 10SM OVC015 13/10 A3007 RMK AO2 SLP184 T01330100
KOBE 230655Z AUTO 00000KT 10SM CLR 21/20 A3014 RMK AO2
KOCF 230655Z AUTO 05004KT 10SM CLR 22/19 A3017 RMK AO1
KOCH 230655Z AUTO 11005KT 19/18 A3012 RMK AO1
KOCQ 230655Z AUTO 00000KT 10SM CLR 03/01 A3026 RMK AO1 T00270013
KOCW 230655Z AUTO 00000KT 10SM CLR 13/11 A3028 RMK AO2 T01250110
KODO 230653Z AUTO 17017G26KT 10SM OVC017 21/18 A2999 RMK AO2 PK WND 17026/0649 SLP116 T02110178
KODX 230653Z AUTO 13006KT 4SM BR OVC006 11/10 A3013 RMK AO2 RAB14E36 SLP208 P0000 T01060100
KOEB 230654Z AUTO 06003KT 10SM CLR 08/01 A3031 RMK AO2 T00750014
KOEO 230655Z AUTO 00000KT 10SM CLR 07/05 A3024 RMK AO2 T00680051
KOFF 230658Z AUTO 12003KT 10SM OVC065 14/10 A3019 RMK AO2 SLP225 T01410103 $
KOFK 230656Z AUTO 13005KT 10SM OVC044 12/11 A3017 RMK AO2 SLP213 T01220106
KOFP 230654Z AUTO 00000KT 10SM CLR 09/08 A3030 RMK AO2 SLP260 T00940083
KOGA 230655Z AUTO 11003KT 1 1/2SM BR OVC003 10/10 A3007 RMK AO2 T00960095 401070080
KOGB 230653Z AUTO 00000KT 10SM CLR 14/12 A3027 RMK AO2 SLP248 T01440122
KOGD 230653Z AUTO 18003KT 10SM OVC100 12/07 A2990 RMK AO2 SLP090 T01170067 401780094 TSNO
KOJA 230655Z AUTO 12005KT 2 1/2SM BR OVC003 12/12 A3012 RMK AO2
KOJC 230653Z AUTO 15007KT 10SM OVC049 16/11 A3019 RMK AO2 SLP218 T01560111
KOKB 230652Z AUTO 00000KT 10SM FEW035 OVC047 16/13 A3006 RMK AO2 SLP180 T01560133
KOKC 230652Z 13007KT 8SM OVC005 14/13 A3013 RMK AO2 RAE00DZB02E49 SLP197 P0001 T01440133
KOKK 230655Z AUTO 15003KT 10SM CLR 11/04 A3031 RMK AO1
KOKM 230635Z AUTO A3016 RMK AO2 PWINO PNO TSNO
KOKV 230655Z AUTO 00000KT 10SM CLR 10/M02 A3034 RMK AO2
KOKZ 230655Z AUTO 13004KT 10SM CLR 17/12 A3025 RMK AO2 T01650120
KOLE 230655Z AUTO 25003KT 10SM CLR 00/M04 A3032 RMK AO2
KOLF 230653Z AUTO 06009KT 10SM CLR 14/06 A3004 RMK AO2 SLP168 T01390056 402500033
KOLG 230655Z AUTO 00000KT 10SM CLR 05/03 A3020 RMK AO1
KOLM 230654Z AUTO 20005KT 10SM BKN020 OVC025 12/09 A3009 RMK AO2 SLP189 T01170089
KOLS 230654Z AUTO 24003KT 10SM CLR 13/02 A3004 RMK AO2 SLP120 T01330017 402670078
KOLU 230655Z AUTO 16005KT 10SM BKN046 OVC050 13/06 A3021 RMK AO1
KOLV 230655Z AUTO 09004KT 10SM CLR 15/12 A3023 RMK A01 P000
KOLY 230655Z AUTO 00000KT 10SM CLR 14/12 A3027 RMK AO2
KOLZ 230655Z AUTO 18004KT 10SM BKN150 BKN170 13/07 A3023 RMK AO2
KOMA 230652Z 15009KT 10SM OVC070 16/09 A3019 RMK AO2 SLP220 T01560094 $
KOMH 230655Z AUTO 33007G14KT 10SM CLR 15/08 A3032 RMK AO2
KOMK 230653Z AUTO 30007KT 10SM CLR 15/08 A2986 RMK AO2 SLP103 T01500078
KONA 230653Z AUTO 00000KT 10SM CLR 09/08 A3023 RMK AO2
KONL 230655Z AUTO 11005KT 10SM BKN030 OVC035 11/10 A3016 RMK AO2 T01100102
KONM 230655Z AUTO 00000KT 10SM CLR 12/02 A2994 RMK AO2 T01230022
KONO 230653Z AUTO 31004KT 10SM OVC100 15/12 A2989 RMK AO2 RAE00 SLP114 P0000 T01500122 402500106
KONP 230655Z AUTO 21005KT 2SM -DZ OVC003 11/10 A3017 RMK AO2
KONT 230653Z 24004KT 10SM BKN032 OVC043 14/11 A3006 RMK AO2 RAE14 SLP176 P0000 T01390111
KONX 230655Z AUTO 00000KT 10SM CLR 15/13 A3027 RMK AO2 T01480125
KONZ 230655Z AUTO 07004KT 10SM CLR 08/00 A3033 RMK AO2
KOOA 230655Z AUTO 00000KT 10SM BKN110 14/10 A3024 RMK AO2 T01360101
KOPF 230653Z AUTO 07003KT 10SM CLR 23/21 A3012 RMK AO2 SLP200 T02330206
KOPL 230655Z AUTO 04003KT 10SM BKN037 A3014 RMK AO2
KOPN 230655Z AUTO 10004KT 10SM CLR 20/13 A3026 RMK AO2
KOQT 230653Z AUTO 06003KT 10SM CLR 11/08 A3031 RMK AO2 SLP259 T01110083
KORB 230641Z AUTO 20000KT 10SM CLR 13/01 A3012 RMK AO2
KORC 230655Z AUTO 12003KT 10SM OVC075 13/08 A3020 RMK AO2
KORD 230651Z 14004KT 10SM BKN200 10/00 A3028 RMK AO2 SLP255 T01000000
KORE 230652Z AUTO 34012KT 10SM CLR 06/M02 A3018 RMK AO2 SLP220 T00611022
KORF 230651Z AUTO 24007KT 10SM CLR 17/07 A3024 RMK AO2 SLP241 T01670072 TSNO
KORG 230655Z AUTO 07006KT 7SM CLR 22/20 A3013 RMK AO2 T02150198
KORH 230654Z AUTO 35011G21KT 10SM FEW039 SCT050 07/M01 A3015 RMK AO2 SLP210 T00671006
KORL 230653Z AUTO 03004KT 10SM CLR 24/21 A3016 RMK AO2 SLP215 T02440206
KORS 230715Z AUTO 18008G14KT 030V040 10SM CLR 13/10 A3003 RMK AO2
KOSA 230655Z AUTO 09004KT 10SM BKN026 BKN036 OVC090 19/16 A3015 RMK AO1 T01920160
KOSC 230654Z AUTO 22005KT 10SM CLR 01/M01 A3032 RMK AO2 T00171008
KOSH 230653Z AUTO 20005KT 10SM CLR 08/M01 A3026 RMK AO2 SLP246 T00781006
KOSU 230653Z AUTO 07003KT 10SM CLR 09/02 A3031 RMK AO2 SLP261 T00890017
KOTG 230655Z AUTO 00000KT 10SM OVC100 12/05 A3022 RMK AO1
KOTH 230655Z 36003KT 10SM OVC024 12/11 A3017 RMK AO1
KOTM 230653Z AUTO 00000KT 10SM CLR 11/09 A3023 RMK AO2 SLP233 T01060094
KOUN 230655Z AUTO 13006KT 10SM OVC006 13/13 A3014 RMK AO2
KOVE 230653Z AUTO 16011KT 10SM SCT070 17/11 A3000 RMK AO2 SLP159 T01720111
KOVL 230653Z AUTO 29003KT 10SM CLR 10/05 A3021 RMK AO2
KOVS 230653Z AUTO 02004KT 10SM CLR 10/07 A3025 RMK AO2 SLP245 T01000072
KOWA 230655Z AUTO 15003KT 10SM CLR 14/03 A3022 RMK AO2
KOWB 230656Z AUTO 00000KT 10SM CLR 16/13 A3028 RMK AO2 T01550127 SLP251
KOWD 230653Z AUTO 32005KT 10SM CLR 09/00 A3015 RMK AO2 SLP209 T00890000
KOWP 230655Z AUTO 13005KT 5SM RA OVC007 16/14 A3017 RMK AO2 T01580142
KOXB 230653Z AUTO 35010KT 10SM CLR 16/06 A3025 RMK AO2 SLP242 T01560061 TSNO
KOXC 230655Z 34010KT 10SM CLR 08/M03 A3021 RMK AO1
KOXI 230655Z AUTO 00000KT 10SM CLR 10/02 A3030 RMK AO1
KOXR 230651Z AUTO 28003KT 10SM BKN017 15/12 A3005 RMK AO2 SLP175 T01500117
KOXV 230655Z AUTO 21004KT 10SM OVC100 14/09 A3021 RMK AO2
KOZA 230655Z AUTO 16012G23KT 10SM SCT012 SCT020 22/20 A3005 RMK AO2 LTG DSNT SE
KOZR 230658Z AUTO 33002KT 10SM CLR 16/13 A3019 RMK AO2 SLP224 T01630132
KOZS 230655Z AUTO 12005KT 10SM OVC070 15/10 A3025 RMK AO2
KOZW 230655Z AUTO 15003KT 10SM CLR 05/M02 A3032 RMK AO2 T00461025
KP08 230655Z AUTO 21004KT 10SM CLR 17/03 A2996 RMK AO2
KP28 230656Z AUTO 14006KT 12/12 A3013 RMK AO1 SLP202 P0001 T01220122
KP53 230656Z AUTO 20009KT 09/M05 A3022 RMK AO1 SLP237 T00891050
KP58 230651Z AUTO 22007KT 03/M04 A3032 RMK AO1 SLP274 T00331044
KP59 230651Z AUTO 25013G22KT 10/M02 A3012 RMK AO1 SLP203 T01001017
KP60 230656Z AUTO 00000KT 03/02 A3004 RMK AO1 SLP131 T00280022 401280000
KP68 230653Z AUTO 06003KT 09/05 A2999 RMK AO1 SLP110 T00890050
KP69 230652Z AUTO 00000KT 14/12 A2990 RMK AO1 SLP106 T01440117
KP92 230653Z AUTO 00000KT 23/22 A3012 RMK AO1 SLP198 T02280217
KPAE 230709Z AUTO 20008KT 10SM BKN012 12/09 A3008 RMK AO2 T01220089
KPAH 230653Z AUTO 10003KT 10SM CLR 14/12 A3025 RMK AO2 SLP239 T01440122
KPAM 230658Z AUTO 07003KT 10SM CLR 21/15 A3016 RMK AO2 SLP216 T02070146 $
KPAN 230655Z AUTO 25004KT 10SM CLR 10/M01 A3006 RMK AO2
KPAO 230347Z 30015KT 10SM BKN025 15/10 A3007 RMK LAST OBSERVATION
KPBF 230653Z AUTO 08003KT 10SM CLR 17/13 A3019 RMK AO2 SLP221 T01670133
KPBG 230653Z AUTO 24004KT 10SM CLR 02/M07 A3022 RMK AO2 SLP234 T00171067
KPBH 230655Z AUTO 00000KT 10SM CLR 04/03 A3023 RMK AO2 T00400026
KPBI 230653Z 23003KT 10SM FEW010 SCT024 BKN030 25/23 A3013 RMK AO2 SLP201 T02500228 $
KPBX 230655Z AUTO 17005KT 10SM CLR 12/08 A3032 RMK AO2 T01200075
KPCM 230655Z AUTO 06005KT 10SM CLR 23/22 A3016 RMK AO2
KPCW 230650Z AUTO 00000KT 10SM CLR 09/04 A3031 RMK AO2 T00940044 $
KPCZ 230655Z AUTO 19003KT 10SM CLR 09/01 A3026 RMK AO2 T00920009
KPDC 230655Z AUTO 11003KT 10SM CLR 11/07 A3023 RMK AO2 T01100070
KPDK 230653Z 00000KT 8SM CLR 14/12 A3026 RMK AO2 SLP240 T01390117
KPDT 230653Z AUTO 24008KT 10SM -RA FEW037 BKN090 OVC110 13/11 A2992 RMK AO2 RAB11 SLP122 P0003 T01280106
KPDX 230653Z 01005KT 10SM OVC029 14/09 A3011 RMK AO2 SLP194 T01390094
KPEA 230655Z AUTO 00000KT 10SM SCT110 13/11 A3024 RMK AO2 T01310110
KPEO 230653Z AUTO 00000KT 10SM CLR 04/M02 A3032 RMK AO2 SLP270 T00391022
KPEQ 230655Z AUTO 11008KT 10SM CLR 21/18 A2991 RMK AO2 LTG DSNT E T02050180
KPEX 230653Z AUTO 16003KT 10SM CLR 12/03 A3021 RMK AO2 T01220032
KPEZ 230655Z AUTO 13007KT 10SM SCT009 BKN017 OVC032 25/23 A3005 RMK AO2 T02460227
KPGA 230653Z AUTO 32007KT 10SM FEW090 11/03 A2997 RMK AO2 SLP107 T01060033 402330106 TSNO
KPGD 230653Z AUTO 08006KT 9SM CLR 21/21 A3014 RMK AO2 SLP206 T02110206
KPGV 230655Z AUTO 00000KT 7SM CLR 12/12 A3029 RMK AO2
KPHD 230653Z AUTO 00000KT 10SM CLR 06/03 A3034 RMK AO2 SLP275 T00610033
KPHF 230654Z 27005KT 10SM CLR 18/09 A3026 RMK AO2 SLP246 T01780089
KPHL 230654Z 31011KT 10SM FEW250 15/M01 A3027 RMK AO2 SLP249 T01501011
KPHN 230656Z AUTO 00000KT 7SM CLR M01/M01 A3034 RMK AO2
KPHP 230655Z AUTO 14006KT 10SM BKN024 BKN031 OVC070 10/07 A3010 RMK AO2 SLP186 T01000067 402000050
KPHT 230655Z AUTO 00000KT 10SM CLR 13/11 A3026 RMK
KPHX 230651Z 26006KT 10SM CLR 22/02 A2992 RMK AO2 SLP116 T02170022 402780189 $
KPIA 230654Z 06005KT 10SM CLR 16/08 A3025 RMK AO2 SLP238 T01610083
KPIB 230655Z AUTO 03003KT 10SM CLR 17/13 A3020 RMK AO1
KPIE 230653Z AUTO 10006KT 10SM CLR 24/22 A3013 RMK AO2 SLP201 T02390217 $
KPIH 230653Z AUTO 17004KT 10SM FEW050 BKN100 13/09 A2990 RMK AO2 SLP099 T01280089 401940089
KPIL 230653Z AUTO 12010KT 7SM FEW014 FEW027 27/24 A3002 RMK AO2 SLP163 T02670244
KPIR 230653Z AUTO 15007KT 10SM OVC090 09/06 A3013 RMK AO2 SLP200 T00940056
KPIT 230651Z 00000KT 10SM FEW250 06/01 A3034 RMK AO2 SLP281 T00610006
KPKB 230653Z AUTO 08004KT 10SM CLR 11/05 A3035 RMK AO2 SLP274 T01110050
KPKD 230653Z AUTO 00000KT 10SM CLR 11/04 A3018 RMK AO2 SLP220 T01060044
KPKV 230701Z AUTO 12008KT 10SM CLR 25/24 A3005 RMK AO2
KPLN 230654Z AUTO 00000KT 10SM CLR M03/M04 A3029 RMK AO2 SLP262 T10281039
KPLU 230655Z AUTO 00000KT 10SM SCT012 OVC022 12/11 A3010 RMK AO2
KPMD 230653Z AUTO 23017KT 10SM CLR 12/06 A3002 RMK AO2 SLP154 T01220061
KPMP 230653Z AUTO 00000KT 5SM HZ CLR 24/21 A3012 RMK AO2 SLP201 T02390211
KPMV 230655Z AUTO 14007KT 10SM OVC065 15/09 A3019 RMK AO2 T01450090
KPNA 230655Z AUTO 17003KT 10SM RA SCT007 SCT013 OVC022 05/05 A3001 RMK AO2
KPNC 230653Z AUTO 14007KT 4SM BR OVC006 14/13 A3016 RMK AO2 CIG 005V008 SLP207 T01390133
KPNE 230654Z 34011KT 10SM CLR 13/01 A3028 RMK AO2 SLP254 T01280006
KPNM 230654Z AUTO 00000KT 10SM CLR 08/06 A3020 RMK AO2
KPNS 230653Z AUTO 03005KT 10SM CLR 21/14 A3017 RMK AO2 SLP216 T02110139
KPNT 230655Z AUTO 09006KT 10SM CLR 14/05 A3027 RMK AO2 T01370048
KPOB 230658Z AUTO 25003KT 10SM CLR 11/10 A3029 RMK AO2 SLP260 T01130101
KPOC 230347Z 00000KT 8SM OVC022 13/10 A3009 RMK LAST
KPOE 230658Z AUTO 09005KT 10SM CLR 20/18 A3013 RMK AO2 SLP203 T01960181
KPOF 230653Z AUTO 00000KT 10SM BKN100 BKN120 15/13 A3024 RMK AO2 SLP238 T01500133
KPOU 230653Z 01009KT 10SM CLR 09/M03 A3022 RMK AO2 SLP229 T00941033
KPOV 230658Z AUTO 00000KT 10SM CLR 04/M02 A3034 RMK AO2 T00361016
KPOY 230655Z AUTO 31004KT 10SM DZ SCT046 OVC050 08/07 A2995 RMK AO2
KPPA 230655Z AUTO 15014KT 1SM -DZ OVC002 13/12 A3005 RMK AO2 T01250121
KPPF 230652Z AUTO 00000KT 10SM OVC026 16/12 A3019 RMK AO2 SLP217 T01610122
KPPO 230655Z AUTO 00000KT 10SM CLR 11/04 A3031 RMK AO2 T01050043
KPPQ 230655Z AUTO 00000KT 10SM OVC110 15/11 A3026 RMK AO2 T01510107
KPQI 230655Z AUTO 31006KT 10SM FEW039 SCT050 OVC070 03/M01 A2990 RMK AO1
KPQL 230653Z AUTO 06004KT 10SM SCT050 21/16 A3017 RMK AO2 SLP217 T02060161 TSNO
KPQN 230641Z AUTO 31000KT 10SM OVC100 13/06 A3021 RMK AO2
KPRB 230653Z AUTO VRB05KT 10SM CLR 13/09 A3008 RMK AO2 SLP182 T01280089 TSNO
KPRC 230653Z AUTO 00000KT 10SM FEW055 FEW085 09/01 A3003 RMK AO2 SLP120 T00940011 401720078
KPRG 230655Z AUTO 18003KT 10SM SCT095 BKN120 16/11 A3028 RMK AO2 T01630112
KPRN 230656Z AUTO 00000KT 10SM CLR 14/12 A3020 RMK AO2 SLP221 T01440122
KPRO 230655Z AUTO 13004KT 10SM SCT090 OVC120 13/10 A3021 RMK AO2 T01330100
KPRS 230655Z AUTO 10006G17KT 10SM BKN120 27/12 A2994 RMK AO2 T02710120
KPRX 230655Z 11006KT 10SM OVC029 18/14 A3014 RMK AO1
KPSC 230653Z AUTO 20009KT 10SM CLR 17/13 A2986 RMK AO2 SLP110 T01670128
KPSF 230654Z AUTO 31007KT 10SM CLR 04/M03 A3017 RMK AO2 SLP209 T00391028
KPSK 230655Z AUTO 00000KT 10SM CLR 09/07 A3036 RMK AO2 T00900073
KPSM 230658Z 31014KT 10SM CLR 08/M03 A3012 RMK AO2A SLP202 T00771028
KPSN 230655Z AUTO 10007KT 5SM BR CLR 20/19 A3011 RMK AO2 T02070195
KPSO 230655Z AUTO 00000KT 10SM SCT080 BKN100 BKN120 07/03 A3007 RMK AO2 T00660032
KPSP 230653Z AUTO 31011G18KT 10SM CLR 20/07 A2995 RMK AO2 SLP140 T02000072 TSNO
KPSX 230653Z AUTO 12010KT 10SM CLR 26/24 A3005 RMK AO2 SLP176 T02560239
KPTB 230655Z AUTO 00000KT 10SM CLR 09/08 A3028 RMK AO2 T00930082
KPTK 230653Z AUTO 00000KT 10SM CLR 04/M03 A3032 RMK AO2 SLP269 T00391033
KPTN 230135Z AUTO 00000KT 10SM FEW023 SCT031 BKN043 25/21 A3015 RMK AO1
KPTS 230655Z AUTO 15005KT 10SM BKN028 BKN075 OVC100 16/11 A3018 RMK AO2 T01610111
KPTT 230655Z AUTO 15007KT 2 1/2SM BR OVC004 11/11 A3014 RMK AO2
KPTW 230654Z AUTO 01005KT 10SM CLR 12/M02 A3029 RMK AO2 SLP253 T01171022
KPUB 230653Z AUTO 36020G26KT 10SM CLR 12/08 A2996 RMK AO2 PK WND 36026/0648 LTG DSNT NW RAB06E34 SLP107 P0000 T01170083 402220083
KPUC 230653Z AUTO 32004KT 10SM BKN100 09/04 A2996 RMK AO2 RAB0559E21 SLP111 P0001 T00890039 401780083 TSNO
KPUJ 230655Z AUTO 00000KT 10SM CLR 16/11 A3027 RMK AO2
KPUW 230653Z AUTO 35003KT 10SM CLR 13/10 A2994 RMK AO2 SLP128 T01280100
KPVB 230655Z AUTO 12007KT 10SM CLR 13/05 A3025 RMK AO1 T01320048
KPVC 230655Z 33018G23KT 10SM CLR 11/02 A3012 RMK AO1
KPVD 230651Z AUTO 30008KT 10SM CLR 11/M04 A3014 RMK AO2 SLP206 T01111039
KPVE 230655Z AUTO 00000KT 5SM CLR 09/09 A3024 RMK
KPVF 230655Z AUTO 15004KT 10SM FEW042 OVC075 12/09 A3006 RMK AO1
KPVG 230655Z AUTO 00000KT 9SM CLR 08/06 A3028 RMK AO1
KPVJ 230655Z AUTO 00000KT 10SM OVC018 15/14 A3011 RMK AO2 T01450140
KPVU 230655Z AUTO 17006KT 10SM OVC050 11/06 A2994 RMK AO1
KPVW 230655Z AUTO 13011KT 1SM BR OVC002 16/15 A3004 RMK AO2 LTG DSNT NW T01550154
KPWA 230653Z AUTO 13008KT 6SM -RA BR OVC005 15/14 A3013 RMK AO2 SLP197 P0001 T01500139
KPWC 230652Z AUTO 00000KT 10SM CLR 07/04 A3021 RMK AO2
KPWG 230655Z AUTO 14012KT 10SM OVC010 22/18 A3009 RMK AO1
KPWK 230652Z AUTO 00000KT 10SM CLR 08/03 A3031 RMK AO2 SLP263 T00830028
KPWM 230651Z AUTO 32020G27KT 10SM SCT100 07/M03 A3012 RMK AO2 PK WND 31027/0651 PRESRR SLP200 T00721028
KPWT 230655Z AUTO 16005KT 10SM OVC008 11/10 A3011 RMK AO1
KPXE 230655Z AUTO 08003KT 10SM CLR 18/13 A3025 RMK AO2 T01780131
KPYM 230652Z AUTO 31008KT 10SM CLR 11/M03 A3012 RMK AO2 SLP200 T01061033
KPYX 230655Z AUTO 16013G16KT 2 1/2SM OVC003 14/13 A3005 RMK AO2 T01370131
KPZQ 230654Z AUTO 00000KT 10SM CLR 00/M02 A3030 RMK AO2 T10011020
KQAJ 230655Z AUTO 03010G16KT 360V060 4000 HZ CLR 38/00 A2975 RMK AO2 LTG DSNT S SLP063 T03750001
KQAY 230655Z AUTO 35003KT 4000 HZ FEW014 SCT019 BKN022 38/05 A2973 RMK AO2 SLP062
KQBL 230656Z AUTO 00000KT 10SM CLR 21/13 A3018 RMK AO2 SLP225 T02050132
KQCL 230655Z AUTO VRB04KT 9999 CLR 33/M02 A2976 RMK AO2 SLP000 T03311018 $
KQEB 230555Z AUTO VRB02KT 10SM OVC044 18/14 A3031 RMK AO2 SLP221 60001 T01790136 10177 20169 52014
KQEI 230710Z AUTO 27002KT 9999 CLR 27/02 A2981 RMK A02 TSNO
KQEJ 230710Z AUTO 25002KT 9999 CLR 28/01 A2976 RMK A02 TSNO
KQEL 230710Z AUTO 23004KT 9999 CLR 28/02 A2983 RMK A02 TSNO
KQEN 230710Z AUTO 9999 CLR M03/M05 / RMK A02 TSNO
KQEP 230710Z AUTO 30009G11KT 9999 CLR 27/00 A2975 RMK A02 TSNO
KQEQ 230710Z AUTO 24005KT 9999 CLR 27/05 A2967 RMK A02 TSNO
KQER 230710Z AUTO 23005KT 8000 /CLR 26/04 / RMK A02 TSNO
KQEV 230710Z AUTO 34004KT 9999 CLR 28/05 A2980 RMK A02 TSNO
KQEW 230710Z AUTO 25005KT 9999 CLR 28/02 A2977 RMK A02 TSNO
KQEX 230710Z AUTO 36002KT 9999 CLR 29/02 A2980 RMK A02 TSNO
KQEY 230710Z AUTO 25003KT 9999 FEW110 26/03 A2982 RMK A02 TSNO
KQFA 230655Z AUTO 00000KT 9999 CLR 27/02 A2982 RMK AO2 SLP097 T02710022 $
KQFB 230710Z AUTO 22001KT 9999 FEW110 28/05 A2984 RMK A02 TSNO
KQFG 230655Z AUTO 28013G20KT 9999 CLR 36/M03 A2965 RMK AO2 SLP987 T03551026
KQFQ 230655Z AUTO VRB04KT 10SM CLR 27/03 A2978 RMK AO2 SLP084 T02730025 $
KQFT 230710Z AUTO 27004KT 9999 FEW055 28/M01 A2978 RMK A02 TSNO
KQFU 230710Z AUTO 11006G11KT 9999 CLR 26/02 A2982 RMK A02 TSNO
KQFV 230710Z AUTO 31004KT 9999 CLR 26/01 A2981 RMK A02 TSNO
KQFX 230710Z AUTO 02003G11KT 9999 CLR 28/02 A2979 RMK A02 TSNO
KQGV 230555Z 33015G20KT 4000 BLDU BKN230 36/03 A2974 RMK SLPNO QNH1007 PA +640 51017
KQGX 230658Z AUTO 20008G15KT 170V230 9999 CLR 42/10 A2974 RMK AO2 SLP072 T04230104 $
KQHN 230655Z 28017G23KT 9999 FEW200 33/00 A2983 RMK SLP000 Q1010 DA6264
KQIR 230658Z 25007KT 9999 CLR 39/08 A2971 RMK AO2A SLP061 T03940077
KQL5 230655Z VRB04KT 9999 FEW150 38/00 A2961 RMK SLP978 T03771005
KQND 230655Z AUTO VRB01KT CLR 33/17 A2984 RMK AO2 SLP082 T03310165 PWINO TSNO $
KQQY 230355Z AUTO 19001KT 9999 FEW048 SCT095 BKN150 24/22 A3007 RMK AO2 LTG DSNT E SLP165 T02350218 $
KQRH 230656Z AUTO 07004KT 9999 FEW021 34/25 A2980 RMK AO2 SLP084 T03350247
KQSA 230658Z AUTO 35020G24KT 9999 FEW260 SCT320 28/01 A2987 RMK AO2 PK WND 35028/25 SLP018 T02750006 VISNO RWY21 CHINO RWY21 $
KQSF 230655Z AUTO 04007G13KT 010V080 9999 FEW190 25/M03 A3000 RMK AO2 SLP071 T02541034
KQSN 230655Z AUTO VRB02KT 9999 CLR 23/M04 A2996 RMK AO2 SLP059 T02311045
KQTZ 230555Z 32011G19KT 2400 DU HZ SCT015 29/10 A2977 RMK DU SCT015 SLP077 WND/ALSTG/SLP ESTMD 51019
KQWM 230655Z 36013G20KT 5000 BLDU BKN250 37/02 A2975 RMK SLP064 QNH1007
KQXT 230655Z 29016G28KT 6000 BLDU FEW010 36/00 A2982 RMK DU FEW010 SLP038 WND DATA ESTMD ALSTG/SLP ESTMD Q1009
KRAC 230653Z AUTO 21005KT 10SM CLR 08/00 A3030 RMK AO2 SLP262 T00830000
KRAL 230712Z AUTO 06004KT 10SM BKN029 OVC044 15/11 A3007 RMK AO2 T01500106
KRAP 230652Z AUTO 16010KT 10SM OVC014 09/07 A3006 RMK AO2 SLP177 T00890067 401670083
KRAS 230655Z AUTO 14012G18KT 10SM BKN014 BKN022 BKN028 26/24 A3004 RMK AO2 T02630241
KRBD 230653Z AUTO 15009G16KT 10SM BKN026 OVC075 21/19 A3008 RMK AO2 SLP181 T02110194
KRBG 230653Z AUTO 00000KT 10SM OVC034 12/08 A3013 RMK AO2 SLP202 T01220083
KRBL 230654Z AUTO 16009KT 10SM SCT075 OVC090 21/13 A2997 RMK AO2 SLP147 T02060133
KRBO 230655Z AUTO 13004KT 5SM BR CLR 26/26 A3004 RMK AO2 T02550255
KRBW 230655Z AUTO 00000KT 10SM CLR 13/12 A3027 RMK AO2
KRCA 230658Z AUTO 17010KT 10SM OVC012 09/07 A3005 RMK AO2 SLP177 T00910069 401650091 $
KRCE 230655Z AUTO 14008KT 3SM -RA 14/14 A3014 RMK AO2
KRCM 230655Z AUTO 13004KT 10SM OVC065 15/11 A3022 RMK AO2
KRCR 230655Z AUTO 00000KT 10SM CLR 11/03 A3031 RMK AO2
KRCV 230655Z AUTO 24009KT 10SM SCT065 SCT080 BKN100 04/03 A3011 RMK AO2 LTG DSNT W T00410026 401630028
KRCX 230655Z AUTO 00000KT 10SM CLR 06/05 A3025 RMK AO2 T00610045
KRCZ 230655Z AUTO 00000KT 10SM CLR 11/10 A3030 RMK AO2 T01110100
KRDD 230653Z AUTO 24004KT 10SM CLR 19/13 A2995 RMK AO2 SLP138 T01940128
KRDG 230654Z AUTO 26005KT 10SM CLR 11/M01 A3028 RMK AO2 SLP259 T01061011
KRDK 230655Z AUTO 18003KT 10SM BKN075 OVC230 13/10 A3021 RMK AO2
KRDM 230656Z AUTO 29006KT 10SM -RA FEW060 OVC080 10/07 A3002 RMK AO2 RAB46 SLP160 P0000 T01000072
KRDR 230658Z AUTO 24004KT 10SM CLR 10/06 A3013 RMK AO2 SLP208 T00960057
KRDU 230651Z 00000KT 10SM SCT250 10/09 A3030 RMK AO2 SLP259 T01000089
KREO 230652Z AUTO 12004KT 13/09 A2994 RMK AO1 SLP115 T01280094
KRFD 230654Z 00000KT 10SM CLR 11/01 A3030 RMK AO2 SLP261 T01110006
KRFI 230655Z AUTO 13006KT 10SM CLR 20/18 A3014 RMK AO2 T02000181
KRGK 230651Z AUTO 00000KT 10SM CLR 08/06 A3021 RMK AO2
KRHI 230653Z AUTO 00000KT 10SM CLR 04/01 A3024 RMK AO2 SLP246 T00390011
KRHP 230655Z AUTO 00000KT 10SM CLR 08/07 A3032 RMK AO2 T00750067
KRHV 230447Z 31008KT 10SM OVC030 15/10 A3009 RMK LAST
KRIC 230654Z 00000KT 10SM CLR 13/09 A3028 RMK AO2 SLP258 T01330089 $
KRIL 230653Z AUTO 12004KT 10SM FEW070 08/06 A3002 RMK AO2 SLP130 T00780056 401720078
KRIV 230709Z AUTO 04004KT 10SM FEW010 SCT024 BKN036 13/11 A3006 RMK AO2
KRIW 230653Z AUTO 05004KT 10SM OVC004 09/08 A2996 RMK AO2 SLP119 T00890078 401390067 $
KRKD 230655Z AUTO 29012G23KT 260V340 10SM BKN110 07/M03 A3002 RMK AO1
KRKP 230708Z AUTO 14013KT 10SM SCT016 SCT039 27/24 A3004 RMK AO2 T02670239 $
KRKR 230655Z AUTO 02007KT 1/2SM +RA BKN013 OVC026 15/14 A3017 RMK AO2 P0069 T01470138
KRKS 230654Z AUTO 21005KT 10SM SCT085 04/03 A3001 RMK AO2 SLP131 T00440028 401110044
KRME 230653Z AUTO 32004KT 10SM CLR 02/M04 A3030 RMK AO2 SLP262 T00221039
KRMG 230653Z AUTO 00000KT 10SM CLR 11/09 A3026 RMK AO2 SLP241 T01060089
KRMN 230655Z AUTO 35010KT 10SM CLR 14/07 A3035 RMK AO2 T01370065
KRMY 230653Z AUTO 12003KT 10SM CLR 08/02 A3031 RMK AO2 T00820015
KRNC 230655Z AUTO 00000KT 10SM CLR 09/09 A3027 RMK
KRND 230708Z AUTO 14010G15KT 10SM SCT010 SCT016 SCT046 24/23 A3006 RMK AO2
KRNH 230655Z AUTO 12003KT 10SM CLR 11/04 A3022 RMK AO2 T01080043
KRNM 230653Z AUTO 00000KT 10SM -RA SCT010 BKN015 OVC023 12/09 A3008 RMK AO2 RAB40 SLP181 P0000 T01220094
KRNO 230655Z 22004KT 10SM BKN045 BKN060 11/09 A3003 RMK AO2 RAB00E11B28E41 SLP140 P0000 T01110089
KRNP 230654Z AUTO 00000KT 10SM CLR 05/00 A3032 RMK AO2 T00521005
KRNT 230653Z AUTO 17007KT 10SM BKN021 OVC070 13/09 A3008 RMK AO2 SLP192 T01330089
KRNV 230655Z AUTO 11005KT 10SM CLR 18/14 A3019 RMK AO2 T01750140
KROA 230654Z 00000KT 10SM CLR 11/07 A3034 RMK AO2 SLP268 T01060067
KROC 230654Z 24004KT 10SM CLR 02/M01 A3034 RMK AO2 SLP280 T00171011
KROG 230657Z AUTO 12009KT 10SM -RA BKN040 OVC090 15/11 A3021 RMK AO2 RAB42 SLP225 P0000 T01500111 TSNO
KROS 230656Z AUTO 00000KT 10SM CLR 09/04 A3020 RMK AO2 T00850041
KROW 230651Z AUTO 18013KT 10SM BKN012 OVC019 19/17 A2995 RMK AO2 LTG DSNT N AND NW SLP092 T01940167 402500111
KROX 230654Z AUTO 22008KT 10SM CLR 15/06 A3011 RMK AO2
KRPD 230655Z AUTO 00000KT 10SM CLR 07/06 A3024 RMK AO2 T00700060
KRPH 230655Z AUTO 11007KT 3SM BR OVC004 19/19 A3005 RMK AO2 T01870187
KRPJ 230655Z AUTO 13005KT 10SM CLR 11/01 A3028 RMK AO2 T01060013
KRPX 230655Z AUTO 10000KT 40SM 12/06 A2990 RMK A01 T01220055
KRQB 230655Z AUTO 00000KT 10SM CLR 03/00 A3029 RMK AO2 T00260000
KRQE 230653Z AUTO 00000KT 10SM CLR 07/M04 A3006 RMK AO2 SLP101 T00671039 401940006 TSNO
KRQO 230715Z AUTO 13005KT OVC004 13/13 A3012 RMK AO2 PWINO
KRRL 230655Z AUTO 00000KT 10SM CLR 03/02 A3025 RMK AO2 T00260022
KRRT 230654Z AUTO 24005KT 10SM CLR 16/06 A3012 RMK AO2
KRSL 230653Z AUTO 16012KT 10SM OVC008 12/12 A3013 RMK AO2 CIG 005V010 SLP203 T01220122
KRSN 230655Z AUTO 00000KT 10SM CLR 17/12 A3020 RMK AO2 T01700120
KRSP 230554Z AUTO 10SM CLR 08/M04 A3028 RMK AO2 SLP260 T00781039 10150 20078 50012 $
KRST 230654Z AUTO 14006KT 10SM CLR 12/04 A3023 RMK AO2 SLP236 T01220039
KRSV 230704Z AUTO 00000KT 7SM CLR 14/12 A3029 RMK AO2
KRSW 230653Z AUTO 03006KT 10SM CLR 22/21 A3012 RMK AO2 SLP195 T02170206
KRTN 230700Z AUTO 17010G28KT 10SM -RA SCT020 OVC060 11/09 A3006 RMK AO2 LTG DSNT SW P0000 T01110094
KRTS 230655Z AUTO 31003KT 10SM OVC040 09/07 A3004 RMK AO2
KRUE 230653Z AUTO 00000KT 10SM OVC050 17/14 A3023 RMK AO2 SLP229 T01670139
KRUQ 230655Z AUTO 00000KT 10SM CLR 09/08 A3031 RMK AO2 T00860080
KRUT 230655Z AUTO 30004KT 10SM FEW070 03/M07 A3021 RMK AO1
KRVS 230653Z 15005KT 8SM -RA BKN009 OVC014 15/14 A3017 RMK AO2 RAB19 CIG 007V012 SLP224 P0000 T01500139
KRWF 230653Z AUTO 30003KT 10SM CLR 14/06 A3021 RMK AO2 SLP228 T01390061
KRWI 230653Z AUTO 00000KT 10SM CLR 11/10 A3029 RMK AO2 SLP255 T01060100
KRWL 230653Z AUTO VRB04KT 10SM SCT039 04/02 A3002 RMK AO2 SLP134 T00390022 401280033
KRWV 230650Z AUTO 6SM BR FEW007 OVC012 21/21 A3011 RMK AO2
KRXE 230653Z AUTO 18007KT 10SM FEW060 OVC080 10/08 A2992 RMK AO2 RAE40 SLP107 P0000 T01000078 401890083
KRYN 230251Z 25009KT 10SM 23/03 A2995
KRYT 230653Z AUTO 00000KT 10SM CLR 08/M03 A3029 RMK AO2 SLP255 T00831028 $
KRYV 230655Z AUTO 00000KT 10SM CLR 07/00 A3028 RMK AO2 T00741004
KRYW 230655Z AUTO 14005KT 7SM OVC006 23/22 A3009 RMK AO2 T02290217
KRYY 230247Z 34003KT 10SM SKC 18/08 A3026
KRZL 230655Z AUTO 07005KT 10SM CLR 12/04 A3030 RMK AO2
KRZN 230650Z AUTO 00000KT 10SM CLR 07/04 A3021 RMK AO2 T00720043
KRZR 230655Z AUTO 00000KT 10SM CLR 08/07 A3028 RMK
KRZT 230655Z AUTO 00000KT 10SM CLR 08/06 A3031 RMK AO2
KS25 230655Z AUTO 13009KT 10SM CLR 10/01 A3008 RMK AO2
KS39 230655Z AUTO 00000KT 10SM OVC055 10/09 A3002 RMK AO2
KSAA 230655Z AUTO 10SM BKN080 03/02 A3005 RMK AO2
KSAC 230653Z AUTO 19005G17KT 10SM CLR 14/10 A3001 RMK AO2 SLP162 T01440100
KSAD 230651Z AUTO 32018G22KT 10SM CLR 18/04 A2995 RMK AO2 SLP094 T01830039 403060100
KSAF 230653Z AUTO 14019G24KT 10SM CLR 13/10 A3000 RMK AO2 PK WND 15027/0634 SLP084 T01280100 402110044
KSAN 230651Z 31004KT 10SM FEW021 SCT027 BKN044 17/12 A3010 RMK AO2 SLP191 T01670117
KSAR 230655Z AUTO 00000KT 10SM OVC110 16/12 A3027 RMK AO2 T01610123
KSAT 230651Z 13008KT 7SM FEW009 BKN013 OVC038 24/23 A3007 RMK AO2 RAB06E25 SLP163 P0000 T02440228
KSAV 230653Z AUTO 00000KT 9SM CLR 16/14 A3024 RMK AO2 SLP239 T01610144 TSNO
KSAW 230657Z AUTO 21005KT 10SM CLR 04/M04 A3023 RMK AO2 T00401036
KSAZ 230653Z AUTO 00000KT 10SM CLR 08/04 A3018 RMK AO2
KSBA 230653Z AUTO 17005KT 10SM CLR 14/10 A3005 RMK AO2 SLP174 T01440100 $
KSBD 230350Z 08003KT 7SM OVC028 12/10 A3007
KSBM 230653Z AUTO 23006KT 10SM CLR 06/M01 A3028 RMK AO2 SLP255 T00561011
KSBN 230654Z 00000KT 10SM CLR 09/03 A3032 RMK AO2 SLP268 T00890028
KSBO 230655Z AUTO 00000KT 10SM CLR 15/15 A3026 RMK AO2
KSBP 230656Z AUTO 31005KT 10SM OVC018 14/11 A3010 RMK AO2 SLP190 T01390106
KSBS 230655Z AUTO 06006KT 10SM SCT040 04/03 A3007 RMK AO1 T00440025
KSBY 230654Z AUTO 35008KT 10SM CLR 16/03 A3026 RMK AO2 SLP247 T01560028
KSCD 230655Z AUTO 00000KT 10SM CLR 14/14 A3023 RMK AO2 T01350135
KSCF 230655Z AUTO 11016KT 10SM FEW026 FEW032 FEW040 27/22 A3011 RMK A01
KSCK 230655Z AUTO 30004KT 10SM CLR 14/09 A3002 RMK AO2 SLP166 T01440094
KSCR 230655Z AUTO 00000KT 10SM CLR 07/07 A3031 RMK AO2 T00720070
KSDA 230655Z AUTO 12005KT 10SM OVC065 14/11 A3021 RMK AO2
KSDB 230713Z AUTO 29009KT 9SM FEW002 OVC012 09/07 A3008 RMK AO2 T00890067 $
KSDF 230656Z 12004KT 10SM BKN200 BKN250 15/11 A3029 RMK AO2 SLP253 T01500106
KSDL 230653Z 00000KT 10SM CLR 20/02 A2995 RMK AO2 SLP122 T02000017 402560183
KSDM 230653Z AUTO 00000KT 10SM FEW008 BKN032 OVC045 14/13 A3009 RMK AO2 RAE47 SLP185 P0006 T01440133
KSDY 230655Z AUTO 00000KT 10SM CLR 11/03 A3008 RMK AO1
KSEA 230653Z 21007KT 10SM OVC017 12/09 A3009 RMK AO2 SLP196 T01220094
KSEE 230655Z AUTO 00000KT 10SM SCT020 BKN065 14/11 A3010 RMK AO2
KSEG 230653Z AUTO 29004KT 10SM CLR 08/M04 A3032 RMK AO2 SLP266 T00781039
KSEM 230655Z AUTO 00000KT 10SM CLR 13/12 A3020 RMK AO2
KSEP 230655Z AUTO 14008KT 4SM OVC007 21/20 A3010 RMK AO2 T02110196
KSET 230654Z AUTO 00000KT 10SM BKN110 16/13 A3024 RMK AO2 SLP238 T01560133 TSNO
KSEZ 230655Z AUTO 24004KT 10SM CLR 10/00 A3003 RMK AO2
KSFB 230653Z AUTO 36005KT 10SM CLR 23/21 A3016 RMK AO2 SLP210 T02330211
KSFF 230653Z AUTO 07006KT 10SM FEW110 15/09 A2990 RMK AO2 SLP113 T01500089
KSFO 230656Z 26009KT 10SM OVC013 14/10 A3008 RMK AO2 SLP185 T01390100
KSFQ 230655Z AUTO 00000KT 10SM CLR 10/08 A3027 RMK AO2 T01000084
KSFY 230655Z AUTO 13005KT 10SM CLR 15/01 A3025 RMK AO2 T01500007
KSFZ 230655Z 32006KT 10SM CLR 08/M06 A3014 RMK AO1
KSGF 230652Z 15010KT 10SM OVC038 16/09 A3022 RMK AO2 SLP226 T01560089
KSGH 230656Z AUTO 09005KT 7SM CLR 09/04 A3032 RMK AO2 T00880038 SLP266
KSGJ 230658Z AUTO 04014KT 10SM FEW013 23/21 A3019 RMK AO2 SLP223 T02330211
KSGR 230707Z AUTO 13008KT 8SM BKN009 BKN017 24/23 A3007 RMK AO2 T02440228
KSGS 230654Z AUTO 00000KT 10SM CLR 11/07 A3020 RMK AO2 T01120069
KSGT 230655Z AUTO 06005KT 10SM CLR 18/13 A3021 RMK AO1
KSGU 230655Z AUTO 10008KT 10SM OVC090 13/04 A2997 RMK AO1
KSHD 230655Z AUTO 02003KT 10SM SCT060 13/07 A3034 RMK AO2 T01260066
KSHL 230655Z AUTO 21006G12KT 9SM FEW049 OVC060 14/08 A3022 RMK AO2
KSHN 230653Z AUTO 22010KT 10SM BKN011 OVC018 11/09 A3005 RMK AO2 CIG 009V014 SLP178 T01110094
KSHR 230653Z AUTO 13015G20KT 10SM BKN120 09/06 A2994 RMK AO2 SLP125 T00940061 401830044
KSHV 230656Z 12004KT 10SM CLR 19/16 A3014 RMK AO2 SLP203 T01890161
KSIF 230655Z AUTO 00000KT 10SM CLR 07/07 A3031 RMK AO2 T00730073
KSIY 230653Z AUTO 01008KT 10SM CLR 08/06 A3007 RMK AO2 SLP188 T00830056
KSJC 230653Z 25008KT 10SM FEW022 OVC027 14/09 A3008 RMK AO2 SLP187 T01440094
KSJN 230654Z AUTO 26003KT 10SM CLR 09/M02 A3004 RMK AO2 SLP105 T00941017 402390078
KSJS 230655Z AUTO 20004KT 10SM CLR 12/09 A3032 RMK AO2 T01220085
KSJT 230651Z 00000KT 10SM OVC016 22/19 A3003 RMK AO2 SLP151 T02170194
KSJX 230656Z AUTO 21006KT 10SM CLR 05/M03 A3027 RMK AO2 T00511030
KSKA 230658Z AUTO 28006KT 10SM FEW120 SCT150 15/09 A2989 RMK AO2 RAB18E28 SLP112 P0000 T01490090
KSKF 230658Z AUTO 12010KT 10SM BKN012 OVC017 24/23 A3004 RMK AO2 SLP166 $
KSKX 230655Z AUTO 26003KT 10SM CLR 08/01 A3006 RMK AO1 LTG DSNT E
KSLB 230655Z AUTO 13005KT 10SM FEW034 SCT044 BKN060 15/08 A3022 RMK AO2
KSLC 230653Z 16006KT 10SM FEW070 BKN100 BKN110 13/06 A2990 RMK AO2 SLP091 VIRGA E-S T01280061 401780106
KSLE 230656Z AUTO 30003KT 10SM OVC029 13/08 A3011 RMK AO2 SLP197 T01280083
KSLG 230655Z AUTO 12003KT 10SM OVC023 13/09 A3021 RMK AO1 P0001
KSLH 230659Z AUTO 00000KT 10SM CLR 00/M02 A3028 RMK AO2 T10061020
KSLI 230658Z AUTO 23004KT 10SM FEW022 15/13 A3006 RMK AO2 SLP182 T01490131
KSLK 230651Z AUTO 00000KT 10SM CLR M01/M08 A3019 RMK AO2 SLP237 T10111083 $
KSLN 230709Z 15008KT 7SM BKN011 BKN021 OVC027 13/11 A3017 RMK AO2 CIG 009V013 T01280111
KSLO 230655Z AUTO 00000KT 10SM CLR 16/13 A3026 RMK AO2 T01640128
KSLR 230655Z AUTO 13005KT 10SM BKN060 OVC070 20/18 A3014 RMK AO2 T02000177
KSME 230655Z AUTO 00000KT 10SM CLR 09/08 A3032 RMK AO2
KSMF 230653Z 17014KT 10SM BKN120 14/10 A2999 RMK AO2 SLP155 T01390100
KSMN 230655Z AUTO 02003KT 10SM FEW055 BKN090 OVC110 11/08 A2994 RMK AO1
KSMO 230651Z AUTO 00000KT 10SM SCT060 16/11 A3006 RMK AO2 SLP179 T01610111
KSMQ 230653Z AUTO 31004KT 10SM CLR 08/02 A3025 RMK AO2 SLP245 T00830022 TSNO
KSMS 230655Z AUTO 00000KT 9SM CLR 15/15 A3029 RMK AO2
KSMX 230702Z AUTO 32003KT 10SM OVC028 14/12 A3011 RMK AO2 T01440122 TSNO
KSNA 230706Z AUTO 00000KT 10SM SCT017 16/12 A3007 RMK AO2 TSNO
KSNC 230655Z AUTO 33010KT 10SM CLR 09/M02 A3019 RMK AO2
KSNH 230655Z AUTO 00000KT 9SM CLR 09/00 A3025 RMK
KSNK 230655Z AUTO 12011KT 7SM OVC008 20/19 A3003 RMK AO2 T01970190 TSNO
KSNL 230655Z AUTO 13004KT BKN007 BKN010 OVC020 15/15 A3015 RMK AO2 P0003 PWINO
KSNS 230653Z 22007KT 10SM FEW016 OVC027 14/10 A3010 RMK AO2 SLP201 T01390100
KSNT 230651Z AUTO 18003KT 04/03 A3000 RMK AO1 SLP103 T00390028 401500033
KSNY 230653Z AUTO 12007KT 1/2SM FG VV002 08/08 A3006 RMK AO2 SLP173 T00780078 401000072
KSOA 230655Z AUTO 15008KT 10SM FEW018 SCT026 BKN032 23/22 A3008 RMK AO2
KSOP 230655Z AUTO 00000KT 10SM CLR 09/07 A3030 RMK AO1
KSOW 230655Z AUTO 20011KT 10SM 06/00 A3007 RMK AO2
KSPA 230715Z AUTO 00000KT 10SM CLR 14/08 A3030 RMK AO2
KSPB 230653Z AUTO 35005KT 10SM OVC035 13/08 A3009 RMK AO2 SLP190 T01330083
KSPD 230656Z AUTO 20020G26KT 13/12 A2999 RMK AO1 PK WND 19026/0656 SLP112 T01330117 402060078
KSPF 230655Z AUTO 00000KT 10SM CLR 05/03 A3004 RMK AO2
KSPG 230653Z AUTO 11008KT 10SM CLR 26/21 A3011 RMK AO2 SLP197 T02560211
KSPI 230652Z AUTO 01004KT 10SM CLR 16/12 A3024 RMK AO2 SLP237 T01610122
KSPL 230655Z AUTO 22009KT 29/29 A3003 RMK AO1
KSPR 230655Z AUTO VRB08G15KT 10SM FEW017 FEW024 SCT070 28/23 A3010 RMK A01
KSPS 230709Z AUTO 10007KT 2SM BR OVC002 16/16 A3007 RMK AO2 RAB0654E05 P0000 T01560156
KSPW 230653Z AUTO 04003KT 10SM OVC090 14/09 A3021 RMK AO2 SLP228 T01390094 TSNO
KSQE 230655Z AUTO VRB04KT 10SM SCT021 SCT032 SCT048 27/23 A3011 RMK A01
KSQI 230655Z AUTO 09006KT 10SM CLR 13/02 A3026 RMK AO1
KSQL 230655Z AUTO 25007KT 10SM OVC017 14/10 A3010 RMK AO2
KSRB 230655Z AUTO 00000KT 10SM CLR 08/08 A3027 RMK
KSRC 230656Z AUTO 03004KT 10SM BKN090 17/13 A3023 RMK AO2 SLP242 T01670128 TSNO
KSRQ 230653Z AUTO 08006KT 4SM BR CLR 22/21 A3012 RMK AO2 SLP197 T02170206
KSRR 230655Z AUTO 22009KT 10SM CLR 11/08 A3010 RMK AO2
KSSC 230658Z AUTO 04004KT 10SM CLR 13/09 A3026 RMK AO2 SLP247 T01250091 $
KSSF 230653Z AUTO 14007KT 10SM BKN037 24/23 A3004 RMK AO2 SLP160 T02440228
KSTC 230653Z AUTO 00000KT 10SM CLR 08/06 A3019 RMK AO2 SLP233 T00780056
KSTE 230655Z AUTO 00000KT 10SM CLR 07/03 A3026 RMK AO2 T00700029
KSTF 230655Z AUTO 00000KT 7SM CLR 11/11 A3022 RMK AO2
KSTJ 230653Z AUTO 13006KT 10SM BKN060 BKN075 OVC100 16/11 A3020 RMK AO2 SLP223 T01560106
KSTK 230650Z AUTO 03005KT 1SM BR OVC002 09/09 A3004 RMK AO2
KSTL 230651Z 11003KT 10SM OVC100 18/11 A3025 RMK AO2 SLP236 T01780111
KSTP 230653Z AUTO 10003KT 10SM CLR 12/07 A3021 RMK AO2 SLP228 T01170072
KSTS 230653Z AUTO 00000KT 10SM CLR 12/09 A3002 RMK AO2 SLP158 T01170094
KSUA 230655Z AUTO 33003KT 10SM CLR 23/21 A3013 RMK AO2
KSUE 230655Z AUTO 20006KT 10SM CLR 09/M04 A3029 RMK AO1
KSUN 230655Z AUTO 34005KT 2 1/2SM +RA SCT014 BKN034 OVC046 09/07 A2997 RMK AO2 P0034
KSUS 230654Z AUTO 00000KT 10SM OVC110 15/14 A3024 RMK AO2 SLP236 T01500139 $
KSUT 230655Z AUTO 00000KT 10SM CLR 14/13 A3028 RMK AO2 T01420127
KSUU 230658Z AUTO 25017G23KT 10SM OVC120 14/10 A2999 RMK AO2 CIG 016 RWY03R SLP162 T01360103 $
KSUW 230655Z AUTO 00000KT 10SM CLR 02/01 A3019 RMK AO2 T00160006
KSUX 230652Z AUTO 00000KT 10SM OVC075 13/10 A3019 RMK AO2 SLP221 T01330100
KSVC 230655Z AUTO 30014KT 10SM CLR 13/M07 A3005 RMK AO2
KSVH 230655Z AUTO 00000KT 10SM CLR 11/07 A3030 RMK AO2 T01060074
KSVN 230658Z AUTO 00000KT 10SM CLR 16/16 A3021 RMK AO2 SLP233 T01640160 $
KSWF 230645Z 30008KT 10SM SKC 08/M03 A3021
KSWO 230653Z AUTO 12006KT 3SM BR OVC004 14/13 A3015 RMK AO2 SLP203 T01390133 TSNO
KSWW 230655Z AUTO 13011G16KT 7SM OVC006 21/21 A3006 RMK AO2 T02140214
KSXS 230656Z AUTO 34004KT 8SM CLR 15/15 A3021 RMK AO2 SLP230 T01540146
KSXT 230656Z AUTO 35007KT 1/4SM FG VV001 06/05 A3009 RMK AO2 SLP187 T00560050
KSYF 230655Z AUTO 13017G22KT 1 3/4SM -RA OVC006 12/11 A3003 RMK AO2 T01180106
KSYI 230655Z AUTO 00000KT 10SM CLR 11/09 A3028 RMK
KSYM 230650Z AUTO 00000KT 10SM BKN055 12/08 A3033 RMK AO2
KSYN 230654Z AUTO 00000KT 10SM CLR 11/04 A3019 RMK AO2 T01060038
KSYR 230654Z 29006KT 10SM CLR 04/M02 A3031 RMK AO2 SLP263 T00391017
KSZL 230658Z AUTO 15003KT 10SM OVC070 16/12 A3021 RMK AO2 SLP230 T01600118 $
KSZT 230655Z AUTO 00000KT 10SM CLR 11/07 A2990 RMK AO2
KT20 230655Z AUTO 13004KT 7SM VCTS OVC009 24/24 A3005 RMK AO2 T02430240
KT35 230655Z AUTO 12005KT 7SM OVC010 22/21 A3007 RMK AO2 T02170207
KT65 230655Z AUTO 13006KT 7SM CLR 25/23 A3001 RMK AO2 T02500231
KT82 230655Z AUTO 15007KT 10SM BKN012 OVC017 23/21 A3008 RMK AO2 T02250206
KTAD 230654Z AUTO 17018KT 10SM CLR 14/08 A3001 RMK AO2 SLP097 T01390078 402170061
KTAN 230652Z AUTO 32005KT 10SM CLR 11/M03 A3013 RMK AO2 SLP202 T01111028
KTAZ 230655Z AUTO 17003KT 10SM CLR 15/12 A3025 RMK AO2
KTBN 230658Z AUTO 14005KT 10SM SCT065 BKN080 OVC095 15/11 A3024 RMK AO2 SLP238 T01500112
KTBR 230655Z AUTO 00000KT 10SM CLR 14/ A3025 RMK AO2 T0137
KTBX 230655Z AUTO 35006KT 1/2SM FG BKN001 OVC009 06/05 A3008 RMK AO2
KTCC 230704Z AUTO 20004KT 10SM VCTS FEW065 17/14 A2996 RMK AO2 LTG DSNT SE-SW T01720139
KTCL 230653Z AUTO 00000KT 9SM CLR 13/12 A3022 RMK AO2 SLP231 T01330117
KTCM 230658Z 19005KT 10SM SCT029 OVC070 12/11 A3009 RMK AO2A CIG 030 RWY16 SLP193 $
KTCS 230653Z AUTO 26010KT 10SM CLR 18/M07 A2994 RMK AO2 SLP066 T01781067 402720083 TSNO
KTDF 230655Z AUTO 00000KT 10SM CLR 08/08 A3032 RMK AO2
KTDR 230656Z AUTO 06005KT 10SM CLR 20/15 A3016 RMK AO2 SLP217 T02020152 TSNO $
KTDZ 230653Z AUTO 04006KT 10SM CLR 11/07 A3033 RMK AO2 SLP270 T01110067 TSNO
KTEB 230651Z 31010KT 10SM CLR 11/M04 A3024 RMK AO2 SLP238 T01111044
KTEW 230652Z AUTO 00000KT 10SM CLR 05/01 A3032 RMK AO2 T00530008
KTEX 230715Z AUTO 13003KT 10SM SCT042 BKN049 OVC070 03/02 A3014 RMK AO2 LTG DSNT E T00300017
KTFP 230655Z AUTO 14009G16KT 10SM SCT013 SCT019 SCT027 27/25 A3004 RMK AO2 T02710245
KTGI 230655Z AUTO 35015KT 10SM CLR 19/09 A3026 RMK AO1
KTHA 230655Z AUTO 00000KT 10SM CLR 08/06 A3028 RMK
KTHV 230653Z AUTO 00000KT 10SM CLR 07/01 A3030 RMK AO2 SLP262 T00670006
KTIF 230655Z AUTO 13006KT 2 1/2SM DZ OVC005 09/09 A3010 RMK AO2 P0002 T00940090
KTIK 230643Z AUTO 13006KT 10SM OVC006 14/13 A3012 RMK AO2 RAE06DZB06E09RAB31E32DZB32E42
KTIP 230655Z AUTO 09006KT 10SM CLR 17/05 A3026 RMK AO2 T01690049
KTIW 230653Z AUTO 18006KT 10SM OVC014 12/09 A3009 RMK AO2 SLP189 T01170094
KTKC 230652Z AUTO 24003KT 10SM CLR 13/07 A3021 RMK AO2 T01310065
KTKI 230653Z AUTO 12005KT 10SM BKN017 OVC030 20/18 A3010 RMK AO2 SLP192 T02000178 $
KTKV 230655Z AUTO 00000KT 10SM CLR 01/00 A3025 RMK AO2 T00120001
KTLH 230653Z AUTO 08008KT 10SM CLR 22/15 A3018 RMK AO2 SLP218 T02220150
KTMA 230650Z AUTO 00000KT 10SM CLR 19/16 A3022 RMK AO2 T01850160
KTMB 230653Z AUTO 08004KT 10SM CLR 22/20 A3011 RMK AO2 SLP196 T02220200
KTME 230655Z AUTO 13007KT 7SM FEW010 24/23 A3008 RMK AO2
KTMK 230655Z AUTO 00000KT 3SM BR OVC011 12/11 A3014 RMK AO2
KTNB 230655Z AUTO 00000KT 10SM CLR 05/05 A3037 RMK AO2 T00500046
KTNU 230655Z AUTO 20005KT 10SM OVC110 14/09 A3023 RMK AO2 PWINO
KTOA 230255Z 27010KT 10SM BKN020 17/14 A3005 RMK LAST
KTOB 230653Z AUTO 14007KT 10SM SCT100 14/04 A3021 RMK AO2
KTOC 230655Z AUTO 00000KT 10SM SCT055 14/12 A3030 RMK AO2 T01380115
KTOI 230653Z AUTO 00000KT 10SM CLR 13/12 A3022 RMK AO2 SLP229 T01280122
KTOL 230652Z 09004KT 10SM CLR 08/05 A3032 RMK AO2 SLP266 T00830050
KTOP 230653Z 10005KT 8SM -RA OVC040 16/12 A3018 RMK AO2 RAB44 SLP218 P0001 T01560122
KTOR 230709Z AUTO 12008KT 9SM OVC011 07/07 A3005 RMK AO2 T00670067
KTPA 230653Z VRB04KT 10SM CLR 24/19 A3014 RMK AO2 SLP205 T02440194
KTPF 230655Z AUTO 06008KT 10SM CLR 25/22 A3014 RMK AO2
KTPH 230656Z AUTO 01008KT 10SM OVC110 08/04 A3001 RMK AO2 SLP127 T00780044
KTPL 230655Z AUTO 13013KT 7SM OVC008 22/18 A3007 RMK AO1
KTQE 230654Z AUTO 20003KT 10SM OVC070 14/11 A3019 RMK AO2 SLP215 T01440106
KTQH 230655Z AUTO 13005KT 10SM SCT008 SCT030 OVC035 14/12 A3019 RMK AO2
KTRI 230653Z 03003KT 10SM FEW250 08/07 A3033 RMK AO2 SLP256 T00830072
KTRK 230655Z AUTO 00000KT 10SM BKN033 OVC050 06/06 A3010 RMK AO2
KTRL 230653Z AUTO 11006KT 9SM OVC022 21/19 A3010 RMK AO2 SLP189 T02060189
KTRM 230652Z AUTO 33015G22KT 10SM CLR 19/08 A2992 RMK AO2 SLP131 T01940078 TSNO
KTSP 230655Z AUTO 30009KT 6SM BR FEW023 SCT031 08/07 A3008 RMK AO2
KTTA 230655Z AUTO 00000KT 10SM CLR 08/08 A3030 RMK AO2 T00830083
KTTD 230653Z AUTO 00000KT 10SM OVC030 14/09 A3009 RMK AO2 SLP189 T01440094
KTTF 230651Z AUTO 00000KT 10SM CLR 07/01 A3032 RMK AO2
KTTN 230653Z AUTO 32004KT 10SM CLR 11/02 A3026 RMK AO2 SLP240 T01060022
KTTS 230658Z AUTO 34003KT 10SM CLR 22/21 A3014 RMK AO2 SLP211 T02200205
KTUL 230653Z 11003KT 10SM OVC017 16/14 A3016 RMK AO2 SLP211 T01560139
KTUP 230653Z AUTO 08003KT 10SM CLR 14/11 A3022 RMK AO2 SLP231 T01440111
KTUS 230653Z 35004KT 10SM CLR 17/00 A3001 RMK AO2 SLP124 T01720000 402830122
KTVC 230653Z AUTO 00000KT 10SM CLR 03/M02 A3028 RMK AO2 SLP257 T00281017
KTVF 230655Z AUTO 19007KT 10SM CLR 13/04 A3015 RMK AO1
KTVI 230655Z AUTO 11005KT 10SM CLR 19/18 A3022 RMK AO2
KTVK 230655Z AUTO 00000KT 10SM CLR 09/09 A3025 RMK AO2
KTVL 230653Z AUTO 18004KT 6SM -RA FEW022 SCT027 OVC037 08/06 A3009 RMK AO2 RAE0558B14 SLP156 P0002 T00830056
KTVR 230653Z AUTO 12004KT 10SM CLR 18/14 A3018 RMK AO2 SLP224 T01830144
KTWF 230653Z AUTO 19009KT 10SM CLR 12/07 A2987 RMK AO2 SLP077 T01170072 401940100
KTWM 230653Z AUTO 00000KT 10SM CLR 07/03 A3016 RMK AO2
KTXK 230653Z AUTO 11004KT 10SM FEW090 SCT100 17/14 A3016 RMK AO2 SLP209 T01720139
KTYQ 230655Z AUTO 09005KT 10SM CLR 13/04 A3031 RMK AO2 T01290037
KTYR 230653Z AUTO 12009KT 10SM FEW029 21/18 A3011 RMK AO2 SLP190 T02060178
KTYS 230653Z 04003KT 10SM SCT200 12/08 A3029 RMK AO2 SLP250 T01170083
KU68 230655Z AUTO 28008KT 10SM BKN039 BKN050 12/09 A2994 RMK AO2
KUAO 230711Z AUTO 23004KT 10SM FEW014 BKN023 OVC048 12/09 A3011 RMK AO2 T01170094
KUBE 230655Z AUTO 00000KT 10SM CLR 07/05 A3022 RMK AO2
KUCP 230656Z AUTO 00000KT CLR 02/01 A3035 RMK AO2 T00160011 SLP296 $
KUCY 230655Z AUTO 00000KT 10SM CLR 14/00 A3024 RMK
KUDG 230655Z AUTO 00000KT 10SM CLR 13/09 A3030 RMK AO1
KUES 230655Z AUTO 17004KT 10SM CLR 08/M02 A3029 RMK AO2
KUGN 230655Z AUTO 22003KT 10SM CLR 07/02 A3028 RMK AO2 SLP257 T00670017
KUIL 230710Z AUTO 00000KT 2 1/2SM BR OVC004 11/11 A3008 RMK AO2 CIG 003V007 T01110111
KUIN 230654Z AUTO 00000KT 10SM OVC110 14/12 A3024 RMK AO2 SLP235 T01390117
KUKF 230655Z AUTO 00000KT 10SM CLR 09/05 A3038 RMK AO2
KUKI 230656Z AUTO 00000KT 10SM CLR 13/09 A3003 RMK AO2 SLP165 T01280089
KUKT 230650Z AUTO 35005KT 10SM CLR 09/00 A3028 RMK AO1
KULM 230654Z AUTO 29007KT 10SM CLR 13/06 A3021 RMK AO2
KUNI 230655Z AUTO 04003KT 10SM CLR 10/03 A3031 RMK AO2 T01000033
KUNO 230653Z AUTO 00000KT 10SM OVC060 14/09 A3027 RMK AO2 SLP244 T01440094
KUNU 230655Z AUTO 21003KT 10SM CLR 08/M01 A3029 RMK AO2 T00791014
KUNV 230655Z AUTO 00000KT 10SM CLR 04/M03 A3032 RMK AO2 T00381031
KUOX 230655Z AUTO 00000KT 10SM CLR 13/12 A3024 RMK AO2 PWINO PNO
KUSE 230655Z AUTO 05009KT 10SM CLR 09/07 A3032 RMK AO2
KUTA 230715Z AUTO 10005KT 10SM CLR 16/11 A3022 RMK AO2
KUTS 230653Z AUTO VRB04KT 8SM FEW015 22/21 A3010 RMK AO2 SLP187 T02220206
KUUU 230653Z AUTO 31014G21KT 10SM CLR 11/M02 A3013 RMK AO2 SLP201 T01111022
KUVA 230655Z AUTO 14007KT 7SM SCT009 OVC013 24/23 A3005 RMK AO2 LTG DSNT NW T02410228
KUXL 230655Z AUTO 07006KT 10SM CLR 22/21 A3013 RMK AO2 T02210205
KUYF 230715Z AUTO 00000KT 10SM CLR 06/02 A3031 RMK AO2
KUZA 230654Z AUTO 00000KT 10SM CLR 09/08 A3030 RMK AO2 SLP255 T00940078
KVAD 230658Z AUTO 07005KT 10SM CLR 18/17 A3021 RMK AO2 SLP231 T01840168 $
KVAF 230655Z AUTO 15017KT 9SM FEW021 FEW026 SCT110 27/23 A3008 RMK A01
KVAY 230654Z AUTO 33006KT 10SM CLR 12/02 A3026 RMK AO2 SLP247 T01220017
KVBG 230658Z AUTO 33006KT 10SM BKN032 13/11 A3011 RMK AO2 SLP199 T01250112 TSNO
KVBS 230655Z AUTO 18013KT 10SM 26/24 A3010 RMK A01
KVBT 230655Z AUTO 12007KT 10SM FEW029 BKN041 OVC090 A3020 RMK AO1
KVBW 230655Z AUTO 01004KT 10SM SCT060 12/07 A3032 RMK AO2 T01220070
KVCB 230653Z AUTO 21012G21KT 10SM OVC120 14/09 A2999 RMK AO2 SLP155 T01440094
KVCT 230651Z AUTO 11004KT 5SM BR CLR 23/23 A3006 RMK AO2 SLP176 T02330233
KVCV 230655Z AUTO 19010KT 10SM CLR 10/07 A3002 RMK AO2
KVDF 230715Z AUTO 00000KT 10SM CLR 22/21 A3015 RMK AO2
KVDI 230655Z AUTO 00000KT 10SM CLR 18/16 A3024 RMK AO2
KVEL 230653Z AUTO 10SM SCT110 09/06 A2999 RMK AO2 RAE26 SLP124 P0000 T00940061 401610089
KVER 230715Z AUTO 13004KT 10SM OVC080 16/12 A3024 RMK AO2 T01570122
KVES 230655Z AUTO 00000KT 10SM CLR 08/05 A3031 RMK AO2
KVGT 230653Z 00000KT 10SM CLR 17/03 A2990 RMK AO2 SLP127 T01720028
KVIH 230653Z AUTO 18006KT 10SM OVC075 16/11 A3024 RMK AO2 SLP237 T01560106
KVIS 230655Z AUTO 19004KT 10SM BKN060 OVC090 18/10 A3002 RMK AO1
KVJI 230655Z AUTO 09003KT 10SM CLR 10/07 A3035 RMK AO2 T01030065
KVKY 230655Z AUTO 10010KT 10SM BKN016 26/18 A3015 RMK A01
KVLD 230653Z 00000KT 10SM CLR 19/18 A3021 RMK AO2 SLP237 T01940178
KVLL 230655Z AUTO 00000KT 10SM CLR 06/M02 A3035 RMK AO2 T00571023
KVNC 230655Z AUTO 10006KT 10SM CLR 22/20 A3013 RMK AO2
KVNY 230651Z 26003KT 10SM OVC048 15/10 A3006 RMK AO2 SLP173 T01500100
KVOA 230655Z AUTO 08011KT 10SM CLR 28/18 A3014 RMK A01
KVOK 230658Z AUTO 10003KT 10SM CLR 05/05 A3024 RMK AO2 SLP245 T00520052
KVPC 230653Z AUTO 00000KT 10SM CLR 09/08 A3027 RMK AO2 SLP244 T00940078
KVPS 230655Z 01004KT 10SM CLR 20/13 A3017 RMK AO2A SLP222 T02020128 $
KVPZ 230656Z AUTO 00000KT 10SM CLR 11/03 A3031 RMK AO2 SLP262 T01060028 TSNO $
KVQQ 230655Z AUTO 00000KT 7SM CLR 18/18 A3020 RMK AO2
KVQT 230655Z AUTO 13014KT 10SM CLR 27/23 A3010 RMK A01
KVRB 230653Z AUTO 29003KT 10SM CLR 23/21 A3013 RMK AO2 SLP203 T02280211
KVSF 230654Z AUTO VRB04KT 10SM CLR 04/M04 A3021 RMK AO2 SLP232 T00391044 TSNO
KVTA 230654Z AUTO 00000KT 10SM CLR 06/04 A3032 RMK AO2 SLP265 T00610044
KVTI 230655Z AUTO 00000KT 10SM CLR 16/08 A3022 RMK AO2 T01570078
KVTN 230652Z AUTO 10004KT 10SM OVC007 09/08 A3012 RMK AO2 RAB16E31 SLP202 P0000 T00890078
KVTP 230654Z AUTO 10SM CLR A3018 RMK AO2 LTG DSNT NW
KVUJ 230655Z AUTO 00000KT 10SM CLR 08/08 A3034 RMK AO2 T00820079
KVUO 230653Z AUTO VRB04KT 10SM OVC028 14/09 A3010 RMK AO2 SLP193 T01390089
KVVG 230655Z AUTO 04005KT 6SM BR 22/22 A3007 RMK A01
KVVV 230653Z AUTO 25003KT 10SM CLR 12/05 A3019 RMK AO2
KVWU 230654Z AUTO 00000KT 10SM CLR 14/06 A3014 RMK AO2
KVYS 230655Z AUTO 09006KT 10SM CLR 13/03 A3027 RMK AO2 T01310034
KW13 230655Z AUTO 30006KT 10SM CLR 12/06 A3031 RMK AO1 T01240058
KW22 230655Z AUTO 06005KT 10SM FEW060 09/04 A3034 RMK AO2
KW29 230703Z AUTO 32010G14KT 10SM A3029 RMK AO1
KW31 230655Z AUTO 00000KT 10SM CLR 12/08 A3028 RMK AO1 T01160078
KW43 230655Z AUTO 00000KT 10SM CLR 07/04 A3004 RMK AO2
KW63 230655Z AUTO 00000KT 10SM CLR 10/08 A3028 RMK AO1
KW75 230655Z AUTO 00000KT 10SM CLR 14/11 A3026 RMK AO1 T01350108
KW78 230655Z AUTO 00000KT 10SM CLR 09/09 A3029 RMK AO1 T00920085
KW81 230655Z AUTO 00000KT 10SM CLR 09/08 A3028 RMK AO1 T00900081
KW96 230655Z AUTO 00000KT 10SM CLR 10/09 A3027 RMK AO1 T01000091
KW99 230655Z AUTO 00000KT 10SM BKN055 BKN065 10/03 A3037 RMK AO2 T00990032
KWAL 230654Z AUTO 31007KT 10SM CLR 15/11 A3026 RMK AO2 SLP242 T01500106
KWDG 230655Z AUTO 14006KT 2 1/2SM -DZ OVC003 13/13 A3013 RMK AO2
KWDR 230655Z AUTO 00000KT 10SM CLR 15/13 A3030 RMK AO1
KWHP 230247Z 12006KT 20SM OVC040 15/09 A3007 RMK LAST
KWJF 230656Z AUTO 23017G22KT 10SM CLR 12/07 A3001 RMK AO2 SLP157 T01170067
KWLD 230712Z AUTO 14004KT 2SM BR OVC004 13/13 A3018 RMK AO2 T01280128
KWMC 230656Z AUTO 11003KT 10SM OVC070 09/09 A2997 RMK AO2 SLP124 T00940089 TSNO
KWRB 230658Z AUTO 00000KT 10SM CLR 15/13 A3024 RMK AO2 SLP241 T01510133
KWRI 230658Z AUTO 36009KT 10SM CLR 11/02 A3024 RMK AO2 SLP240 T01100023
KWRL 230653Z AUTO 04004KT 10SM SCT070 BKN110 11/09 A2993 RMK AO2 SLP112 T01110094 401890083
KWST 230653Z AUTO VRB05KT 10SM CLR 11/M03 A3016 RMK AO2 SLP212 T01061028
KWVI 230653Z AUTO 07005KT 10SM FEW036 12/09 A3009 RMK AO2 SLP188 T01220094
KWVL 230655Z 28008G14KT 10SM CLR 04/M07 A3004 RMK AO1
KWWD 230655Z AUTO 32008KT 290V360 10SM CLR 16/01 A3026 RMK AO1
KWWR 230655Z AUTO 13011G14KT 1 3/4SM BR OVC002 13/12 A3012 RMK AO2
KWYS 230650Z AUTO 05005KT 10SM BKN039 OVC070 08/04 A2999 RMK AO2
KXBP 230655Z AUTO 11004KT 4SM BR SCT004 SCT007 OVC019 18/18 A3010 RMK AO2 T01800180
KXLL 230655Z AUTO 35004KT 10SM CLR 09/M01 A3030 RMK AO2
KXMR 230658Z AUTO 01003KT 10SM CLR 23/21 A3014 RMK AO2 SLP209 T02320208
KXNA 230653Z AUTO 11005KT 10SM FEW024 BKN029 OVC043 14/12 A3020 RMK AO2 RAB01E35 SLP220 P0001 T01440117
KXPY 230655Z AUTO 09008KT 10SM BKN018 BKN022 BKN028 25/22 A3014 RMK A01
KXSA 230655Z AUTO 00000KT 10SM CLR 11/08 A3028 RMK AO2 T01080084
KXVG 230716Z AUTO 00000KT 10SM CLR 06/05 A3018 RMK AO2
KY19 230655Z AUTO 19008KT 10SM FEW043 11/04 A3014 RMK AO2
KY23 230655Z AUTO 00000KT 10SM CLR 06/06 A3023 RMK AO2 T00620057
KY49 230655Z AUTO 00000KT 10SM CLR 11/03 A3017 RMK AO2 T01080028
KY50 230656Z AUTO 00000KT 10SM CLR 06/04 A3027 RMK AO2 TSNO T00550038 SLP251
KY51 230655Z AUTO 15004KT 10SM CLR 14/03 A3024 RMK AO1 T01420027
KY63 230655Z AUTO 22008KT 10SM CLR 12/06 A3018 RMK AO2 T01220058
KY70 230654Z AUTO 15003KT 10SM CLR 06/01 A3030 RMK AO2 T00550014
KYIP 230653Z AUTO 00000KT 10SM CLR 07/M01 A3034 RMK AO2 SLP271 T00721011 TSNO
KYKM 230653Z AUTO 33008KT 10SM -RA FEW034 BKN100 OVC120 18/11 A2992 RMK AO2 RAB37 SLP126 P0000 T01830111
KYKN 230655Z AUTO 06004KT 10SM BKN060 12/08 A3018 RMK AO1 P0001
KYNG 230651Z 00000KT 10SM SCT250 03/M02 A3033 RMK AO2 SLP274 T00331017
KZZV 230653Z AUTO 00000KT 10SM CLR 07/03 A3032 RMK AO2 SLP267 T00670028